<?xml version="1.0" encoding="UTF-8" standalone="no" ?>
<gpx xmlns="http://www.topografix.com/GPX/1/1" xmlns:xsi="http://www.w3.org/2001/XMLSchema-instance" xsi:schemaLocation="http://www.topografix.com/GPX/1/1 http://www.topografix.com/GPX/1/1/gpx.xsd" version="1.1" creator="VisuGPX - https://www.visugpx.com">
  <metadata>
    <name>Reco sortie nocturne Forest Trail</name>
    <desc><![CDATA[Reco sortie nocturne Forest Trail]]></desc>
  </metadata>
  <trk>
    <name><![CDATA[Léguevin Course à pied]]></name>
    <trkseg>
      <trkpt lat="43.60322" lon="1.24472">
        <ele>193.19999694824</ele>
        <time>2016-01-16T07:40:00.000Z</time>
      </trkpt>
      <trkpt lat="43.6032" lon="1.24466">
        <ele>193.19999694824</ele>
        <time>2016-01-16T07:40:02.000Z</time>
      </trkpt>
      <trkpt lat="43.6032" lon="1.24448">
        <ele>193.19999694824</ele>
        <time>2016-01-16T07:40:08.000Z</time>
      </trkpt>
      <trkpt lat="43.60319" lon="1.2443">
        <ele>192.80000305176</ele>
        <time>2016-01-16T07:40:14.000Z</time>
      </trkpt>
      <trkpt lat="43.60317" lon="1.24411">
        <ele>192.39999389648</ele>
        <time>2016-01-16T07:40:20.000Z</time>
      </trkpt>
      <trkpt lat="43.60309" lon="1.24371">
        <ele>192.19999694824</ele>
        <time>2016-01-16T07:40:33.000Z</time>
      </trkpt>
      <trkpt lat="43.60301" lon="1.24356">
        <ele>192.39999389648</ele>
        <time>2016-01-16T07:40:39.000Z</time>
      </trkpt>
      <trkpt lat="43.60287" lon="1.24342">
        <ele>192.60000610352</ele>
        <time>2016-01-16T07:40:46.000Z</time>
      </trkpt>
      <trkpt lat="43.60278" lon="1.24333">
        <ele>192.80000305176</ele>
        <time>2016-01-16T07:40:51.000Z</time>
      </trkpt>
      <trkpt lat="43.60266" lon="1.24321">
        <ele>193</ele>
        <time>2016-01-16T07:40:57.000Z</time>
      </trkpt>
      <trkpt lat="43.60256" lon="1.24312">
        <ele>193.19999694824</ele>
        <time>2016-01-16T07:41:02.000Z</time>
      </trkpt>
      <trkpt lat="43.60247" lon="1.24302">
        <ele>193.39999389648</ele>
        <time>2016-01-16T07:41:07.000Z</time>
      </trkpt>
      <trkpt lat="43.60234" lon="1.2429">
        <ele>193.60000610352</ele>
        <time>2016-01-16T07:41:13.000Z</time>
      </trkpt>
      <trkpt lat="43.60222" lon="1.24279">
        <ele>193.80000305176</ele>
        <time>2016-01-16T07:41:19.000Z</time>
      </trkpt>
      <trkpt lat="43.60211" lon="1.2427">
        <ele>193.80000305176</ele>
        <time>2016-01-16T07:41:24.000Z</time>
      </trkpt>
      <trkpt lat="43.60197" lon="1.24255">
        <ele>194</ele>
        <time>2016-01-16T07:41:31.000Z</time>
      </trkpt>
      <trkpt lat="43.60189" lon="1.24244">
        <ele>194</ele>
        <time>2016-01-16T07:41:36.000Z</time>
      </trkpt>
      <trkpt lat="43.60183" lon="1.24237">
        <ele>194.19999694824</ele>
        <time>2016-01-16T07:41:41.000Z</time>
      </trkpt>
      <trkpt lat="43.60181" lon="1.24234">
        <ele>194.19999694824</ele>
        <time>2016-01-16T07:41:42.000Z</time>
      </trkpt>
      <trkpt lat="43.60179" lon="1.2423">
        <ele>194</ele>
        <time>2016-01-16T07:41:44.000Z</time>
      </trkpt>
      <trkpt lat="43.60188" lon="1.24217">
        <ele>194</ele>
        <time>2016-01-16T07:41:50.000Z</time>
      </trkpt>
      <trkpt lat="43.60198" lon="1.24204">
        <ele>194</ele>
        <time>2016-01-16T07:41:55.000Z</time>
      </trkpt>
      <trkpt lat="43.6021" lon="1.2419">
        <ele>194</ele>
        <time>2016-01-16T07:42:01.000Z</time>
      </trkpt>
      <trkpt lat="43.60218" lon="1.24177">
        <ele>194</ele>
        <time>2016-01-16T07:42:06.000Z</time>
      </trkpt>
      <trkpt lat="43.60225" lon="1.24165">
        <ele>193.80000305176</ele>
        <time>2016-01-16T07:42:11.000Z</time>
      </trkpt>
      <trkpt lat="43.60229" lon="1.24151">
        <ele>193.60000610352</ele>
        <time>2016-01-16T07:42:15.000Z</time>
      </trkpt>
      <trkpt lat="43.60234" lon="1.24138">
        <ele>193</ele>
        <time>2016-01-16T07:42:19.000Z</time>
      </trkpt>
      <trkpt lat="43.60241" lon="1.2411">
        <ele>191.60000610352</ele>
        <time>2016-01-16T07:42:26.000Z</time>
      </trkpt>
      <trkpt lat="43.60247" lon="1.24088">
        <ele>190</ele>
        <time>2016-01-16T07:42:32.000Z</time>
      </trkpt>
      <trkpt lat="43.60249" lon="1.24065">
        <ele>188.60000610352</ele>
        <time>2016-01-16T07:42:39.000Z</time>
      </trkpt>
      <trkpt lat="43.60254" lon="1.24053">
        <ele>187.60000610352</ele>
        <time>2016-01-16T07:42:44.000Z</time>
      </trkpt>
      <trkpt lat="43.60255" lon="1.24051">
        <ele>187.39999389648</ele>
        <time>2016-01-16T07:42:45.000Z</time>
      </trkpt>
      <trkpt lat="43.60265" lon="1.24038">
        <ele>186.80000305176</ele>
        <time>2016-01-16T07:42:51.000Z</time>
      </trkpt>
      <trkpt lat="43.60267" lon="1.24036">
        <ele>186.80000305176</ele>
        <time>2016-01-16T07:42:52.000Z</time>
      </trkpt>
      <trkpt lat="43.60277" lon="1.24024">
        <ele>185.60000610352</ele>
        <time>2016-01-16T07:42:57.000Z</time>
      </trkpt>
      <trkpt lat="43.60289" lon="1.24011">
        <ele>184</ele>
        <time>2016-01-16T07:43:03.000Z</time>
      </trkpt>
      <trkpt lat="43.60295" lon="1.24001">
        <ele>183.19999694824</ele>
        <time>2016-01-16T07:43:07.000Z</time>
      </trkpt>
      <trkpt lat="43.60297" lon="1.23999">
        <ele>183.19999694824</ele>
        <time>2016-01-16T07:43:08.000Z</time>
      </trkpt>
      <trkpt lat="43.60305" lon="1.2399">
        <ele>182.80000305176</ele>
        <time>2016-01-16T07:43:13.000Z</time>
      </trkpt>
      <trkpt lat="43.60314" lon="1.23981">
        <ele>182.39999389648</ele>
        <time>2016-01-16T07:43:17.000Z</time>
      </trkpt>
      <trkpt lat="43.60325" lon="1.23987">
        <ele>182</ele>
        <time>2016-01-16T07:43:22.000Z</time>
      </trkpt>
      <trkpt lat="43.60348" lon="1.24009">
        <ele>181.39999389648</ele>
        <time>2016-01-16T07:43:33.000Z</time>
      </trkpt>
      <trkpt lat="43.60358" lon="1.24018">
        <ele>181.60000610352</ele>
        <time>2016-01-16T07:43:37.000Z</time>
      </trkpt>
      <trkpt lat="43.60366" lon="1.24014">
        <ele>181.80000305176</ele>
        <time>2016-01-16T07:43:41.000Z</time>
      </trkpt>
      <trkpt lat="43.60376" lon="1.24012">
        <ele>182</ele>
        <time>2016-01-16T07:43:45.000Z</time>
      </trkpt>
      <trkpt lat="43.60385" lon="1.24018">
        <ele>182.19999694824</ele>
        <time>2016-01-16T07:43:49.000Z</time>
      </trkpt>
      <trkpt lat="43.60394" lon="1.24023">
        <ele>182.60000610352</ele>
        <time>2016-01-16T07:43:53.000Z</time>
      </trkpt>
      <trkpt lat="43.60408" lon="1.24029">
        <ele>183.60000610352</ele>
        <time>2016-01-16T07:43:59.000Z</time>
      </trkpt>
      <trkpt lat="43.6041" lon="1.2403">
        <ele>183.80000305176</ele>
        <time>2016-01-16T07:44:00.000Z</time>
      </trkpt>
      <trkpt lat="43.6042" lon="1.24034">
        <ele>184.60000610352</ele>
        <time>2016-01-16T07:44:05.000Z</time>
      </trkpt>
      <trkpt lat="43.60422" lon="1.24035">
        <ele>184.80000305176</ele>
        <time>2016-01-16T07:44:06.000Z</time>
      </trkpt>
      <trkpt lat="43.60434" lon="1.24045">
        <ele>185.39999389648</ele>
        <time>2016-01-16T07:44:12.000Z</time>
      </trkpt>
      <trkpt lat="43.60447" lon="1.24052">
        <ele>185.60000610352</ele>
        <time>2016-01-16T07:44:18.000Z</time>
      </trkpt>
      <trkpt lat="43.60455" lon="1.24055">
        <ele>185.80000305176</ele>
        <time>2016-01-16T07:44:22.000Z</time>
      </trkpt>
      <trkpt lat="43.60456" lon="1.24055">
        <ele>185.80000305176</ele>
        <time>2016-01-16T07:44:23.000Z</time>
      </trkpt>
      <trkpt lat="43.60459" lon="1.24053">
        <ele>186.19999694824</ele>
        <time>2016-01-16T07:44:25.000Z</time>
      </trkpt>
      <trkpt lat="43.60467" lon="1.2404">
        <ele>187.80000305176</ele>
        <time>2016-01-16T07:44:33.000Z</time>
      </trkpt>
      <trkpt lat="43.60469" lon="1.24032">
        <ele>188.60000610352</ele>
        <time>2016-01-16T07:44:37.000Z</time>
      </trkpt>
      <trkpt lat="43.6047" lon="1.24024">
        <ele>189.39999389648</ele>
        <time>2016-01-16T07:44:41.000Z</time>
      </trkpt>
      <trkpt lat="43.60474" lon="1.24014">
        <ele>190.39999389648</ele>
        <time>2016-01-16T07:44:46.000Z</time>
      </trkpt>
      <trkpt lat="43.60479" lon="1.24004">
        <ele>191.80000305176</ele>
        <time>2016-01-16T07:44:51.000Z</time>
      </trkpt>
      <trkpt lat="43.60486" lon="1.2399">
        <ele>193.60000610352</ele>
        <time>2016-01-16T07:44:59.000Z</time>
      </trkpt>
      <trkpt lat="43.60491" lon="1.23979">
        <ele>195</ele>
        <time>2016-01-16T07:45:05.000Z</time>
      </trkpt>
      <trkpt lat="43.60494" lon="1.23971">
        <ele>195.60000610352</ele>
        <time>2016-01-16T07:45:08.000Z</time>
      </trkpt>
      <trkpt lat="43.60501" lon="1.23949">
        <ele>196</ele>
        <time>2016-01-16T07:45:16.000Z</time>
      </trkpt>
      <trkpt lat="43.60506" lon="1.23934">
        <ele>195.80000305176</ele>
        <time>2016-01-16T07:45:21.000Z</time>
      </trkpt>
      <trkpt lat="43.60518" lon="1.23927">
        <ele>195.80000305176</ele>
        <time>2016-01-16T07:45:26.000Z</time>
      </trkpt>
      <trkpt lat="43.60549" lon="1.23942">
        <ele>195</ele>
        <time>2016-01-16T07:45:40.000Z</time>
      </trkpt>
      <trkpt lat="43.6056" lon="1.23943">
        <ele>194.60000610352</ele>
        <time>2016-01-16T07:45:45.000Z</time>
      </trkpt>
      <trkpt lat="43.60562" lon="1.23942">
        <ele>194.60000610352</ele>
        <time>2016-01-16T07:45:46.000Z</time>
      </trkpt>
      <trkpt lat="43.60565" lon="1.23933">
        <ele>194.19999694824</ele>
        <time>2016-01-16T07:45:49.000Z</time>
      </trkpt>
      <trkpt lat="43.6057" lon="1.23913">
        <ele>193.60000610352</ele>
        <time>2016-01-16T07:45:56.000Z</time>
      </trkpt>
      <trkpt lat="43.60574" lon="1.23899">
        <ele>193</ele>
        <time>2016-01-16T07:46:01.000Z</time>
      </trkpt>
      <trkpt lat="43.60581" lon="1.2388">
        <ele>192.39999389648</ele>
        <time>2016-01-16T07:46:08.000Z</time>
      </trkpt>
      <trkpt lat="43.60588" lon="1.23863">
        <ele>192.19999694824</ele>
        <time>2016-01-16T07:46:14.000Z</time>
      </trkpt>
      <trkpt lat="43.60594" lon="1.23845">
        <ele>192</ele>
        <time>2016-01-16T07:46:20.000Z</time>
      </trkpt>
      <trkpt lat="43.60599" lon="1.23826">
        <ele>192</ele>
        <time>2016-01-16T07:46:26.000Z</time>
      </trkpt>
      <trkpt lat="43.60604" lon="1.23807">
        <ele>192</ele>
        <time>2016-01-16T07:46:32.000Z</time>
      </trkpt>
      <trkpt lat="43.60609" lon="1.23792">
        <ele>192</ele>
        <time>2016-01-16T07:46:37.000Z</time>
      </trkpt>
      <trkpt lat="43.60614" lon="1.23776">
        <ele>191.80000305176</ele>
        <time>2016-01-16T07:46:42.000Z</time>
      </trkpt>
      <trkpt lat="43.60617" lon="1.23759">
        <ele>191.80000305176</ele>
        <time>2016-01-16T07:46:47.000Z</time>
      </trkpt>
      <trkpt lat="43.60622" lon="1.2374">
        <ele>191.80000305176</ele>
        <time>2016-01-16T07:46:53.000Z</time>
      </trkpt>
      <trkpt lat="43.60628" lon="1.23722">
        <ele>192</ele>
        <time>2016-01-16T07:46:59.000Z</time>
      </trkpt>
      <trkpt lat="43.60633" lon="1.23699">
        <ele>192.39999389648</ele>
        <time>2016-01-16T07:47:06.000Z</time>
      </trkpt>
      <trkpt lat="43.60639" lon="1.23679">
        <ele>192.60000610352</ele>
        <time>2016-01-16T07:47:13.000Z</time>
      </trkpt>
      <trkpt lat="43.60643" lon="1.23664">
        <ele>193</ele>
        <time>2016-01-16T07:47:18.000Z</time>
      </trkpt>
      <trkpt lat="43.60647" lon="1.23647">
        <ele>193.60000610352</ele>
        <time>2016-01-16T07:47:23.000Z</time>
      </trkpt>
      <trkpt lat="43.60649" lon="1.2364">
        <ele>193.60000610352</ele>
        <time>2016-01-16T07:47:25.000Z</time>
      </trkpt>
      <trkpt lat="43.60655" lon="1.2362">
        <ele>194.19999694824</ele>
        <time>2016-01-16T07:47:32.000Z</time>
      </trkpt>
      <trkpt lat="43.6066" lon="1.23604">
        <ele>194.39999389648</ele>
        <time>2016-01-16T07:47:37.000Z</time>
      </trkpt>
      <trkpt lat="43.60664" lon="1.23587">
        <ele>194.19999694824</ele>
        <time>2016-01-16T07:47:42.000Z</time>
      </trkpt>
      <trkpt lat="43.60675" lon="1.23551">
        <ele>194.19999694824</ele>
        <time>2016-01-16T07:47:53.000Z</time>
      </trkpt>
      <trkpt lat="43.60682" lon="1.23531">
        <ele>194.39999389648</ele>
        <time>2016-01-16T07:47:59.000Z</time>
      </trkpt>
      <trkpt lat="43.60687" lon="1.23513">
        <ele>194.60000610352</ele>
        <time>2016-01-16T07:48:04.000Z</time>
      </trkpt>
      <trkpt lat="43.60692" lon="1.23494">
        <ele>195</ele>
        <time>2016-01-16T07:48:10.000Z</time>
      </trkpt>
      <trkpt lat="43.60697" lon="1.23478">
        <ele>195.19999694824</ele>
        <time>2016-01-16T07:48:15.000Z</time>
      </trkpt>
      <trkpt lat="43.60701" lon="1.23461">
        <ele>195.39999389648</ele>
        <time>2016-01-16T07:48:20.000Z</time>
      </trkpt>
      <trkpt lat="43.60705" lon="1.23441">
        <ele>195.60000610352</ele>
        <time>2016-01-16T07:48:26.000Z</time>
      </trkpt>
      <trkpt lat="43.60712" lon="1.23423">
        <ele>196</ele>
        <time>2016-01-16T07:48:31.000Z</time>
      </trkpt>
      <trkpt lat="43.60721" lon="1.23409">
        <ele>195.39999389648</ele>
        <time>2016-01-16T07:48:36.000Z</time>
      </trkpt>
      <trkpt lat="43.60733" lon="1.23396">
        <ele>194.80000305176</ele>
        <time>2016-01-16T07:48:40.000Z</time>
      </trkpt>
      <trkpt lat="43.60734" lon="1.23393">
        <ele>194.80000305176</ele>
        <time>2016-01-16T07:48:41.000Z</time>
      </trkpt>
      <trkpt lat="43.6074" lon="1.23364">
        <ele>194.19999694824</ele>
        <time>2016-01-16T07:48:49.000Z</time>
      </trkpt>
      <trkpt lat="43.60743" lon="1.23343">
        <ele>193.60000610352</ele>
        <time>2016-01-16T07:48:55.000Z</time>
      </trkpt>
      <trkpt lat="43.60747" lon="1.23319">
        <ele>193</ele>
        <time>2016-01-16T07:49:02.000Z</time>
      </trkpt>
      <trkpt lat="43.60751" lon="1.23295">
        <ele>192.60000610352</ele>
        <time>2016-01-16T07:49:09.000Z</time>
      </trkpt>
      <trkpt lat="43.60753" lon="1.23278">
        <ele>192.39999389648</ele>
        <time>2016-01-16T07:49:14.000Z</time>
      </trkpt>
      <trkpt lat="43.60755" lon="1.2326">
        <ele>192</ele>
        <time>2016-01-16T07:49:19.000Z</time>
      </trkpt>
      <trkpt lat="43.60759" lon="1.2324">
        <ele>191.60000610352</ele>
        <time>2016-01-16T07:49:25.000Z</time>
      </trkpt>
      <trkpt lat="43.60764" lon="1.23215">
        <ele>191.39999389648</ele>
        <time>2016-01-16T07:49:32.000Z</time>
      </trkpt>
      <trkpt lat="43.60765" lon="1.23198">
        <ele>191.80000305176</ele>
        <time>2016-01-16T07:49:37.000Z</time>
      </trkpt>
      <trkpt lat="43.60766" lon="1.23179">
        <ele>192.19999694824</ele>
        <time>2016-01-16T07:49:42.000Z</time>
      </trkpt>
      <trkpt lat="43.60769" lon="1.2316">
        <ele>192.60000610352</ele>
        <time>2016-01-16T07:49:48.000Z</time>
      </trkpt>
      <trkpt lat="43.60772" lon="1.23145">
        <ele>193</ele>
        <time>2016-01-16T07:49:53.000Z</time>
      </trkpt>
      <trkpt lat="43.60775" lon="1.23126">
        <ele>193.39999389648</ele>
        <time>2016-01-16T07:49:59.000Z</time>
      </trkpt>
      <trkpt lat="43.60777" lon="1.23102">
        <ele>194</ele>
        <time>2016-01-16T07:50:06.000Z</time>
      </trkpt>
      <trkpt lat="43.60788" lon="1.2309">
        <ele>194</ele>
        <time>2016-01-16T07:50:12.000Z</time>
      </trkpt>
      <trkpt lat="43.60794" lon="1.23078">
        <ele>194.39999389648</ele>
        <time>2016-01-16T07:50:17.000Z</time>
      </trkpt>
      <trkpt lat="43.60795" lon="1.23075">
        <ele>194.39999389648</ele>
        <time>2016-01-16T07:50:18.000Z</time>
      </trkpt>
      <trkpt lat="43.60801" lon="1.23072">
        <ele>194.39999389648</ele>
        <time>2016-01-16T07:50:22.000Z</time>
      </trkpt>
      <trkpt lat="43.60804" lon="1.23067">
        <ele>194.39999389648</ele>
        <time>2016-01-16T07:50:24.000Z</time>
      </trkpt>
      <trkpt lat="43.60812" lon="1.23053">
        <ele>194.19999694824</ele>
        <time>2016-01-16T07:50:30.000Z</time>
      </trkpt>
      <trkpt lat="43.60827" lon="1.23032">
        <ele>193.60000610352</ele>
        <time>2016-01-16T07:50:39.000Z</time>
      </trkpt>
      <trkpt lat="43.6084" lon="1.23">
        <ele>192.60000610352</ele>
        <time>2016-01-16T07:50:49.000Z</time>
      </trkpt>
      <trkpt lat="43.60846" lon="1.22981">
        <ele>192.19999694824</ele>
        <time>2016-01-16T07:50:55.000Z</time>
      </trkpt>
      <trkpt lat="43.60854" lon="1.22963">
        <ele>192.19999694824</ele>
        <time>2016-01-16T07:51:01.000Z</time>
      </trkpt>
      <trkpt lat="43.6086" lon="1.22949">
        <ele>192.39999389648</ele>
        <time>2016-01-16T07:51:06.000Z</time>
      </trkpt>
      <trkpt lat="43.6087" lon="1.22934">
        <ele>192.80000305176</ele>
        <time>2016-01-16T07:51:12.000Z</time>
      </trkpt>
      <trkpt lat="43.60883" lon="1.22916">
        <ele>193</ele>
        <time>2016-01-16T07:51:19.000Z</time>
      </trkpt>
      <trkpt lat="43.60891" lon="1.22902">
        <ele>193</ele>
        <time>2016-01-16T07:51:24.000Z</time>
      </trkpt>
      <trkpt lat="43.60904" lon="1.22883">
        <ele>193</ele>
        <time>2016-01-16T07:51:31.000Z</time>
      </trkpt>
      <trkpt lat="43.60915" lon="1.22869">
        <ele>193</ele>
        <time>2016-01-16T07:51:37.000Z</time>
      </trkpt>
      <trkpt lat="43.60925" lon="1.22853">
        <ele>192.60000610352</ele>
        <time>2016-01-16T07:51:43.000Z</time>
      </trkpt>
      <trkpt lat="43.60933" lon="1.22839">
        <ele>192.39999389648</ele>
        <time>2016-01-16T07:51:48.000Z</time>
      </trkpt>
      <trkpt lat="43.60941" lon="1.22824">
        <ele>192.19999694824</ele>
        <time>2016-01-16T07:51:53.000Z</time>
      </trkpt>
      <trkpt lat="43.6095" lon="1.22806">
        <ele>192.19999694824</ele>
        <time>2016-01-16T07:51:59.000Z</time>
      </trkpt>
      <trkpt lat="43.60958" lon="1.22793">
        <ele>192.60000610352</ele>
        <time>2016-01-16T07:52:04.000Z</time>
      </trkpt>
      <trkpt lat="43.60967" lon="1.22779">
        <ele>192.80000305176</ele>
        <time>2016-01-16T07:52:09.000Z</time>
      </trkpt>
      <trkpt lat="43.60978" lon="1.22758">
        <ele>193.39999389648</ele>
        <time>2016-01-16T07:52:16.000Z</time>
      </trkpt>
      <trkpt lat="43.60985" lon="1.22744">
        <ele>194.19999694824</ele>
        <time>2016-01-16T07:52:21.000Z</time>
      </trkpt>
      <trkpt lat="43.60986" lon="1.22741">
        <ele>194.39999389648</ele>
        <time>2016-01-16T07:52:22.000Z</time>
      </trkpt>
      <trkpt lat="43.60995" lon="1.22742">
        <ele>194.60000610352</ele>
        <time>2016-01-16T07:52:26.000Z</time>
      </trkpt>
      <trkpt lat="43.60998" lon="1.22738">
        <ele>195</ele>
        <time>2016-01-16T07:52:28.000Z</time>
      </trkpt>
      <trkpt lat="43.61" lon="1.22735">
        <ele>195</ele>
        <time>2016-01-16T07:52:29.000Z</time>
      </trkpt>
      <trkpt lat="43.6101" lon="1.22719">
        <ele>195.80000305176</ele>
        <time>2016-01-16T07:52:35.000Z</time>
      </trkpt>
      <trkpt lat="43.61018" lon="1.22705">
        <ele>195.80000305176</ele>
        <time>2016-01-16T07:52:40.000Z</time>
      </trkpt>
      <trkpt lat="43.61026" lon="1.22691">
        <ele>195.39999389648</ele>
        <time>2016-01-16T07:52:45.000Z</time>
      </trkpt>
      <trkpt lat="43.61036" lon="1.22672">
        <ele>194.80000305176</ele>
        <time>2016-01-16T07:52:52.000Z</time>
      </trkpt>
      <trkpt lat="43.61047" lon="1.22653">
        <ele>194.60000610352</ele>
        <time>2016-01-16T07:52:59.000Z</time>
      </trkpt>
      <trkpt lat="43.61058" lon="1.22631">
        <ele>194.19999694824</ele>
        <time>2016-01-16T07:53:06.000Z</time>
      </trkpt>
      <trkpt lat="43.61065" lon="1.22612">
        <ele>193.60000610352</ele>
        <time>2016-01-16T07:53:12.000Z</time>
      </trkpt>
      <trkpt lat="43.61071" lon="1.22592">
        <ele>193.39999389648</ele>
        <time>2016-01-16T07:53:18.000Z</time>
      </trkpt>
      <trkpt lat="43.61079" lon="1.22566">
        <ele>193</ele>
        <time>2016-01-16T07:53:26.000Z</time>
      </trkpt>
      <trkpt lat="43.61087" lon="1.22542">
        <ele>193.19999694824</ele>
        <time>2016-01-16T07:53:33.000Z</time>
      </trkpt>
      <trkpt lat="43.61095" lon="1.22518">
        <ele>193</ele>
        <time>2016-01-16T07:53:40.000Z</time>
      </trkpt>
      <trkpt lat="43.61103" lon="1.22494">
        <ele>193</ele>
        <time>2016-01-16T07:53:47.000Z</time>
      </trkpt>
      <trkpt lat="43.61108" lon="1.22477">
        <ele>193</ele>
        <time>2016-01-16T07:53:52.000Z</time>
      </trkpt>
      <trkpt lat="43.61116" lon="1.22454">
        <ele>193.39999389648</ele>
        <time>2016-01-16T07:53:59.000Z</time>
      </trkpt>
      <trkpt lat="43.61124" lon="1.22431">
        <ele>193.80000305176</ele>
        <time>2016-01-16T07:54:06.000Z</time>
      </trkpt>
      <trkpt lat="43.61129" lon="1.22415">
        <ele>194</ele>
        <time>2016-01-16T07:54:11.000Z</time>
      </trkpt>
      <trkpt lat="43.61136" lon="1.224">
        <ele>194.39999389648</ele>
        <time>2016-01-16T07:54:16.000Z</time>
      </trkpt>
      <trkpt lat="43.61145" lon="1.22386">
        <ele>194.39999389648</ele>
        <time>2016-01-16T07:54:21.000Z</time>
      </trkpt>
      <trkpt lat="43.6116" lon="1.22371">
        <ele>194.39999389648</ele>
        <time>2016-01-16T07:54:28.000Z</time>
      </trkpt>
      <trkpt lat="43.61172" lon="1.22361">
        <ele>194.60000610352</ele>
        <time>2016-01-16T07:54:33.000Z</time>
      </trkpt>
      <trkpt lat="43.61186" lon="1.2235">
        <ele>195</ele>
        <time>2016-01-16T07:54:39.000Z</time>
      </trkpt>
      <trkpt lat="43.61196" lon="1.22341">
        <ele>195</ele>
        <time>2016-01-16T07:54:44.000Z</time>
      </trkpt>
      <trkpt lat="43.61207" lon="1.22333">
        <ele>195</ele>
        <time>2016-01-16T07:54:49.000Z</time>
      </trkpt>
      <trkpt lat="43.61225" lon="1.22321">
        <ele>195</ele>
        <time>2016-01-16T07:54:57.000Z</time>
      </trkpt>
      <trkpt lat="43.61232" lon="1.22315">
        <ele>195</ele>
        <time>2016-01-16T07:55:01.000Z</time>
      </trkpt>
      <trkpt lat="43.61236" lon="1.22312">
        <ele>195</ele>
        <time>2016-01-16T07:55:03.000Z</time>
      </trkpt>
      <trkpt lat="43.61244" lon="1.22305">
        <ele>195</ele>
        <time>2016-01-16T07:55:07.000Z</time>
      </trkpt>
      <trkpt lat="43.61254" lon="1.22293">
        <ele>194.80000305176</ele>
        <time>2016-01-16T07:55:13.000Z</time>
      </trkpt>
      <trkpt lat="43.61263" lon="1.22284">
        <ele>195.19999694824</ele>
        <time>2016-01-16T07:55:18.000Z</time>
      </trkpt>
      <trkpt lat="43.61276" lon="1.22271">
        <ele>195.39999389648</ele>
        <time>2016-01-16T07:55:24.000Z</time>
      </trkpt>
      <trkpt lat="43.61292" lon="1.22256">
        <ele>195.39999389648</ele>
        <time>2016-01-16T07:55:31.000Z</time>
      </trkpt>
      <trkpt lat="43.61306" lon="1.22241">
        <ele>195</ele>
        <time>2016-01-16T07:55:38.000Z</time>
      </trkpt>
      <trkpt lat="43.61311" lon="1.22234">
        <ele>195</ele>
        <time>2016-01-16T07:55:41.000Z</time>
      </trkpt>
      <trkpt lat="43.6132" lon="1.22226">
        <ele>194.80000305176</ele>
        <time>2016-01-16T07:55:45.000Z</time>
      </trkpt>
      <trkpt lat="43.61324" lon="1.22206">
        <ele>194.60000610352</ele>
        <time>2016-01-16T07:55:51.000Z</time>
      </trkpt>
      <trkpt lat="43.61329" lon="1.22187">
        <ele>194.80000305176</ele>
        <time>2016-01-16T07:55:57.000Z</time>
      </trkpt>
      <trkpt lat="43.61333" lon="1.2217">
        <ele>195</ele>
        <time>2016-01-16T07:56:02.000Z</time>
      </trkpt>
      <trkpt lat="43.61335" lon="1.22156">
        <ele>195</ele>
        <time>2016-01-16T07:56:06.000Z</time>
      </trkpt>
      <trkpt lat="43.6134" lon="1.22133">
        <ele>195.19999694824</ele>
        <time>2016-01-16T07:56:13.000Z</time>
      </trkpt>
      <trkpt lat="43.61345" lon="1.22111">
        <ele>195.39999389648</ele>
        <time>2016-01-16T07:56:19.000Z</time>
      </trkpt>
      <trkpt lat="43.61349" lon="1.22088">
        <ele>195.60000610352</ele>
        <time>2016-01-16T07:56:26.000Z</time>
      </trkpt>
      <trkpt lat="43.61354" lon="1.22049">
        <ele>195.80000305176</ele>
        <time>2016-01-16T07:56:37.000Z</time>
      </trkpt>
      <trkpt lat="43.61356" lon="1.22036">
        <ele>195.60000610352</ele>
        <time>2016-01-16T07:56:41.000Z</time>
      </trkpt>
      <trkpt lat="43.61358" lon="1.2202">
        <ele>195.39999389648</ele>
        <time>2016-01-16T07:56:46.000Z</time>
      </trkpt>
      <trkpt lat="43.61358" lon="1.22016">
        <ele>195.39999389648</ele>
        <time>2016-01-16T07:56:47.000Z</time>
      </trkpt>
      <trkpt lat="43.61363" lon="1.21994">
        <ele>195</ele>
        <time>2016-01-16T07:56:54.000Z</time>
      </trkpt>
      <trkpt lat="43.61365" lon="1.21982">
        <ele>195</ele>
        <time>2016-01-16T07:56:58.000Z</time>
      </trkpt>
      <trkpt lat="43.61368" lon="1.21967">
        <ele>195.19999694824</ele>
        <time>2016-01-16T07:57:03.000Z</time>
      </trkpt>
      <trkpt lat="43.61371" lon="1.21948">
        <ele>195.39999389648</ele>
        <time>2016-01-16T07:57:09.000Z</time>
      </trkpt>
      <trkpt lat="43.61373" lon="1.21932">
        <ele>195.60000610352</ele>
        <time>2016-01-16T07:57:14.000Z</time>
      </trkpt>
      <trkpt lat="43.61374" lon="1.21913">
        <ele>195.80000305176</ele>
        <time>2016-01-16T07:57:19.000Z</time>
      </trkpt>
      <trkpt lat="43.61377" lon="1.21894">
        <ele>196.39999389648</ele>
        <time>2016-01-16T07:57:25.000Z</time>
      </trkpt>
      <trkpt lat="43.61381" lon="1.21873">
        <ele>196.60000610352</ele>
        <time>2016-01-16T07:57:32.000Z</time>
      </trkpt>
      <trkpt lat="43.61385" lon="1.21847">
        <ele>197</ele>
        <time>2016-01-16T07:57:39.000Z</time>
      </trkpt>
      <trkpt lat="43.61388" lon="1.21831">
        <ele>197.60000610352</ele>
        <time>2016-01-16T07:57:44.000Z</time>
      </trkpt>
      <trkpt lat="43.61392" lon="1.21813">
        <ele>198.39999389648</ele>
        <time>2016-01-16T07:57:49.000Z</time>
      </trkpt>
      <trkpt lat="43.61396" lon="1.21795">
        <ele>198.60000610352</ele>
        <time>2016-01-16T07:57:55.000Z</time>
      </trkpt>
      <trkpt lat="43.61399" lon="1.21778">
        <ele>198.60000610352</ele>
        <time>2016-01-16T07:58:00.000Z</time>
      </trkpt>
      <trkpt lat="43.61399" lon="1.21758">
        <ele>198.39999389648</ele>
        <time>2016-01-16T07:58:05.000Z</time>
      </trkpt>
      <trkpt lat="43.61394" lon="1.21738">
        <ele>198.19999694824</ele>
        <time>2016-01-16T07:58:11.000Z</time>
      </trkpt>
      <trkpt lat="43.61386" lon="1.21715">
        <ele>198.19999694824</ele>
        <time>2016-01-16T07:58:18.000Z</time>
      </trkpt>
      <trkpt lat="43.61383" lon="1.21705">
        <ele>198.39999389648</ele>
        <time>2016-01-16T07:58:21.000Z</time>
      </trkpt>
      <trkpt lat="43.61383" lon="1.21701">
        <ele>198.39999389648</ele>
        <time>2016-01-16T07:58:22.000Z</time>
      </trkpt>
      <trkpt lat="43.61391" lon="1.2168">
        <ele>199</ele>
        <time>2016-01-16T07:58:28.000Z</time>
      </trkpt>
      <trkpt lat="43.61402" lon="1.21657">
        <ele>198.60000610352</ele>
        <time>2016-01-16T07:58:35.000Z</time>
      </trkpt>
      <trkpt lat="43.61415" lon="1.21635">
        <ele>198</ele>
        <time>2016-01-16T07:58:42.000Z</time>
      </trkpt>
      <trkpt lat="43.61424" lon="1.21619">
        <ele>197.80000305176</ele>
        <time>2016-01-16T07:58:47.000Z</time>
      </trkpt>
      <trkpt lat="43.61432" lon="1.21605">
        <ele>198</ele>
        <time>2016-01-16T07:58:52.000Z</time>
      </trkpt>
      <trkpt lat="43.61441" lon="1.21587">
        <ele>198</ele>
        <time>2016-01-16T07:58:58.000Z</time>
      </trkpt>
      <trkpt lat="43.6145" lon="1.21573">
        <ele>198.19999694824</ele>
        <time>2016-01-16T07:59:03.000Z</time>
      </trkpt>
      <trkpt lat="43.6146" lon="1.21555">
        <ele>198.60000610352</ele>
        <time>2016-01-16T07:59:09.000Z</time>
      </trkpt>
      <trkpt lat="43.61472" lon="1.21534">
        <ele>199.19999694824</ele>
        <time>2016-01-16T07:59:16.000Z</time>
      </trkpt>
      <trkpt lat="43.61485" lon="1.21514">
        <ele>199.80000305176</ele>
        <time>2016-01-16T07:59:23.000Z</time>
      </trkpt>
      <trkpt lat="43.61498" lon="1.21495">
        <ele>200.39999389648</ele>
        <time>2016-01-16T07:59:30.000Z</time>
      </trkpt>
      <trkpt lat="43.61509" lon="1.21476">
        <ele>200.80000305176</ele>
        <time>2016-01-16T07:59:37.000Z</time>
      </trkpt>
      <trkpt lat="43.6153" lon="1.21441">
        <ele>201.60000610352</ele>
        <time>2016-01-16T07:59:50.000Z</time>
      </trkpt>
      <trkpt lat="43.6154" lon="1.2142">
        <ele>201.80000305176</ele>
        <time>2016-01-16T07:59:57.000Z</time>
      </trkpt>
      <trkpt lat="43.61552" lon="1.21402">
        <ele>202.60000610352</ele>
        <time>2016-01-16T08:00:04.000Z</time>
      </trkpt>
      <trkpt lat="43.61558" lon="1.21391">
        <ele>203</ele>
        <time>2016-01-16T08:00:08.000Z</time>
      </trkpt>
      <trkpt lat="43.61569" lon="1.21371">
        <ele>202.80000305176</ele>
        <time>2016-01-16T08:00:15.000Z</time>
      </trkpt>
      <trkpt lat="43.61581" lon="1.21352">
        <ele>203.19999694824</ele>
        <time>2016-01-16T08:00:22.000Z</time>
      </trkpt>
      <trkpt lat="43.61594" lon="1.21331">
        <ele>204.19999694824</ele>
        <time>2016-01-16T08:00:30.000Z</time>
      </trkpt>
      <trkpt lat="43.61607" lon="1.21309">
        <ele>205.60000610352</ele>
        <time>2016-01-16T08:00:38.000Z</time>
      </trkpt>
      <trkpt lat="43.6162" lon="1.21287">
        <ele>207.60000610352</ele>
        <time>2016-01-16T08:00:46.000Z</time>
      </trkpt>
      <trkpt lat="43.6163" lon="1.21276">
        <ele>209</ele>
        <time>2016-01-16T08:00:51.000Z</time>
      </trkpt>
      <trkpt lat="43.61632" lon="1.21275">
        <ele>209.19999694824</ele>
        <time>2016-01-16T08:00:52.000Z</time>
      </trkpt>
      <trkpt lat="43.61641" lon="1.21265">
        <ele>210.39999389648</ele>
        <time>2016-01-16T08:00:57.000Z</time>
      </trkpt>
      <trkpt lat="43.61643" lon="1.21249">
        <ele>210.39999389648</ele>
        <time>2016-01-16T08:01:02.000Z</time>
      </trkpt>
      <trkpt lat="43.61646" lon="1.21233">
        <ele>210.60000610352</ele>
        <time>2016-01-16T08:01:07.000Z</time>
      </trkpt>
      <trkpt lat="43.61652" lon="1.21217">
        <ele>211.19999694824</ele>
        <time>2016-01-16T08:01:12.000Z</time>
      </trkpt>
      <trkpt lat="43.61655" lon="1.21209">
        <ele>211.60000610352</ele>
        <time>2016-01-16T08:01:15.000Z</time>
      </trkpt>
      <trkpt lat="43.61649" lon="1.21195">
        <ele>211.60000610352</ele>
        <time>2016-01-16T08:01:20.000Z</time>
      </trkpt>
      <trkpt lat="43.61637" lon="1.2118">
        <ele>211.19999694824</ele>
        <time>2016-01-16T08:01:26.000Z</time>
      </trkpt>
      <trkpt lat="43.61635" lon="1.21178">
        <ele>211.19999694824</ele>
        <time>2016-01-16T08:01:28.000Z</time>
      </trkpt>
      <trkpt lat="43.61631" lon="1.21175">
        <ele>211</ele>
        <time>2016-01-16T08:01:30.000Z</time>
      </trkpt>
      <trkpt lat="43.61624" lon="1.21162">
        <ele>210.80000305176</ele>
        <time>2016-01-16T08:01:36.000Z</time>
      </trkpt>
      <trkpt lat="43.61617" lon="1.21151">
        <ele>210.60000610352</ele>
        <time>2016-01-16T08:01:41.000Z</time>
      </trkpt>
      <trkpt lat="43.61608" lon="1.21142">
        <ele>210.39999389648</ele>
        <time>2016-01-16T08:01:48.000Z</time>
      </trkpt>
      <trkpt lat="43.61606" lon="1.21138">
        <ele>210.39999389648</ele>
        <time>2016-01-16T08:01:50.000Z</time>
      </trkpt>
      <trkpt lat="43.616" lon="1.21133">
        <ele>210.19999694824</ele>
        <time>2016-01-16T08:01:54.000Z</time>
      </trkpt>
      <trkpt lat="43.61588" lon="1.21116">
        <ele>209.80000305176</ele>
        <time>2016-01-16T08:02:01.000Z</time>
      </trkpt>
      <trkpt lat="43.61581" lon="1.21106">
        <ele>209.39999389648</ele>
        <time>2016-01-16T08:02:05.000Z</time>
      </trkpt>
      <trkpt lat="43.6157" lon="1.21087">
        <ele>209</ele>
        <time>2016-01-16T08:02:12.000Z</time>
      </trkpt>
      <trkpt lat="43.61562" lon="1.21071">
        <ele>208.80000305176</ele>
        <time>2016-01-16T08:02:17.000Z</time>
      </trkpt>
      <trkpt lat="43.61554" lon="1.21057">
        <ele>208.80000305176</ele>
        <time>2016-01-16T08:02:22.000Z</time>
      </trkpt>
      <trkpt lat="43.61546" lon="1.21038">
        <ele>209</ele>
        <time>2016-01-16T08:02:28.000Z</time>
      </trkpt>
      <trkpt lat="43.61535" lon="1.21016">
        <ele>209.39999389648</ele>
        <time>2016-01-16T08:02:34.000Z</time>
      </trkpt>
      <trkpt lat="43.61527" lon="1.21003">
        <ele>209.39999389648</ele>
        <time>2016-01-16T08:02:39.000Z</time>
      </trkpt>
      <trkpt lat="43.61524" lon="1.20997">
        <ele>209.39999389648</ele>
        <time>2016-01-16T08:02:41.000Z</time>
      </trkpt>
      <trkpt lat="43.61514" lon="1.20981">
        <ele>209.39999389648</ele>
        <time>2016-01-16T08:02:47.000Z</time>
      </trkpt>
      <trkpt lat="43.61505" lon="1.20963">
        <ele>209.80000305176</ele>
        <time>2016-01-16T08:02:53.000Z</time>
      </trkpt>
      <trkpt lat="43.61493" lon="1.20944">
        <ele>210.19999694824</ele>
        <time>2016-01-16T08:03:00.000Z</time>
      </trkpt>
      <trkpt lat="43.61484" lon="1.20929">
        <ele>210.60000610352</ele>
        <time>2016-01-16T08:03:05.000Z</time>
      </trkpt>
      <trkpt lat="43.61476" lon="1.20914">
        <ele>211</ele>
        <time>2016-01-16T08:03:10.000Z</time>
      </trkpt>
      <trkpt lat="43.61467" lon="1.20895">
        <ele>212</ele>
        <time>2016-01-16T08:03:16.000Z</time>
      </trkpt>
      <trkpt lat="43.61459" lon="1.20881">
        <ele>211.60000610352</ele>
        <time>2016-01-16T08:03:21.000Z</time>
      </trkpt>
      <trkpt lat="43.61449" lon="1.20864">
        <ele>211</ele>
        <time>2016-01-16T08:03:27.000Z</time>
      </trkpt>
      <trkpt lat="43.61445" lon="1.20856">
        <ele>210.80000305176</ele>
        <time>2016-01-16T08:03:31.000Z</time>
      </trkpt>
      <trkpt lat="43.61445" lon="1.20855">
        <ele>211</ele>
        <time>2016-01-16T08:03:32.000Z</time>
      </trkpt>
      <trkpt lat="43.61445" lon="1.20855">
        <ele>211</ele>
        <time>2016-01-16T08:03:33.000Z</time>
      </trkpt>
      <trkpt lat="43.61437" lon="1.20832">
        <ele>211.19999694824</ele>
        <time>2016-01-16T08:03:39.000Z</time>
      </trkpt>
      <trkpt lat="43.61428" lon="1.20813">
        <ele>211.39999389648</ele>
        <time>2016-01-16T08:03:45.000Z</time>
      </trkpt>
      <trkpt lat="43.61422" lon="1.20799">
        <ele>211.39999389648</ele>
        <time>2016-01-16T08:03:49.000Z</time>
      </trkpt>
      <trkpt lat="43.61414" lon="1.2078">
        <ele>211.80000305176</ele>
        <time>2016-01-16T08:03:55.000Z</time>
      </trkpt>
      <trkpt lat="43.61403" lon="1.20759">
        <ele>212.19999694824</ele>
        <time>2016-01-16T08:04:02.000Z</time>
      </trkpt>
      <trkpt lat="43.61394" lon="1.20745">
        <ele>212.19999694824</ele>
        <time>2016-01-16T08:04:07.000Z</time>
      </trkpt>
      <trkpt lat="43.61388" lon="1.20734">
        <ele>212.19999694824</ele>
        <time>2016-01-16T08:04:11.000Z</time>
      </trkpt>
      <trkpt lat="43.61384" lon="1.20728">
        <ele>212.39999389648</ele>
        <time>2016-01-16T08:04:13.000Z</time>
      </trkpt>
      <trkpt lat="43.61379" lon="1.20719">
        <ele>212.19999694824</ele>
        <time>2016-01-16T08:04:16.000Z</time>
      </trkpt>
      <trkpt lat="43.61369" lon="1.20701">
        <ele>212</ele>
        <time>2016-01-16T08:04:22.000Z</time>
      </trkpt>
      <trkpt lat="43.61357" lon="1.20679">
        <ele>211.60000610352</ele>
        <time>2016-01-16T08:04:29.000Z</time>
      </trkpt>
      <trkpt lat="43.61355" lon="1.20674">
        <ele>211.60000610352</ele>
        <time>2016-01-16T08:04:31.000Z</time>
      </trkpt>
      <trkpt lat="43.61347" lon="1.2066">
        <ele>211.60000610352</ele>
        <time>2016-01-16T08:04:36.000Z</time>
      </trkpt>
      <trkpt lat="43.61336" lon="1.20638">
        <ele>212</ele>
        <time>2016-01-16T08:04:42.000Z</time>
      </trkpt>
      <trkpt lat="43.61326" lon="1.2062">
        <ele>212.19999694824</ele>
        <time>2016-01-16T08:04:48.000Z</time>
      </trkpt>
      <trkpt lat="43.61318" lon="1.20611">
        <ele>212.19999694824</ele>
        <time>2016-01-16T08:04:52.000Z</time>
      </trkpt>
      <trkpt lat="43.61309" lon="1.20597">
        <ele>212.19999694824</ele>
        <time>2016-01-16T08:04:57.000Z</time>
      </trkpt>
      <trkpt lat="43.61301" lon="1.20583">
        <ele>212.19999694824</ele>
        <time>2016-01-16T08:05:02.000Z</time>
      </trkpt>
      <trkpt lat="43.61294" lon="1.20571">
        <ele>212.19999694824</ele>
        <time>2016-01-16T08:05:06.000Z</time>
      </trkpt>
      <trkpt lat="43.61286" lon="1.20557">
        <ele>212.39999389648</ele>
        <time>2016-01-16T08:05:11.000Z</time>
      </trkpt>
      <trkpt lat="43.61278" lon="1.20545">
        <ele>213</ele>
        <time>2016-01-16T08:05:16.000Z</time>
      </trkpt>
      <trkpt lat="43.61267" lon="1.20531">
        <ele>213.60000610352</ele>
        <time>2016-01-16T08:05:22.000Z</time>
      </trkpt>
      <trkpt lat="43.61253" lon="1.2051">
        <ele>214.80000305176</ele>
        <time>2016-01-16T08:05:30.000Z</time>
      </trkpt>
      <trkpt lat="43.61239" lon="1.20493">
        <ele>215.80000305176</ele>
        <time>2016-01-16T08:05:37.000Z</time>
      </trkpt>
      <trkpt lat="43.61229" lon="1.20483">
        <ele>216.19999694824</ele>
        <time>2016-01-16T08:05:42.000Z</time>
      </trkpt>
      <trkpt lat="43.61217" lon="1.20476">
        <ele>216.39999389648</ele>
        <time>2016-01-16T08:05:47.000Z</time>
      </trkpt>
      <trkpt lat="43.61207" lon="1.20472">
        <ele>216.39999389648</ele>
        <time>2016-01-16T08:05:51.000Z</time>
      </trkpt>
      <trkpt lat="43.61192" lon="1.20466">
        <ele>216.39999389648</ele>
        <time>2016-01-16T08:05:57.000Z</time>
      </trkpt>
      <trkpt lat="43.61187" lon="1.20466">
        <ele>216.19999694824</ele>
        <time>2016-01-16T08:05:59.000Z</time>
      </trkpt>
      <trkpt lat="43.61173" lon="1.20475">
        <ele>215.60000610352</ele>
        <time>2016-01-16T08:06:05.000Z</time>
      </trkpt>
      <trkpt lat="43.61158" lon="1.20482">
        <ele>215.19999694824</ele>
        <time>2016-01-16T08:06:11.000Z</time>
      </trkpt>
      <trkpt lat="43.61143" lon="1.2049">
        <ele>214.80000305176</ele>
        <time>2016-01-16T08:06:17.000Z</time>
      </trkpt>
      <trkpt lat="43.61124" lon="1.20493">
        <ele>215</ele>
        <time>2016-01-16T08:06:24.000Z</time>
      </trkpt>
      <trkpt lat="43.61111" lon="1.20491">
        <ele>215.39999389648</ele>
        <time>2016-01-16T08:06:29.000Z</time>
      </trkpt>
      <trkpt lat="43.61096" lon="1.20483">
        <ele>216.60000610352</ele>
        <time>2016-01-16T08:06:35.000Z</time>
      </trkpt>
      <trkpt lat="43.61081" lon="1.20478">
        <ele>217.80000305176</ele>
        <time>2016-01-16T08:06:41.000Z</time>
      </trkpt>
      <trkpt lat="43.61069" lon="1.20471">
        <ele>218.80000305176</ele>
        <time>2016-01-16T08:06:46.000Z</time>
      </trkpt>
      <trkpt lat="43.61058" lon="1.20463">
        <ele>219.60000610352</ele>
        <time>2016-01-16T08:06:51.000Z</time>
      </trkpt>
      <trkpt lat="43.61045" lon="1.20457">
        <ele>220.60000610352</ele>
        <time>2016-01-16T08:06:56.000Z</time>
      </trkpt>
      <trkpt lat="43.61034" lon="1.20454">
        <ele>221.19999694824</ele>
        <time>2016-01-16T08:07:00.000Z</time>
      </trkpt>
      <trkpt lat="43.61021" lon="1.2045">
        <ele>222</ele>
        <time>2016-01-16T08:07:05.000Z</time>
      </trkpt>
      <trkpt lat="43.61006" lon="1.20445">
        <ele>222.60000610352</ele>
        <time>2016-01-16T08:07:11.000Z</time>
      </trkpt>
      <trkpt lat="43.60994" lon="1.20439">
        <ele>223.19999694824</ele>
        <time>2016-01-16T08:07:16.000Z</time>
      </trkpt>
      <trkpt lat="43.60985" lon="1.20433">
        <ele>223.60000610352</ele>
        <time>2016-01-16T08:07:20.000Z</time>
      </trkpt>
      <trkpt lat="43.60963" lon="1.20421">
        <ele>224.80000305176</ele>
        <time>2016-01-16T08:07:29.000Z</time>
      </trkpt>
      <trkpt lat="43.60948" lon="1.20412">
        <ele>225.60000610352</ele>
        <time>2016-01-16T08:07:35.000Z</time>
      </trkpt>
      <trkpt lat="43.6094" lon="1.20409">
        <ele>225.80000305176</ele>
        <time>2016-01-16T08:07:38.000Z</time>
      </trkpt>
      <trkpt lat="43.60922" lon="1.20412">
        <ele>224.60000610352</ele>
        <time>2016-01-16T08:07:44.000Z</time>
      </trkpt>
      <trkpt lat="43.6091" lon="1.20414">
        <ele>223.60000610352</ele>
        <time>2016-01-16T08:07:48.000Z</time>
      </trkpt>
      <trkpt lat="43.60907" lon="1.20415">
        <ele>223.39999389648</ele>
        <time>2016-01-16T08:07:49.000Z</time>
      </trkpt>
      <trkpt lat="43.60885" lon="1.20415">
        <ele>222.19999694824</ele>
        <time>2016-01-16T08:07:56.000Z</time>
      </trkpt>
      <trkpt lat="43.60871" lon="1.2042">
        <ele>221.19999694824</ele>
        <time>2016-01-16T08:08:01.000Z</time>
      </trkpt>
      <trkpt lat="43.60856" lon="1.20425">
        <ele>221.19999694824</ele>
        <time>2016-01-16T08:08:06.000Z</time>
      </trkpt>
      <trkpt lat="43.60854" lon="1.20425">
        <ele>221.19999694824</ele>
        <time>2016-01-16T08:08:07.000Z</time>
      </trkpt>
      <trkpt lat="43.6084" lon="1.20432">
        <ele>220.60000610352</ele>
        <time>2016-01-16T08:08:12.000Z</time>
      </trkpt>
      <trkpt lat="43.60829" lon="1.20439">
        <ele>220.19999694824</ele>
        <time>2016-01-16T08:08:16.000Z</time>
      </trkpt>
      <trkpt lat="43.60826" lon="1.20441">
        <ele>220</ele>
        <time>2016-01-16T08:08:17.000Z</time>
      </trkpt>
      <trkpt lat="43.60817" lon="1.20442">
        <ele>219.60000610352</ele>
        <time>2016-01-16T08:08:20.000Z</time>
      </trkpt>
      <trkpt lat="43.60795" lon="1.20434">
        <ele>218.39999389648</ele>
        <time>2016-01-16T08:08:28.000Z</time>
      </trkpt>
      <trkpt lat="43.60778" lon="1.20424">
        <ele>217.60000610352</ele>
        <time>2016-01-16T08:08:35.000Z</time>
      </trkpt>
      <trkpt lat="43.60759" lon="1.20414">
        <ele>216.60000610352</ele>
        <time>2016-01-16T08:08:42.000Z</time>
      </trkpt>
      <trkpt lat="43.60751" lon="1.2041">
        <ele>216</ele>
        <time>2016-01-16T08:08:45.000Z</time>
      </trkpt>
      <trkpt lat="43.60734" lon="1.20403">
        <ele>214.80000305176</ele>
        <time>2016-01-16T08:08:51.000Z</time>
      </trkpt>
      <trkpt lat="43.60722" lon="1.20393">
        <ele>214</ele>
        <time>2016-01-16T08:08:56.000Z</time>
      </trkpt>
      <trkpt lat="43.60703" lon="1.20383">
        <ele>212.39999389648</ele>
        <time>2016-01-16T08:09:03.000Z</time>
      </trkpt>
      <trkpt lat="43.60684" lon="1.20377">
        <ele>210.80000305176</ele>
        <time>2016-01-16T08:09:10.000Z</time>
      </trkpt>
      <trkpt lat="43.6067" lon="1.20369">
        <ele>209.80000305176</ele>
        <time>2016-01-16T08:09:15.000Z</time>
      </trkpt>
      <trkpt lat="43.6066" lon="1.20362">
        <ele>209.19999694824</ele>
        <time>2016-01-16T08:09:19.000Z</time>
      </trkpt>
      <trkpt lat="43.60649" lon="1.2035">
        <ele>208.60000610352</ele>
        <time>2016-01-16T08:09:24.000Z</time>
      </trkpt>
      <trkpt lat="43.6064" lon="1.20336">
        <ele>208.39999389648</ele>
        <time>2016-01-16T08:09:29.000Z</time>
      </trkpt>
      <trkpt lat="43.60628" lon="1.20319">
        <ele>208.19999694824</ele>
        <time>2016-01-16T08:09:35.000Z</time>
      </trkpt>
      <trkpt lat="43.60618" lon="1.20304">
        <ele>208.19999694824</ele>
        <time>2016-01-16T08:09:40.000Z</time>
      </trkpt>
      <trkpt lat="43.60616" lon="1.20301">
        <ele>208.19999694824</ele>
        <time>2016-01-16T08:09:41.000Z</time>
      </trkpt>
      <trkpt lat="43.60606" lon="1.20289">
        <ele>208</ele>
        <time>2016-01-16T08:09:46.000Z</time>
      </trkpt>
      <trkpt lat="43.60598" lon="1.20274">
        <ele>208.39999389648</ele>
        <time>2016-01-16T08:09:51.000Z</time>
      </trkpt>
      <trkpt lat="43.60586" lon="1.20255">
        <ele>209</ele>
        <time>2016-01-16T08:09:58.000Z</time>
      </trkpt>
      <trkpt lat="43.60584" lon="1.20252">
        <ele>209</ele>
        <time>2016-01-16T08:09:59.000Z</time>
      </trkpt>
      <trkpt lat="43.60577" lon="1.20238">
        <ele>209.39999389648</ele>
        <time>2016-01-16T08:10:04.000Z</time>
      </trkpt>
      <trkpt lat="43.6057" lon="1.20224">
        <ele>209.80000305176</ele>
        <time>2016-01-16T08:10:08.000Z</time>
      </trkpt>
      <trkpt lat="43.6056" lon="1.20203">
        <ele>210</ele>
        <time>2016-01-16T08:10:15.000Z</time>
      </trkpt>
      <trkpt lat="43.60553" lon="1.20182">
        <ele>210.19999694824</ele>
        <time>2016-01-16T08:10:21.000Z</time>
      </trkpt>
      <trkpt lat="43.60546" lon="1.20165">
        <ele>210.60000610352</ele>
        <time>2016-01-16T08:10:26.000Z</time>
      </trkpt>
      <trkpt lat="43.6054" lon="1.20147">
        <ele>211.19999694824</ele>
        <time>2016-01-16T08:10:31.000Z</time>
      </trkpt>
      <trkpt lat="43.60521" lon="1.20118">
        <ele>211.60000610352</ele>
        <time>2016-01-16T08:10:42.000Z</time>
      </trkpt>
      <trkpt lat="43.60517" lon="1.20111">
        <ele>211.60000610352</ele>
        <time>2016-01-16T08:10:45.000Z</time>
      </trkpt>
      <trkpt lat="43.60503" lon="1.20095">
        <ele>211.19999694824</ele>
        <time>2016-01-16T08:10:52.000Z</time>
      </trkpt>
      <trkpt lat="43.60493" lon="1.20081">
        <ele>211.39999389648</ele>
        <time>2016-01-16T08:10:57.000Z</time>
      </trkpt>
      <trkpt lat="43.60486" lon="1.2007">
        <ele>211.39999389648</ele>
        <time>2016-01-16T08:11:01.000Z</time>
      </trkpt>
      <trkpt lat="43.60476" lon="1.20056">
        <ele>211.39999389648</ele>
        <time>2016-01-16T08:11:06.000Z</time>
      </trkpt>
      <trkpt lat="43.60462" lon="1.20041">
        <ele>211.19999694824</ele>
        <time>2016-01-16T08:11:12.000Z</time>
      </trkpt>
      <trkpt lat="43.60452" lon="1.20027">
        <ele>211.19999694824</ele>
        <time>2016-01-16T08:11:17.000Z</time>
      </trkpt>
      <trkpt lat="43.60444" lon="1.20017">
        <ele>211.39999389648</ele>
        <time>2016-01-16T08:11:21.000Z</time>
      </trkpt>
      <trkpt lat="43.60427" lon="1.19998">
        <ele>211.39999389648</ele>
        <time>2016-01-16T08:11:30.000Z</time>
      </trkpt>
      <trkpt lat="43.60415" lon="1.19985">
        <ele>211.80000305176</ele>
        <time>2016-01-16T08:11:35.000Z</time>
      </trkpt>
      <trkpt lat="43.60409" lon="1.19978">
        <ele>211.80000305176</ele>
        <time>2016-01-16T08:11:38.000Z</time>
      </trkpt>
      <trkpt lat="43.604" lon="1.19964">
        <ele>212.39999389648</ele>
        <time>2016-01-16T08:11:43.000Z</time>
      </trkpt>
      <trkpt lat="43.60384" lon="1.19942">
        <ele>213.19999694824</ele>
        <time>2016-01-16T08:11:51.000Z</time>
      </trkpt>
      <trkpt lat="43.6037" lon="1.19928">
        <ele>213.39999389648</ele>
        <time>2016-01-16T08:11:57.000Z</time>
      </trkpt>
      <trkpt lat="43.60366" lon="1.19922">
        <ele>213.60000610352</ele>
        <time>2016-01-16T08:11:59.000Z</time>
      </trkpt>
      <trkpt lat="43.60353" lon="1.19913">
        <ele>213.39999389648</ele>
        <time>2016-01-16T08:12:04.000Z</time>
      </trkpt>
      <trkpt lat="43.60348" lon="1.19909">
        <ele>213.39999389648</ele>
        <time>2016-01-16T08:12:07.000Z</time>
      </trkpt>
      <trkpt lat="43.60343" lon="1.19908">
        <ele>213</ele>
        <time>2016-01-16T08:12:17.000Z</time>
      </trkpt>
      <trkpt lat="43.60339" lon="1.1991">
        <ele>212.60000610352</ele>
        <time>2016-01-16T08:12:34.000Z</time>
      </trkpt>
      <trkpt lat="43.60332" lon="1.19894">
        <ele>213.39999389648</ele>
        <time>2016-01-16T08:12:41.000Z</time>
      </trkpt>
      <trkpt lat="43.60326" lon="1.19876">
        <ele>213.39999389648</ele>
        <time>2016-01-16T08:12:46.000Z</time>
      </trkpt>
      <trkpt lat="43.60326" lon="1.19863">
        <ele>214.39999389648</ele>
        <time>2016-01-16T08:12:50.000Z</time>
      </trkpt>
      <trkpt lat="43.60325" lon="1.19849">
        <ele>215.60000610352</ele>
        <time>2016-01-16T08:12:54.000Z</time>
      </trkpt>
      <trkpt lat="43.60326" lon="1.19826">
        <ele>218</ele>
        <time>2016-01-16T08:13:00.000Z</time>
      </trkpt>
      <trkpt lat="43.60326" lon="1.19806">
        <ele>219.39999389648</ele>
        <time>2016-01-16T08:13:05.000Z</time>
      </trkpt>
      <trkpt lat="43.60326" lon="1.19791">
        <ele>219.60000610352</ele>
        <time>2016-01-16T08:13:09.000Z</time>
      </trkpt>
      <trkpt lat="43.60325" lon="1.19769">
        <ele>219.39999389648</ele>
        <time>2016-01-16T08:13:15.000Z</time>
      </trkpt>
      <trkpt lat="43.60325" lon="1.1976">
        <ele>219.39999389648</ele>
        <time>2016-01-16T08:13:17.000Z</time>
      </trkpt>
      <trkpt lat="43.60323" lon="1.19739">
        <ele>219.19999694824</ele>
        <time>2016-01-16T08:13:22.000Z</time>
      </trkpt>
      <trkpt lat="43.60322" lon="1.1971">
        <ele>219</ele>
        <time>2016-01-16T08:13:28.000Z</time>
      </trkpt>
      <trkpt lat="43.60322" lon="1.19685">
        <ele>219.19999694824</ele>
        <time>2016-01-16T08:13:35.000Z</time>
      </trkpt>
      <trkpt lat="43.6032" lon="1.19665">
        <ele>219.19999694824</ele>
        <time>2016-01-16T08:13:41.000Z</time>
      </trkpt>
      <trkpt lat="43.60321" lon="1.19647">
        <ele>219.60000610352</ele>
        <time>2016-01-16T08:13:46.000Z</time>
      </trkpt>
      <trkpt lat="43.60322" lon="1.19632">
        <ele>220.39999389648</ele>
        <time>2016-01-16T08:13:50.000Z</time>
      </trkpt>
      <trkpt lat="43.60325" lon="1.19612">
        <ele>221.60000610352</ele>
        <time>2016-01-16T08:13:55.000Z</time>
      </trkpt>
      <trkpt lat="43.60329" lon="1.19592">
        <ele>223.19999694824</ele>
        <time>2016-01-16T08:14:01.000Z</time>
      </trkpt>
      <trkpt lat="43.60331" lon="1.1957">
        <ele>224.60000610352</ele>
        <time>2016-01-16T08:14:07.000Z</time>
      </trkpt>
      <trkpt lat="43.60334" lon="1.19551">
        <ele>225.60000610352</ele>
        <time>2016-01-16T08:14:12.000Z</time>
      </trkpt>
      <trkpt lat="43.60338" lon="1.19528">
        <ele>226.19999694824</ele>
        <time>2016-01-16T08:14:18.000Z</time>
      </trkpt>
      <trkpt lat="43.60342" lon="1.19511">
        <ele>226.80000305176</ele>
        <time>2016-01-16T08:14:23.000Z</time>
      </trkpt>
      <trkpt lat="43.60346" lon="1.19491">
        <ele>227.19999694824</ele>
        <time>2016-01-16T08:14:29.000Z</time>
      </trkpt>
      <trkpt lat="43.60345" lon="1.19475">
        <ele>227.19999694824</ele>
        <time>2016-01-16T08:14:34.000Z</time>
      </trkpt>
      <trkpt lat="43.6034" lon="1.19449">
        <ele>227.19999694824</ele>
        <time>2016-01-16T08:14:41.000Z</time>
      </trkpt>
      <trkpt lat="43.60333" lon="1.1943">
        <ele>226.80000305176</ele>
        <time>2016-01-16T08:14:47.000Z</time>
      </trkpt>
      <trkpt lat="43.60324" lon="1.19415">
        <ele>226.19999694824</ele>
        <time>2016-01-16T08:14:53.000Z</time>
      </trkpt>
      <trkpt lat="43.60315" lon="1.19399">
        <ele>225.39999389648</ele>
        <time>2016-01-16T08:14:59.000Z</time>
      </trkpt>
      <trkpt lat="43.60305" lon="1.19389">
        <ele>225.19999694824</ele>
        <time>2016-01-16T08:15:04.000Z</time>
      </trkpt>
      <trkpt lat="43.60298" lon="1.19381">
        <ele>225.39999389648</ele>
        <time>2016-01-16T08:15:08.000Z</time>
      </trkpt>
      <trkpt lat="43.60286" lon="1.1937">
        <ele>225.39999389648</ele>
        <time>2016-01-16T08:15:14.000Z</time>
      </trkpt>
      <trkpt lat="43.60275" lon="1.19356">
        <ele>226</ele>
        <time>2016-01-16T08:15:19.000Z</time>
      </trkpt>
      <trkpt lat="43.60264" lon="1.19342">
        <ele>226.80000305176</ele>
        <time>2016-01-16T08:15:25.000Z</time>
      </trkpt>
      <trkpt lat="43.60255" lon="1.19331">
        <ele>227.39999389648</ele>
        <time>2016-01-16T08:15:29.000Z</time>
      </trkpt>
      <trkpt lat="43.60245" lon="1.19315">
        <ele>228.80000305176</ele>
        <time>2016-01-16T08:15:35.000Z</time>
      </trkpt>
      <trkpt lat="43.60238" lon="1.19297">
        <ele>229.80000305176</ele>
        <time>2016-01-16T08:15:40.000Z</time>
      </trkpt>
      <trkpt lat="43.60237" lon="1.19294">
        <ele>229.80000305176</ele>
        <time>2016-01-16T08:15:41.000Z</time>
      </trkpt>
      <trkpt lat="43.60233" lon="1.19284">
        <ele>230</ele>
        <time>2016-01-16T08:15:44.000Z</time>
      </trkpt>
      <trkpt lat="43.60225" lon="1.19262">
        <ele>231</ele>
        <time>2016-01-16T08:15:50.000Z</time>
      </trkpt>
      <trkpt lat="43.60222" lon="1.19242">
        <ele>231.80000305176</ele>
        <time>2016-01-16T08:15:55.000Z</time>
      </trkpt>
      <trkpt lat="43.60217" lon="1.19225">
        <ele>232.60000610352</ele>
        <time>2016-01-16T08:16:00.000Z</time>
      </trkpt>
      <trkpt lat="43.60211" lon="1.19205">
        <ele>233.60000610352</ele>
        <time>2016-01-16T08:16:06.000Z</time>
      </trkpt>
      <trkpt lat="43.60203" lon="1.19195">
        <ele>233.60000610352</ele>
        <time>2016-01-16T08:16:10.000Z</time>
      </trkpt>
      <trkpt lat="43.60188" lon="1.19176">
        <ele>234</ele>
        <time>2016-01-16T08:16:17.000Z</time>
      </trkpt>
      <trkpt lat="43.60179" lon="1.19164">
        <ele>234.80000305176</ele>
        <time>2016-01-16T08:16:22.000Z</time>
      </trkpt>
      <trkpt lat="43.60167" lon="1.19147">
        <ele>236</ele>
        <time>2016-01-16T08:16:28.000Z</time>
      </trkpt>
      <trkpt lat="43.60159" lon="1.19136">
        <ele>237</ele>
        <time>2016-01-16T08:16:32.000Z</time>
      </trkpt>
      <trkpt lat="43.60149" lon="1.19127">
        <ele>237.80000305176</ele>
        <time>2016-01-16T08:16:37.000Z</time>
      </trkpt>
      <trkpt lat="43.60142" lon="1.19121">
        <ele>238.19999694824</ele>
        <time>2016-01-16T08:16:40.000Z</time>
      </trkpt>
      <trkpt lat="43.60134" lon="1.19111">
        <ele>239</ele>
        <time>2016-01-16T08:16:44.000Z</time>
      </trkpt>
      <trkpt lat="43.60119" lon="1.19096">
        <ele>240.39999389648</ele>
        <time>2016-01-16T08:16:51.000Z</time>
      </trkpt>
      <trkpt lat="43.60109" lon="1.19086">
        <ele>241.19999694824</ele>
        <time>2016-01-16T08:16:56.000Z</time>
      </trkpt>
      <trkpt lat="43.60101" lon="1.19079">
        <ele>241.80000305176</ele>
        <time>2016-01-16T08:16:59.000Z</time>
      </trkpt>
      <trkpt lat="43.6009" lon="1.19071">
        <ele>242.80000305176</ele>
        <time>2016-01-16T08:17:04.000Z</time>
      </trkpt>
      <trkpt lat="43.60088" lon="1.19069">
        <ele>243</ele>
        <time>2016-01-16T08:17:05.000Z</time>
      </trkpt>
      <trkpt lat="43.60072" lon="1.19072">
        <ele>243.19999694824</ele>
        <time>2016-01-16T08:17:11.000Z</time>
      </trkpt>
      <trkpt lat="43.60064" lon="1.19074">
        <ele>243.39999389648</ele>
        <time>2016-01-16T08:17:15.000Z</time>
      </trkpt>
      <trkpt lat="43.60051" lon="1.19079">
        <ele>243.60000610352</ele>
        <time>2016-01-16T08:17:20.000Z</time>
      </trkpt>
      <trkpt lat="43.60049" lon="1.19079">
        <ele>243.60000610352</ele>
        <time>2016-01-16T08:17:21.000Z</time>
      </trkpt>
      <trkpt lat="43.60024" lon="1.19094">
        <ele>241.39999389648</ele>
        <time>2016-01-16T08:17:31.000Z</time>
      </trkpt>
      <trkpt lat="43.60008" lon="1.19099">
        <ele>239.80000305176</ele>
        <time>2016-01-16T08:17:37.000Z</time>
      </trkpt>
      <trkpt lat="43.59995" lon="1.19101">
        <ele>238.60000610352</ele>
        <time>2016-01-16T08:17:42.000Z</time>
      </trkpt>
      <trkpt lat="43.59977" lon="1.191">
        <ele>237.60000610352</ele>
        <time>2016-01-16T08:17:48.000Z</time>
      </trkpt>
      <trkpt lat="43.59965" lon="1.19098">
        <ele>237</ele>
        <time>2016-01-16T08:17:53.000Z</time>
      </trkpt>
      <trkpt lat="43.59948" lon="1.19093">
        <ele>236.60000610352</ele>
        <time>2016-01-16T08:17:59.000Z</time>
      </trkpt>
      <trkpt lat="43.59937" lon="1.19088">
        <ele>236.60000610352</ele>
        <time>2016-01-16T08:18:03.000Z</time>
      </trkpt>
      <trkpt lat="43.59923" lon="1.19083">
        <ele>235.39999389648</ele>
        <time>2016-01-16T08:18:08.000Z</time>
      </trkpt>
      <trkpt lat="43.59907" lon="1.19081">
        <ele>233.39999389648</ele>
        <time>2016-01-16T08:18:13.000Z</time>
      </trkpt>
      <trkpt lat="43.59893" lon="1.19079">
        <ele>231.60000610352</ele>
        <time>2016-01-16T08:18:18.000Z</time>
      </trkpt>
      <trkpt lat="43.59875" lon="1.19079">
        <ele>229</ele>
        <time>2016-01-16T08:18:24.000Z</time>
      </trkpt>
      <trkpt lat="43.59867" lon="1.19069">
        <ele>229.19999694824</ele>
        <time>2016-01-16T08:18:28.000Z</time>
      </trkpt>
      <trkpt lat="43.59869" lon="1.19059">
        <ele>230.80000305176</ele>
        <time>2016-01-16T08:18:31.000Z</time>
      </trkpt>
      <trkpt lat="43.59871" lon="1.19056">
        <ele>231.19999694824</ele>
        <time>2016-01-16T08:18:32.000Z</time>
      </trkpt>
      <trkpt lat="43.59875" lon="1.19048">
        <ele>232.60000610352</ele>
        <time>2016-01-16T08:18:35.000Z</time>
      </trkpt>
      <trkpt lat="43.59882" lon="1.19034">
        <ele>235</ele>
        <time>2016-01-16T08:18:40.000Z</time>
      </trkpt>
      <trkpt lat="43.59888" lon="1.19014">
        <ele>237.80000305176</ele>
        <time>2016-01-16T08:18:46.000Z</time>
      </trkpt>
      <trkpt lat="43.59893" lon="1.19006">
        <ele>238.80000305176</ele>
        <time>2016-01-16T08:18:49.000Z</time>
      </trkpt>
      <trkpt lat="43.59901" lon="1.18982">
        <ele>241</ele>
        <time>2016-01-16T08:18:56.000Z</time>
      </trkpt>
      <trkpt lat="43.5991" lon="1.18963">
        <ele>243.60000610352</ele>
        <time>2016-01-16T08:19:02.000Z</time>
      </trkpt>
      <trkpt lat="43.59917" lon="1.18949">
        <ele>245.39999389648</ele>
        <time>2016-01-16T08:19:07.000Z</time>
      </trkpt>
      <trkpt lat="43.59923" lon="1.18935">
        <ele>247.39999389648</ele>
        <time>2016-01-16T08:19:12.000Z</time>
      </trkpt>
      <trkpt lat="43.5993" lon="1.18921">
        <ele>249.19999694824</ele>
        <time>2016-01-16T08:19:17.000Z</time>
      </trkpt>
      <trkpt lat="43.59936" lon="1.18909">
        <ele>250.80000305176</ele>
        <time>2016-01-16T08:19:21.000Z</time>
      </trkpt>
      <trkpt lat="43.59944" lon="1.18895">
        <ele>252.19999694824</ele>
        <time>2016-01-16T08:19:26.000Z</time>
      </trkpt>
      <trkpt lat="43.59952" lon="1.18873">
        <ele>253.19999694824</ele>
        <time>2016-01-16T08:19:33.000Z</time>
      </trkpt>
      <trkpt lat="43.5996" lon="1.18855">
        <ele>254</ele>
        <time>2016-01-16T08:19:39.000Z</time>
      </trkpt>
      <trkpt lat="43.5997" lon="1.18831">
        <ele>254.80000305176</ele>
        <time>2016-01-16T08:19:47.000Z</time>
      </trkpt>
      <trkpt lat="43.59977" lon="1.18815">
        <ele>255</ele>
        <time>2016-01-16T08:19:52.000Z</time>
      </trkpt>
      <trkpt lat="43.59983" lon="1.18801">
        <ele>254.80000305176</ele>
        <time>2016-01-16T08:19:57.000Z</time>
      </trkpt>
      <trkpt lat="43.5999" lon="1.18787">
        <ele>254.80000305176</ele>
        <time>2016-01-16T08:20:02.000Z</time>
      </trkpt>
      <trkpt lat="43.59997" lon="1.18772">
        <ele>255</ele>
        <time>2016-01-16T08:20:07.000Z</time>
      </trkpt>
      <trkpt lat="43.60003" lon="1.18758">
        <ele>255.19999694824</ele>
        <time>2016-01-16T08:20:12.000Z</time>
      </trkpt>
      <trkpt lat="43.60004" lon="1.18752">
        <ele>255.39999389648</ele>
        <time>2016-01-16T08:20:14.000Z</time>
      </trkpt>
      <trkpt lat="43.59997" lon="1.1874">
        <ele>255.39999389648</ele>
        <time>2016-01-16T08:20:19.000Z</time>
      </trkpt>
      <trkpt lat="43.59994" lon="1.18738">
        <ele>255.39999389648</ele>
        <time>2016-01-16T08:20:20.000Z</time>
      </trkpt>
      <trkpt lat="43.59964" lon="1.18713">
        <ele>254.80000305176</ele>
        <time>2016-01-16T08:20:32.000Z</time>
      </trkpt>
      <trkpt lat="43.59949" lon="1.18701">
        <ele>254.39999389648</ele>
        <time>2016-01-16T08:20:38.000Z</time>
      </trkpt>
      <trkpt lat="43.59933" lon="1.18689">
        <ele>254</ele>
        <time>2016-01-16T08:20:44.000Z</time>
      </trkpt>
      <trkpt lat="43.59918" lon="1.18678">
        <ele>253.80000305176</ele>
        <time>2016-01-16T08:20:50.000Z</time>
      </trkpt>
      <trkpt lat="43.59906" lon="1.18669">
        <ele>253.60000610352</ele>
        <time>2016-01-16T08:20:55.000Z</time>
      </trkpt>
      <trkpt lat="43.59892" lon="1.18656">
        <ele>253.39999389648</ele>
        <time>2016-01-16T08:21:01.000Z</time>
      </trkpt>
      <trkpt lat="43.59876" lon="1.18644">
        <ele>253.19999694824</ele>
        <time>2016-01-16T08:21:08.000Z</time>
      </trkpt>
      <trkpt lat="43.59866" lon="1.18636">
        <ele>253.19999694824</ele>
        <time>2016-01-16T08:21:12.000Z</time>
      </trkpt>
      <trkpt lat="43.59863" lon="1.18631">
        <ele>253.19999694824</ele>
        <time>2016-01-16T08:21:14.000Z</time>
      </trkpt>
      <trkpt lat="43.59858" lon="1.18628">
        <ele>253.19999694824</ele>
        <time>2016-01-16T08:21:16.000Z</time>
      </trkpt>
      <trkpt lat="43.59846" lon="1.18619">
        <ele>253.19999694824</ele>
        <time>2016-01-16T08:21:21.000Z</time>
      </trkpt>
      <trkpt lat="43.59842" lon="1.18617">
        <ele>253.19999694824</ele>
        <time>2016-01-16T08:21:23.000Z</time>
      </trkpt>
      <trkpt lat="43.59823" lon="1.186">
        <ele>252.80000305176</ele>
        <time>2016-01-16T08:21:31.000Z</time>
      </trkpt>
      <trkpt lat="43.59809" lon="1.18591">
        <ele>252.60000610352</ele>
        <time>2016-01-16T08:21:37.000Z</time>
      </trkpt>
      <trkpt lat="43.59796" lon="1.18581">
        <ele>252.39999389648</ele>
        <time>2016-01-16T08:21:42.000Z</time>
      </trkpt>
      <trkpt lat="43.59782" lon="1.18569">
        <ele>252.19999694824</ele>
        <time>2016-01-16T08:21:48.000Z</time>
      </trkpt>
      <trkpt lat="43.5977" lon="1.18559">
        <ele>252.19999694824</ele>
        <time>2016-01-16T08:21:53.000Z</time>
      </trkpt>
      <trkpt lat="43.59755" lon="1.18545">
        <ele>252</ele>
        <time>2016-01-16T08:22:00.000Z</time>
      </trkpt>
      <trkpt lat="43.59747" lon="1.18537">
        <ele>251.80000305176</ele>
        <time>2016-01-16T08:22:04.000Z</time>
      </trkpt>
      <trkpt lat="43.59735" lon="1.18528">
        <ele>251.60000610352</ele>
        <time>2016-01-16T08:22:09.000Z</time>
      </trkpt>
      <trkpt lat="43.59718" lon="1.18515">
        <ele>251.39999389648</ele>
        <time>2016-01-16T08:22:16.000Z</time>
      </trkpt>
      <trkpt lat="43.59707" lon="1.18503">
        <ele>251.19999694824</ele>
        <time>2016-01-16T08:22:21.000Z</time>
      </trkpt>
      <trkpt lat="43.59703" lon="1.18481">
        <ele>251.80000305176</ele>
        <time>2016-01-16T08:22:27.000Z</time>
      </trkpt>
      <trkpt lat="43.59705" lon="1.18465">
        <ele>251.39999389648</ele>
        <time>2016-01-16T08:22:32.000Z</time>
      </trkpt>
      <trkpt lat="43.59705" lon="1.18461">
        <ele>251.19999694824</ele>
        <time>2016-01-16T08:22:33.000Z</time>
      </trkpt>
      <trkpt lat="43.59708" lon="1.1844">
        <ele>250.19999694824</ele>
        <time>2016-01-16T08:22:39.000Z</time>
      </trkpt>
      <trkpt lat="43.59711" lon="1.18425">
        <ele>249.80000305176</ele>
        <time>2016-01-16T08:22:43.000Z</time>
      </trkpt>
      <trkpt lat="43.59719" lon="1.18409">
        <ele>250.80000305176</ele>
        <time>2016-01-16T08:22:49.000Z</time>
      </trkpt>
      <trkpt lat="43.59726" lon="1.18398">
        <ele>251.80000305176</ele>
        <time>2016-01-16T08:22:54.000Z</time>
      </trkpt>
      <trkpt lat="43.59727" lon="1.18394">
        <ele>252</ele>
        <time>2016-01-16T08:22:55.000Z</time>
      </trkpt>
      <trkpt lat="43.59731" lon="1.18385">
        <ele>252.60000610352</ele>
        <time>2016-01-16T08:22:58.000Z</time>
      </trkpt>
      <trkpt lat="43.59734" lon="1.18371">
        <ele>252.80000305176</ele>
        <time>2016-01-16T08:23:02.000Z</time>
      </trkpt>
      <trkpt lat="43.59735" lon="1.1836">
        <ele>253</ele>
        <time>2016-01-16T08:23:05.000Z</time>
      </trkpt>
      <trkpt lat="43.59738" lon="1.18344">
        <ele>253.80000305176</ele>
        <time>2016-01-16T08:23:10.000Z</time>
      </trkpt>
      <trkpt lat="43.59739" lon="1.18327">
        <ele>254.39999389648</ele>
        <time>2016-01-16T08:23:15.000Z</time>
      </trkpt>
      <trkpt lat="43.59738" lon="1.18313">
        <ele>254.60000610352</ele>
        <time>2016-01-16T08:23:19.000Z</time>
      </trkpt>
      <trkpt lat="43.59738" lon="1.183">
        <ele>255.39999389648</ele>
        <time>2016-01-16T08:23:23.000Z</time>
      </trkpt>
      <trkpt lat="43.59745" lon="1.18239">
        <ele>258.79998779297</ele>
        <time>2016-01-16T08:23:42.000Z</time>
      </trkpt>
      <trkpt lat="43.59747" lon="1.18227">
        <ele>259.60000610352</ele>
        <time>2016-01-16T08:23:46.000Z</time>
      </trkpt>
      <trkpt lat="43.59749" lon="1.18216">
        <ele>260.60000610352</ele>
        <time>2016-01-16T08:23:50.000Z</time>
      </trkpt>
      <trkpt lat="43.59754" lon="1.18198">
        <ele>261.60000610352</ele>
        <time>2016-01-16T08:23:56.000Z</time>
      </trkpt>
      <trkpt lat="43.59755" lon="1.18191">
        <ele>261.60000610352</ele>
        <time>2016-01-16T08:23:58.000Z</time>
      </trkpt>
      <trkpt lat="43.59753" lon="1.18175">
        <ele>261.60000610352</ele>
        <time>2016-01-16T08:24:04.000Z</time>
      </trkpt>
      <trkpt lat="43.59752" lon="1.18172">
        <ele>261.60000610352</ele>
        <time>2016-01-16T08:24:05.000Z</time>
      </trkpt>
      <trkpt lat="43.59749" lon="1.18156">
        <ele>261.60000610352</ele>
        <time>2016-01-16T08:24:11.000Z</time>
      </trkpt>
      <trkpt lat="43.59747" lon="1.18142">
        <ele>261.79998779297</ele>
        <time>2016-01-16T08:24:17.000Z</time>
      </trkpt>
      <trkpt lat="43.59746" lon="1.18127">
        <ele>262.20001220703</ele>
        <time>2016-01-16T08:24:22.000Z</time>
      </trkpt>
      <trkpt lat="43.59744" lon="1.18113">
        <ele>262.39999389648</ele>
        <time>2016-01-16T08:24:27.000Z</time>
      </trkpt>
      <trkpt lat="43.59742" lon="1.18103">
        <ele>262.39999389648</ele>
        <time>2016-01-16T08:24:30.000Z</time>
      </trkpt>
      <trkpt lat="43.59736" lon="1.18072">
        <ele>262.20001220703</ele>
        <time>2016-01-16T08:24:40.000Z</time>
      </trkpt>
      <trkpt lat="43.59734" lon="1.18055">
        <ele>262.39999389648</ele>
        <time>2016-01-16T08:24:45.000Z</time>
      </trkpt>
      <trkpt lat="43.59733" lon="1.18038">
        <ele>263</ele>
        <time>2016-01-16T08:24:50.000Z</time>
      </trkpt>
      <trkpt lat="43.59733" lon="1.18026">
        <ele>263.39999389648</ele>
        <time>2016-01-16T08:24:54.000Z</time>
      </trkpt>
      <trkpt lat="43.59733" lon="1.18002">
        <ele>263.39999389648</ele>
        <time>2016-01-16T08:25:01.000Z</time>
      </trkpt>
      <trkpt lat="43.59733" lon="1.17995">
        <ele>263.39999389648</ele>
        <time>2016-01-16T08:25:03.000Z</time>
      </trkpt>
      <trkpt lat="43.59734" lon="1.17982">
        <ele>263.39999389648</ele>
        <time>2016-01-16T08:25:07.000Z</time>
      </trkpt>
      <trkpt lat="43.59734" lon="1.17965">
        <ele>263.39999389648</ele>
        <time>2016-01-16T08:25:12.000Z</time>
      </trkpt>
      <trkpt lat="43.59734" lon="1.17942">
        <ele>263.39999389648</ele>
        <time>2016-01-16T08:25:18.000Z</time>
      </trkpt>
      <trkpt lat="43.59733" lon="1.17926">
        <ele>264.20001220703</ele>
        <time>2016-01-16T08:25:23.000Z</time>
      </trkpt>
      <trkpt lat="43.59729" lon="1.17904">
        <ele>265.20001220703</ele>
        <time>2016-01-16T08:25:30.000Z</time>
      </trkpt>
      <trkpt lat="43.59726" lon="1.17885">
        <ele>265.79998779297</ele>
        <time>2016-01-16T08:25:36.000Z</time>
      </trkpt>
      <trkpt lat="43.59725" lon="1.17871">
        <ele>266</ele>
        <time>2016-01-16T08:25:41.000Z</time>
      </trkpt>
      <trkpt lat="43.59725" lon="1.17859">
        <ele>266.39999389648</ele>
        <time>2016-01-16T08:25:45.000Z</time>
      </trkpt>
      <trkpt lat="43.59728" lon="1.1784">
        <ele>267</ele>
        <time>2016-01-16T08:25:51.000Z</time>
      </trkpt>
      <trkpt lat="43.5973" lon="1.17821">
        <ele>267.79998779297</ele>
        <time>2016-01-16T08:25:57.000Z</time>
      </trkpt>
      <trkpt lat="43.59729" lon="1.17805">
        <ele>268.20001220703</ele>
        <time>2016-01-16T08:26:02.000Z</time>
      </trkpt>
      <trkpt lat="43.59727" lon="1.17788">
        <ele>268.20001220703</ele>
        <time>2016-01-16T08:26:07.000Z</time>
      </trkpt>
      <trkpt lat="43.59727" lon="1.17781">
        <ele>268.39999389648</ele>
        <time>2016-01-16T08:26:11.000Z</time>
      </trkpt>
      <trkpt lat="43.59727" lon="1.17776">
        <ele>268.39999389648</ele>
        <time>2016-01-16T08:26:15.000Z</time>
      </trkpt>
      <trkpt lat="43.59726" lon="1.17764">
        <ele>268.60000610352</ele>
        <time>2016-01-16T08:26:24.000Z</time>
      </trkpt>
      <trkpt lat="43.59727" lon="1.17762">
        <ele>268.60000610352</ele>
        <time>2016-01-16T08:26:26.000Z</time>
      </trkpt>
      <trkpt lat="43.59727" lon="1.17752">
        <ele>268.79998779297</ele>
        <time>2016-01-16T08:26:43.000Z</time>
      </trkpt>
      <trkpt lat="43.59727" lon="1.1775">
        <ele>268.79998779297</ele>
        <time>2016-01-16T08:26:45.000Z</time>
      </trkpt>
      <trkpt lat="43.59727" lon="1.17744">
        <ele>268.79998779297</ele>
        <time>2016-01-16T08:26:49.000Z</time>
      </trkpt>
      <trkpt lat="43.59728" lon="1.17726">
        <ele>269</ele>
        <time>2016-01-16T08:26:56.000Z</time>
      </trkpt>
      <trkpt lat="43.5973" lon="1.17703">
        <ele>268.79998779297</ele>
        <time>2016-01-16T08:27:02.000Z</time>
      </trkpt>
      <trkpt lat="43.59733" lon="1.17687">
        <ele>269</ele>
        <time>2016-01-16T08:27:06.000Z</time>
      </trkpt>
      <trkpt lat="43.5974" lon="1.17669">
        <ele>270</ele>
        <time>2016-01-16T08:27:11.000Z</time>
      </trkpt>
      <trkpt lat="43.59748" lon="1.17652">
        <ele>271.20001220703</ele>
        <time>2016-01-16T08:27:16.000Z</time>
      </trkpt>
      <trkpt lat="43.59756" lon="1.17631">
        <ele>271.20001220703</ele>
        <time>2016-01-16T08:27:22.000Z</time>
      </trkpt>
      <trkpt lat="43.59757" lon="1.17626">
        <ele>271.20001220703</ele>
        <time>2016-01-16T08:27:24.000Z</time>
      </trkpt>
      <trkpt lat="43.5976" lon="1.17612">
        <ele>271.60000610352</ele>
        <time>2016-01-16T08:27:31.000Z</time>
      </trkpt>
      <trkpt lat="43.59764" lon="1.17594">
        <ele>271.79998779297</ele>
        <time>2016-01-16T08:27:36.000Z</time>
      </trkpt>
      <trkpt lat="43.59769" lon="1.17569">
        <ele>272</ele>
        <time>2016-01-16T08:27:42.000Z</time>
      </trkpt>
      <trkpt lat="43.59776" lon="1.17544">
        <ele>272.79998779297</ele>
        <time>2016-01-16T08:27:49.000Z</time>
      </trkpt>
      <trkpt lat="43.59777" lon="1.1754">
        <ele>272.79998779297</ele>
        <time>2016-01-16T08:27:50.000Z</time>
      </trkpt>
      <trkpt lat="43.59781" lon="1.17528">
        <ele>273.20001220703</ele>
        <time>2016-01-16T08:27:53.000Z</time>
      </trkpt>
      <trkpt lat="43.59785" lon="1.17511">
        <ele>273.79998779297</ele>
        <time>2016-01-16T08:27:58.000Z</time>
      </trkpt>
      <trkpt lat="43.59788" lon="1.17493">
        <ele>274.20001220703</ele>
        <time>2016-01-16T08:28:03.000Z</time>
      </trkpt>
      <trkpt lat="43.59791" lon="1.17473">
        <ele>274.79998779297</ele>
        <time>2016-01-16T08:28:09.000Z</time>
      </trkpt>
      <trkpt lat="43.59791" lon="1.17471">
        <ele>275</ele>
        <time>2016-01-16T08:28:10.000Z</time>
      </trkpt>
      <trkpt lat="43.59794" lon="1.17454">
        <ele>276</ele>
        <time>2016-01-16T08:28:15.000Z</time>
      </trkpt>
      <trkpt lat="43.59796" lon="1.17447">
        <ele>276.60000610352</ele>
        <time>2016-01-16T08:28:17.000Z</time>
      </trkpt>
      <trkpt lat="43.59806" lon="1.1743">
        <ele>277.79998779297</ele>
        <time>2016-01-16T08:28:23.000Z</time>
      </trkpt>
      <trkpt lat="43.59818" lon="1.17413">
        <ele>279.39999389648</ele>
        <time>2016-01-16T08:28:29.000Z</time>
      </trkpt>
      <trkpt lat="43.59826" lon="1.17404">
        <ele>280.39999389648</ele>
        <time>2016-01-16T08:28:33.000Z</time>
      </trkpt>
      <trkpt lat="43.59835" lon="1.17392">
        <ele>281.39999389648</ele>
        <time>2016-01-16T08:28:38.000Z</time>
      </trkpt>
      <trkpt lat="43.59844" lon="1.17384">
        <ele>282.20001220703</ele>
        <time>2016-01-16T08:28:42.000Z</time>
      </trkpt>
      <trkpt lat="43.59855" lon="1.17367">
        <ele>283.79998779297</ele>
        <time>2016-01-16T08:28:48.000Z</time>
      </trkpt>
      <trkpt lat="43.59859" lon="1.17363">
        <ele>283.79998779297</ele>
        <time>2016-01-16T08:28:50.000Z</time>
      </trkpt>
      <trkpt lat="43.59872" lon="1.17342">
        <ele>284.60000610352</ele>
        <time>2016-01-16T08:28:57.000Z</time>
      </trkpt>
      <trkpt lat="43.59877" lon="1.17328">
        <ele>285.20001220703</ele>
        <time>2016-01-16T08:29:01.000Z</time>
      </trkpt>
      <trkpt lat="43.5988" lon="1.17316">
        <ele>285.60000610352</ele>
        <time>2016-01-16T08:29:04.000Z</time>
      </trkpt>
      <trkpt lat="43.59886" lon="1.17304">
        <ele>285.20001220703</ele>
        <time>2016-01-16T08:29:08.000Z</time>
      </trkpt>
      <trkpt lat="43.59888" lon="1.173">
        <ele>285</ele>
        <time>2016-01-16T08:29:09.000Z</time>
      </trkpt>
      <trkpt lat="43.59898" lon="1.17282">
        <ele>283.60000610352</ele>
        <time>2016-01-16T08:29:15.000Z</time>
      </trkpt>
      <trkpt lat="43.5991" lon="1.17266">
        <ele>283</ele>
        <time>2016-01-16T08:29:21.000Z</time>
      </trkpt>
      <trkpt lat="43.59915" lon="1.17258">
        <ele>282.79998779297</ele>
        <time>2016-01-16T08:29:24.000Z</time>
      </trkpt>
      <trkpt lat="43.59935" lon="1.17238">
        <ele>282</ele>
        <time>2016-01-16T08:29:33.000Z</time>
      </trkpt>
      <trkpt lat="43.59943" lon="1.17221">
        <ele>281.79998779297</ele>
        <time>2016-01-16T08:29:38.000Z</time>
      </trkpt>
      <trkpt lat="43.59945" lon="1.17217">
        <ele>281.79998779297</ele>
        <time>2016-01-16T08:29:39.000Z</time>
      </trkpt>
      <trkpt lat="43.59952" lon="1.17195">
        <ele>281.20001220703</ele>
        <time>2016-01-16T08:29:45.000Z</time>
      </trkpt>
      <trkpt lat="43.59961" lon="1.17171">
        <ele>280.60000610352</ele>
        <time>2016-01-16T08:29:52.000Z</time>
      </trkpt>
      <trkpt lat="43.59964" lon="1.17165">
        <ele>280.60000610352</ele>
        <time>2016-01-16T08:29:54.000Z</time>
      </trkpt>
      <trkpt lat="43.59971" lon="1.17146">
        <ele>280.79998779297</ele>
        <time>2016-01-16T08:29:59.000Z</time>
      </trkpt>
      <trkpt lat="43.59974" lon="1.17142">
        <ele>280.79998779297</ele>
        <time>2016-01-16T08:30:00.000Z</time>
      </trkpt>
      <trkpt lat="43.59989" lon="1.17118">
        <ele>279</ele>
        <time>2016-01-16T08:30:08.000Z</time>
      </trkpt>
      <trkpt lat="43.60002" lon="1.17102">
        <ele>279.20001220703</ele>
        <time>2016-01-16T08:30:14.000Z</time>
      </trkpt>
      <trkpt lat="43.6001" lon="1.17091">
        <ele>279.60000610352</ele>
        <time>2016-01-16T08:30:18.000Z</time>
      </trkpt>
      <trkpt lat="43.60021" lon="1.17075">
        <ele>279.39999389648</ele>
        <time>2016-01-16T08:30:24.000Z</time>
      </trkpt>
      <trkpt lat="43.60031" lon="1.17061">
        <ele>279.79998779297</ele>
        <time>2016-01-16T08:30:29.000Z</time>
      </trkpt>
      <trkpt lat="43.60038" lon="1.17055">
        <ele>280.39999389648</ele>
        <time>2016-01-16T08:30:32.000Z</time>
      </trkpt>
      <trkpt lat="43.60052" lon="1.17043">
        <ele>281.39999389648</ele>
        <time>2016-01-16T08:30:38.000Z</time>
      </trkpt>
      <trkpt lat="43.60053" lon="1.1704">
        <ele>281.60000610352</ele>
        <time>2016-01-16T08:30:39.000Z</time>
      </trkpt>
      <trkpt lat="43.60063" lon="1.17022">
        <ele>282.20001220703</ele>
        <time>2016-01-16T08:30:45.000Z</time>
      </trkpt>
      <trkpt lat="43.60069" lon="1.1701">
        <ele>282.39999389648</ele>
        <time>2016-01-16T08:30:49.000Z</time>
      </trkpt>
      <trkpt lat="43.60075" lon="1.16997">
        <ele>282.60000610352</ele>
        <time>2016-01-16T08:30:53.000Z</time>
      </trkpt>
      <trkpt lat="43.60076" lon="1.16994">
        <ele>282.60000610352</ele>
        <time>2016-01-16T08:30:54.000Z</time>
      </trkpt>
      <trkpt lat="43.60082" lon="1.16976">
        <ele>283</ele>
        <time>2016-01-16T08:30:59.000Z</time>
      </trkpt>
      <trkpt lat="43.60083" lon="1.16972">
        <ele>283.20001220703</ele>
        <time>2016-01-16T08:31:00.000Z</time>
      </trkpt>
      <trkpt lat="43.60086" lon="1.16966">
        <ele>284</ele>
        <time>2016-01-16T08:31:02.000Z</time>
      </trkpt>
      <trkpt lat="43.60091" lon="1.16948">
        <ele>284.60000610352</ele>
        <time>2016-01-16T08:31:07.000Z</time>
      </trkpt>
      <trkpt lat="43.60095" lon="1.16937">
        <ele>284.79998779297</ele>
        <time>2016-01-16T08:31:11.000Z</time>
      </trkpt>
      <trkpt lat="43.60097" lon="1.16934">
        <ele>285</ele>
        <time>2016-01-16T08:31:12.000Z</time>
      </trkpt>
      <trkpt lat="43.60098" lon="1.16927">
        <ele>285.20001220703</ele>
        <time>2016-01-16T08:31:14.000Z</time>
      </trkpt>
      <trkpt lat="43.60105" lon="1.16907">
        <ele>285.60000610352</ele>
        <time>2016-01-16T08:31:20.000Z</time>
      </trkpt>
      <trkpt lat="43.60112" lon="1.16883">
        <ele>287</ele>
        <time>2016-01-16T08:31:27.000Z</time>
      </trkpt>
      <trkpt lat="43.60115" lon="1.16867">
        <ele>288.60000610352</ele>
        <time>2016-01-16T08:31:32.000Z</time>
      </trkpt>
      <trkpt lat="43.60117" lon="1.1685">
        <ele>290.20001220703</ele>
        <time>2016-01-16T08:31:37.000Z</time>
      </trkpt>
      <trkpt lat="43.6012" lon="1.16833">
        <ele>291.79998779297</ele>
        <time>2016-01-16T08:31:42.000Z</time>
      </trkpt>
      <trkpt lat="43.60122" lon="1.16823">
        <ele>292.39999389648</ele>
        <time>2016-01-16T08:31:45.000Z</time>
      </trkpt>
      <trkpt lat="43.60124" lon="1.16807">
        <ele>292.79998779297</ele>
        <time>2016-01-16T08:31:50.000Z</time>
      </trkpt>
      <trkpt lat="43.60124" lon="1.16793">
        <ele>293</ele>
        <time>2016-01-16T08:31:54.000Z</time>
      </trkpt>
      <trkpt lat="43.60124" lon="1.16783">
        <ele>293.39999389648</ele>
        <time>2016-01-16T08:31:57.000Z</time>
      </trkpt>
      <trkpt lat="43.60121" lon="1.16766">
        <ele>294</ele>
        <time>2016-01-16T08:32:02.000Z</time>
      </trkpt>
      <trkpt lat="43.60121" lon="1.16762">
        <ele>294</ele>
        <time>2016-01-16T08:32:03.000Z</time>
      </trkpt>
      <trkpt lat="43.60119" lon="1.16752">
        <ele>294.39999389648</ele>
        <time>2016-01-16T08:32:06.000Z</time>
      </trkpt>
      <trkpt lat="43.60117" lon="1.16736">
        <ele>295.20001220703</ele>
        <time>2016-01-16T08:32:11.000Z</time>
      </trkpt>
      <trkpt lat="43.60117" lon="1.16729">
        <ele>295.79998779297</ele>
        <time>2016-01-16T08:32:13.000Z</time>
      </trkpt>
      <trkpt lat="43.60117" lon="1.16712">
        <ele>295.60000610352</ele>
        <time>2016-01-16T08:32:18.000Z</time>
      </trkpt>
      <trkpt lat="43.60117" lon="1.16695">
        <ele>295.39999389648</ele>
        <time>2016-01-16T08:32:23.000Z</time>
      </trkpt>
      <trkpt lat="43.60118" lon="1.16688">
        <ele>295.39999389648</ele>
        <time>2016-01-16T08:32:25.000Z</time>
      </trkpt>
      <trkpt lat="43.60119" lon="1.16683">
        <ele>295.20001220703</ele>
        <time>2016-01-16T08:32:27.000Z</time>
      </trkpt>
      <trkpt lat="43.60119" lon="1.1666">
        <ele>295</ele>
        <time>2016-01-16T08:32:33.000Z</time>
      </trkpt>
      <trkpt lat="43.6012" lon="1.16643">
        <ele>295.20001220703</ele>
        <time>2016-01-16T08:32:37.000Z</time>
      </trkpt>
      <trkpt lat="43.60122" lon="1.16621">
        <ele>295.79998779297</ele>
        <time>2016-01-16T08:32:42.000Z</time>
      </trkpt>
      <trkpt lat="43.60122" lon="1.16596">
        <ele>296.39999389648</ele>
        <time>2016-01-16T08:32:48.000Z</time>
      </trkpt>
      <trkpt lat="43.60118" lon="1.16573">
        <ele>296.79998779297</ele>
        <time>2016-01-16T08:32:54.000Z</time>
      </trkpt>
      <trkpt lat="43.60116" lon="1.16553">
        <ele>297.20001220703</ele>
        <time>2016-01-16T08:32:59.000Z</time>
      </trkpt>
      <trkpt lat="43.60115" lon="1.16537">
        <ele>297.39999389648</ele>
        <time>2016-01-16T08:33:03.000Z</time>
      </trkpt>
      <trkpt lat="43.60116" lon="1.16522">
        <ele>297.60000610352</ele>
        <time>2016-01-16T08:33:07.000Z</time>
      </trkpt>
      <trkpt lat="43.60114" lon="1.16502">
        <ele>297.79998779297</ele>
        <time>2016-01-16T08:33:12.000Z</time>
      </trkpt>
      <trkpt lat="43.60114" lon="1.16498">
        <ele>298</ele>
        <time>2016-01-16T08:33:13.000Z</time>
      </trkpt>
      <trkpt lat="43.60111" lon="1.16484">
        <ele>298.20001220703</ele>
        <time>2016-01-16T08:33:17.000Z</time>
      </trkpt>
      <trkpt lat="43.60106" lon="1.16467">
        <ele>298.20001220703</ele>
        <time>2016-01-16T08:33:22.000Z</time>
      </trkpt>
      <trkpt lat="43.60102" lon="1.16441">
        <ele>298</ele>
        <time>2016-01-16T08:33:29.000Z</time>
      </trkpt>
      <trkpt lat="43.60101" lon="1.16407">
        <ele>297.79998779297</ele>
        <time>2016-01-16T08:33:38.000Z</time>
      </trkpt>
      <trkpt lat="43.60101" lon="1.16403">
        <ele>298</ele>
        <time>2016-01-16T08:33:39.000Z</time>
      </trkpt>
      <trkpt lat="43.60107" lon="1.16381">
        <ele>297.39999389648</ele>
        <time>2016-01-16T08:33:45.000Z</time>
      </trkpt>
      <trkpt lat="43.6011" lon="1.16368">
        <ele>296.79998779297</ele>
        <time>2016-01-16T08:33:49.000Z</time>
      </trkpt>
      <trkpt lat="43.60112" lon="1.16354">
        <ele>296.20001220703</ele>
        <time>2016-01-16T08:33:53.000Z</time>
      </trkpt>
      <trkpt lat="43.60113" lon="1.16332">
        <ele>295</ele>
        <time>2016-01-16T08:33:59.000Z</time>
      </trkpt>
      <trkpt lat="43.60115" lon="1.16317">
        <ele>294.39999389648</ele>
        <time>2016-01-16T08:34:04.000Z</time>
      </trkpt>
      <trkpt lat="43.60122" lon="1.16304">
        <ele>294.39999389648</ele>
        <time>2016-01-16T08:34:09.000Z</time>
      </trkpt>
      <trkpt lat="43.60127" lon="1.16298">
        <ele>294.60000610352</ele>
        <time>2016-01-16T08:34:14.000Z</time>
      </trkpt>
      <trkpt lat="43.60131" lon="1.16298">
        <ele>295</ele>
        <time>2016-01-16T08:34:16.000Z</time>
      </trkpt>
      <trkpt lat="43.60148" lon="1.16302">
        <ele>296.79998779297</ele>
        <time>2016-01-16T08:34:23.000Z</time>
      </trkpt>
      <trkpt lat="43.60149" lon="1.16304">
        <ele>297.20001220703</ele>
        <time>2016-01-16T08:34:24.000Z</time>
      </trkpt>
      <trkpt lat="43.60151" lon="1.16313">
        <ele>297.79998779297</ele>
        <time>2016-01-16T08:34:27.000Z</time>
      </trkpt>
      <trkpt lat="43.60159" lon="1.16323">
        <ele>298.79998779297</ele>
        <time>2016-01-16T08:34:33.000Z</time>
      </trkpt>
      <trkpt lat="43.60163" lon="1.1633">
        <ele>299.39999389648</ele>
        <time>2016-01-16T08:34:36.000Z</time>
      </trkpt>
      <trkpt lat="43.60172" lon="1.16331">
        <ele>300.20001220703</ele>
        <time>2016-01-16T08:34:40.000Z</time>
      </trkpt>
      <trkpt lat="43.60194" lon="1.16317">
        <ele>300.60000610352</ele>
        <time>2016-01-16T08:34:49.000Z</time>
      </trkpt>
      <trkpt lat="43.60196" lon="1.16314">
        <ele>300.39999389648</ele>
        <time>2016-01-16T08:34:50.000Z</time>
      </trkpt>
      <trkpt lat="43.60208" lon="1.16297">
        <ele>299.20001220703</ele>
        <time>2016-01-16T08:34:56.000Z</time>
      </trkpt>
      <trkpt lat="43.60211" lon="1.16295">
        <ele>299</ele>
        <time>2016-01-16T08:34:57.000Z</time>
      </trkpt>
      <trkpt lat="43.60222" lon="1.16289">
        <ele>298.20001220703</ele>
        <time>2016-01-16T08:35:01.000Z</time>
      </trkpt>
      <trkpt lat="43.60225" lon="1.16289">
        <ele>298</ele>
        <time>2016-01-16T08:35:02.000Z</time>
      </trkpt>
      <trkpt lat="43.60242" lon="1.16297">
        <ele>297.60000610352</ele>
        <time>2016-01-16T08:35:08.000Z</time>
      </trkpt>
      <trkpt lat="43.60251" lon="1.16302">
        <ele>297.39999389648</ele>
        <time>2016-01-16T08:35:12.000Z</time>
      </trkpt>
      <trkpt lat="43.60262" lon="1.16305">
        <ele>297</ele>
        <time>2016-01-16T08:35:16.000Z</time>
      </trkpt>
      <trkpt lat="43.60263" lon="1.16306">
        <ele>297</ele>
        <time>2016-01-16T08:35:17.000Z</time>
      </trkpt>
      <trkpt lat="43.60277" lon="1.16311">
        <ele>296.39999389648</ele>
        <time>2016-01-16T08:35:22.000Z</time>
      </trkpt>
      <trkpt lat="43.60288" lon="1.16322">
        <ele>295.79998779297</ele>
        <time>2016-01-16T08:35:26.000Z</time>
      </trkpt>
      <trkpt lat="43.60299" lon="1.16339">
        <ele>295.20001220703</ele>
        <time>2016-01-16T08:35:31.000Z</time>
      </trkpt>
      <trkpt lat="43.60308" lon="1.16352">
        <ele>294.60000610352</ele>
        <time>2016-01-16T08:35:35.000Z</time>
      </trkpt>
      <trkpt lat="43.60321" lon="1.16374">
        <ele>293.79998779297</ele>
        <time>2016-01-16T08:35:41.000Z</time>
      </trkpt>
      <trkpt lat="43.60331" lon="1.16386">
        <ele>293.20001220703</ele>
        <time>2016-01-16T08:35:45.000Z</time>
      </trkpt>
      <trkpt lat="43.60343" lon="1.16402">
        <ele>292.39999389648</ele>
        <time>2016-01-16T08:35:50.000Z</time>
      </trkpt>
      <trkpt lat="43.60352" lon="1.16418">
        <ele>291.79998779297</ele>
        <time>2016-01-16T08:35:55.000Z</time>
      </trkpt>
      <trkpt lat="43.60361" lon="1.16427">
        <ele>290.79998779297</ele>
        <time>2016-01-16T08:35:59.000Z</time>
      </trkpt>
      <trkpt lat="43.60372" lon="1.16441">
        <ele>289.79998779297</ele>
        <time>2016-01-16T08:36:03.000Z</time>
      </trkpt>
      <trkpt lat="43.60381" lon="1.16452">
        <ele>288.79998779297</ele>
        <time>2016-01-16T08:36:06.000Z</time>
      </trkpt>
      <trkpt lat="43.60388" lon="1.16468">
        <ele>288.20001220703</ele>
        <time>2016-01-16T08:36:10.000Z</time>
      </trkpt>
      <trkpt lat="43.60391" lon="1.16484">
        <ele>288</ele>
        <time>2016-01-16T08:36:14.000Z</time>
      </trkpt>
      <trkpt lat="43.60396" lon="1.16503">
        <ele>288.20001220703</ele>
        <time>2016-01-16T08:36:19.000Z</time>
      </trkpt>
      <trkpt lat="43.60396" lon="1.16508">
        <ele>288.39999389648</ele>
        <time>2016-01-16T08:36:20.000Z</time>
      </trkpt>
      <trkpt lat="43.60396" lon="1.16519">
        <ele>288.79998779297</ele>
        <time>2016-01-16T08:36:23.000Z</time>
      </trkpt>
      <trkpt lat="43.60399" lon="1.16539">
        <ele>288.20001220703</ele>
        <time>2016-01-16T08:36:28.000Z</time>
      </trkpt>
      <trkpt lat="43.60403" lon="1.16553">
        <ele>287.60000610352</ele>
        <time>2016-01-16T08:36:32.000Z</time>
      </trkpt>
      <trkpt lat="43.60403" lon="1.16556">
        <ele>287.60000610352</ele>
        <time>2016-01-16T08:36:33.000Z</time>
      </trkpt>
      <trkpt lat="43.60403" lon="1.16563">
        <ele>287.39999389648</ele>
        <time>2016-01-16T08:36:35.000Z</time>
      </trkpt>
      <trkpt lat="43.60407" lon="1.16578">
        <ele>287.60000610352</ele>
        <time>2016-01-16T08:36:39.000Z</time>
      </trkpt>
      <trkpt lat="43.60413" lon="1.16596">
        <ele>287.60000610352</ele>
        <time>2016-01-16T08:36:44.000Z</time>
      </trkpt>
      <trkpt lat="43.6042" lon="1.16623">
        <ele>288</ele>
        <time>2016-01-16T08:36:51.000Z</time>
      </trkpt>
      <trkpt lat="43.60423" lon="1.16632">
        <ele>288</ele>
        <time>2016-01-16T08:36:54.000Z</time>
      </trkpt>
      <trkpt lat="43.60437" lon="1.16636">
        <ele>287.60000610352</ele>
        <time>2016-01-16T08:36:59.000Z</time>
      </trkpt>
      <trkpt lat="43.60442" lon="1.16635">
        <ele>287.20001220703</ele>
        <time>2016-01-16T08:37:01.000Z</time>
      </trkpt>
      <trkpt lat="43.60452" lon="1.16645">
        <ele>286.20001220703</ele>
        <time>2016-01-16T08:37:06.000Z</time>
      </trkpt>
      <trkpt lat="43.60458" lon="1.16652">
        <ele>285.60000610352</ele>
        <time>2016-01-16T08:37:09.000Z</time>
      </trkpt>
      <trkpt lat="43.60465" lon="1.16657">
        <ele>284.79998779297</ele>
        <time>2016-01-16T08:37:12.000Z</time>
      </trkpt>
      <trkpt lat="43.60475" lon="1.16668">
        <ele>283.79998779297</ele>
        <time>2016-01-16T08:37:16.000Z</time>
      </trkpt>
      <trkpt lat="43.60479" lon="1.16672">
        <ele>283.39999389648</ele>
        <time>2016-01-16T08:37:18.000Z</time>
      </trkpt>
      <trkpt lat="43.60483" lon="1.16681">
        <ele>282.79998779297</ele>
        <time>2016-01-16T08:37:21.000Z</time>
      </trkpt>
      <trkpt lat="43.60496" lon="1.16695">
        <ele>281.39999389648</ele>
        <time>2016-01-16T08:37:27.000Z</time>
      </trkpt>
      <trkpt lat="43.60504" lon="1.16706">
        <ele>280.60000610352</ele>
        <time>2016-01-16T08:37:31.000Z</time>
      </trkpt>
      <trkpt lat="43.60505" lon="1.16708">
        <ele>280.39999389648</ele>
        <time>2016-01-16T08:37:32.000Z</time>
      </trkpt>
      <trkpt lat="43.6052" lon="1.16727">
        <ele>278.79998779297</ele>
        <time>2016-01-16T08:37:41.000Z</time>
      </trkpt>
      <trkpt lat="43.60531" lon="1.16738">
        <ele>278.60000610352</ele>
        <time>2016-01-16T08:37:45.000Z</time>
      </trkpt>
      <trkpt lat="43.60533" lon="1.1674">
        <ele>278.60000610352</ele>
        <time>2016-01-16T08:37:46.000Z</time>
      </trkpt>
      <trkpt lat="43.60535" lon="1.16741">
        <ele>278.39999389648</ele>
        <time>2016-01-16T08:37:47.000Z</time>
      </trkpt>
      <trkpt lat="43.60543" lon="1.16749">
        <ele>278.20001220703</ele>
        <time>2016-01-16T08:37:51.000Z</time>
      </trkpt>
      <trkpt lat="43.60552" lon="1.16761">
        <ele>278.20001220703</ele>
        <time>2016-01-16T08:37:56.000Z</time>
      </trkpt>
      <trkpt lat="43.60555" lon="1.16764">
        <ele>278.20001220703</ele>
        <time>2016-01-16T08:37:57.000Z</time>
      </trkpt>
      <trkpt lat="43.60564" lon="1.16776">
        <ele>278</ele>
        <time>2016-01-16T08:38:01.000Z</time>
      </trkpt>
      <trkpt lat="43.60575" lon="1.1679">
        <ele>278</ele>
        <time>2016-01-16T08:38:06.000Z</time>
      </trkpt>
      <trkpt lat="43.60577" lon="1.16793">
        <ele>278</ele>
        <time>2016-01-16T08:38:07.000Z</time>
      </trkpt>
      <trkpt lat="43.60581" lon="1.16811">
        <ele>278.39999389648</ele>
        <time>2016-01-16T08:38:12.000Z</time>
      </trkpt>
      <trkpt lat="43.60589" lon="1.16825">
        <ele>278.39999389648</ele>
        <time>2016-01-16T08:38:16.000Z</time>
      </trkpt>
      <trkpt lat="43.60593" lon="1.16837">
        <ele>278.60000610352</ele>
        <time>2016-01-16T08:38:20.000Z</time>
      </trkpt>
      <trkpt lat="43.60594" lon="1.16841">
        <ele>278.60000610352</ele>
        <time>2016-01-16T08:38:21.000Z</time>
      </trkpt>
      <trkpt lat="43.60608" lon="1.16865">
        <ele>278.39999389648</ele>
        <time>2016-01-16T08:38:29.000Z</time>
      </trkpt>
      <trkpt lat="43.60618" lon="1.16884">
        <ele>278.20001220703</ele>
        <time>2016-01-16T08:38:34.000Z</time>
      </trkpt>
      <trkpt lat="43.60625" lon="1.16888">
        <ele>277.79998779297</ele>
        <time>2016-01-16T08:38:37.000Z</time>
      </trkpt>
      <trkpt lat="43.60629" lon="1.16903">
        <ele>277.60000610352</ele>
        <time>2016-01-16T08:38:41.000Z</time>
      </trkpt>
      <trkpt lat="43.60634" lon="1.16919">
        <ele>277</ele>
        <time>2016-01-16T08:38:45.000Z</time>
      </trkpt>
      <trkpt lat="43.60635" lon="1.16927">
        <ele>276.79998779297</ele>
        <time>2016-01-16T08:38:47.000Z</time>
      </trkpt>
      <trkpt lat="43.60638" lon="1.16934">
        <ele>276.60000610352</ele>
        <time>2016-01-16T08:38:49.000Z</time>
      </trkpt>
      <trkpt lat="43.60639" lon="1.16938">
        <ele>276.60000610352</ele>
        <time>2016-01-16T08:38:50.000Z</time>
      </trkpt>
      <trkpt lat="43.60639" lon="1.16942">
        <ele>276.79998779297</ele>
        <time>2016-01-16T08:38:51.000Z</time>
      </trkpt>
      <trkpt lat="43.60637" lon="1.16949">
        <ele>277</ele>
        <time>2016-01-16T08:38:53.000Z</time>
      </trkpt>
      <trkpt lat="43.6063" lon="1.16959">
        <ele>278.20001220703</ele>
        <time>2016-01-16T08:38:57.000Z</time>
      </trkpt>
      <trkpt lat="43.60632" lon="1.16968">
        <ele>278.20001220703</ele>
        <time>2016-01-16T08:39:00.000Z</time>
      </trkpt>
      <trkpt lat="43.6064" lon="1.16978">
        <ele>277.39999389648</ele>
        <time>2016-01-16T08:39:04.000Z</time>
      </trkpt>
      <trkpt lat="43.60641" lon="1.16998">
        <ele>277.39999389648</ele>
        <time>2016-01-16T08:39:09.000Z</time>
      </trkpt>
      <trkpt lat="43.60641" lon="1.17002">
        <ele>277.60000610352</ele>
        <time>2016-01-16T08:39:10.000Z</time>
      </trkpt>
      <trkpt lat="43.60646" lon="1.1702">
        <ele>277.20001220703</ele>
        <time>2016-01-16T08:39:15.000Z</time>
      </trkpt>
      <trkpt lat="43.60655" lon="1.17036">
        <ele>276.39999389648</ele>
        <time>2016-01-16T08:39:20.000Z</time>
      </trkpt>
      <trkpt lat="43.60657" lon="1.17044">
        <ele>276.20001220703</ele>
        <time>2016-01-16T08:39:22.000Z</time>
      </trkpt>
      <trkpt lat="43.60658" lon="1.17051">
        <ele>276.20001220703</ele>
        <time>2016-01-16T08:39:24.000Z</time>
      </trkpt>
      <trkpt lat="43.60661" lon="1.17064">
        <ele>276</ele>
        <time>2016-01-16T08:39:28.000Z</time>
      </trkpt>
      <trkpt lat="43.60663" lon="1.17069">
        <ele>276</ele>
        <time>2016-01-16T08:39:29.000Z</time>
      </trkpt>
      <trkpt lat="43.6067" lon="1.17088">
        <ele>276.39999389648</ele>
        <time>2016-01-16T08:39:34.000Z</time>
      </trkpt>
      <trkpt lat="43.60672" lon="1.1709">
        <ele>276.39999389648</ele>
        <time>2016-01-16T08:39:35.000Z</time>
      </trkpt>
      <trkpt lat="43.60675" lon="1.17109">
        <ele>277</ele>
        <time>2016-01-16T08:39:40.000Z</time>
      </trkpt>
      <trkpt lat="43.60676" lon="1.17113">
        <ele>277.20001220703</ele>
        <time>2016-01-16T08:39:41.000Z</time>
      </trkpt>
      <trkpt lat="43.60684" lon="1.17126">
        <ele>277</ele>
        <time>2016-01-16T08:39:45.000Z</time>
      </trkpt>
      <trkpt lat="43.60691" lon="1.1714">
        <ele>277.39999389648</ele>
        <time>2016-01-16T08:39:50.000Z</time>
      </trkpt>
      <trkpt lat="43.60698" lon="1.17153">
        <ele>276.79998779297</ele>
        <time>2016-01-16T08:39:54.000Z</time>
      </trkpt>
      <trkpt lat="43.60703" lon="1.17169">
        <ele>276.20001220703</ele>
        <time>2016-01-16T08:39:58.000Z</time>
      </trkpt>
      <trkpt lat="43.60703" lon="1.17178">
        <ele>276.20001220703</ele>
        <time>2016-01-16T08:40:00.000Z</time>
      </trkpt>
      <trkpt lat="43.60705" lon="1.17191">
        <ele>275.79998779297</ele>
        <time>2016-01-16T08:40:04.000Z</time>
      </trkpt>
      <trkpt lat="43.60705" lon="1.17204">
        <ele>275.60000610352</ele>
        <time>2016-01-16T08:40:08.000Z</time>
      </trkpt>
      <trkpt lat="43.60711" lon="1.17215">
        <ele>275</ele>
        <time>2016-01-16T08:40:11.000Z</time>
      </trkpt>
      <trkpt lat="43.60717" lon="1.17228">
        <ele>274.39999389648</ele>
        <time>2016-01-16T08:40:15.000Z</time>
      </trkpt>
      <trkpt lat="43.60725" lon="1.17241">
        <ele>274.20001220703</ele>
        <time>2016-01-16T08:40:19.000Z</time>
      </trkpt>
      <trkpt lat="43.60734" lon="1.17256">
        <ele>274</ele>
        <time>2016-01-16T08:40:24.000Z</time>
      </trkpt>
      <trkpt lat="43.60737" lon="1.17267">
        <ele>274</ele>
        <time>2016-01-16T08:40:27.000Z</time>
      </trkpt>
      <trkpt lat="43.60737" lon="1.17271">
        <ele>274.20001220703</ele>
        <time>2016-01-16T08:40:28.000Z</time>
      </trkpt>
      <trkpt lat="43.60737" lon="1.17275">
        <ele>274.39999389648</ele>
        <time>2016-01-16T08:40:29.000Z</time>
      </trkpt>
      <trkpt lat="43.60745" lon="1.17283">
        <ele>274</ele>
        <time>2016-01-16T08:40:34.000Z</time>
      </trkpt>
      <trkpt lat="43.60751" lon="1.17288">
        <ele>273.60000610352</ele>
        <time>2016-01-16T08:40:37.000Z</time>
      </trkpt>
      <trkpt lat="43.60759" lon="1.17293">
        <ele>273.20001220703</ele>
        <time>2016-01-16T08:40:40.000Z</time>
      </trkpt>
      <trkpt lat="43.60765" lon="1.17299">
        <ele>272.79998779297</ele>
        <time>2016-01-16T08:40:44.000Z</time>
      </trkpt>
      <trkpt lat="43.6077" lon="1.17302">
        <ele>272.60000610352</ele>
        <time>2016-01-16T08:40:46.000Z</time>
      </trkpt>
      <trkpt lat="43.60781" lon="1.17305">
        <ele>271.79998779297</ele>
        <time>2016-01-16T08:40:52.000Z</time>
      </trkpt>
      <trkpt lat="43.60794" lon="1.17311">
        <ele>271.20001220703</ele>
        <time>2016-01-16T08:40:57.000Z</time>
      </trkpt>
      <trkpt lat="43.60804" lon="1.17318">
        <ele>271</ele>
        <time>2016-01-16T08:41:01.000Z</time>
      </trkpt>
      <trkpt lat="43.60817" lon="1.17332">
        <ele>271.20001220703</ele>
        <time>2016-01-16T08:41:07.000Z</time>
      </trkpt>
      <trkpt lat="43.60824" lon="1.17336">
        <ele>271.20001220703</ele>
        <time>2016-01-16T08:41:10.000Z</time>
      </trkpt>
      <trkpt lat="43.6084" lon="1.17347">
        <ele>270.79998779297</ele>
        <time>2016-01-16T08:41:16.000Z</time>
      </trkpt>
      <trkpt lat="43.60842" lon="1.17349">
        <ele>271</ele>
        <time>2016-01-16T08:41:17.000Z</time>
      </trkpt>
      <trkpt lat="43.6085" lon="1.17358">
        <ele>271</ele>
        <time>2016-01-16T08:41:21.000Z</time>
      </trkpt>
      <trkpt lat="43.60859" lon="1.17358">
        <ele>270.20001220703</ele>
        <time>2016-01-16T08:41:25.000Z</time>
      </trkpt>
      <trkpt lat="43.60862" lon="1.17356">
        <ele>269.79998779297</ele>
        <time>2016-01-16T08:41:27.000Z</time>
      </trkpt>
      <trkpt lat="43.60869" lon="1.1735">
        <ele>268.60000610352</ele>
        <time>2016-01-16T08:41:30.000Z</time>
      </trkpt>
      <trkpt lat="43.6087" lon="1.17348">
        <ele>268.39999389648</ele>
        <time>2016-01-16T08:41:31.000Z</time>
      </trkpt>
      <trkpt lat="43.60873" lon="1.17347">
        <ele>268</ele>
        <time>2016-01-16T08:41:32.000Z</time>
      </trkpt>
      <trkpt lat="43.60895" lon="1.1736">
        <ele>267</ele>
        <time>2016-01-16T08:41:40.000Z</time>
      </trkpt>
      <trkpt lat="43.60899" lon="1.17364">
        <ele>267</ele>
        <time>2016-01-16T08:41:42.000Z</time>
      </trkpt>
      <trkpt lat="43.60912" lon="1.1737">
        <ele>266.20001220703</ele>
        <time>2016-01-16T08:41:47.000Z</time>
      </trkpt>
      <trkpt lat="43.60914" lon="1.17372">
        <ele>266.20001220703</ele>
        <time>2016-01-16T08:41:48.000Z</time>
      </trkpt>
      <trkpt lat="43.60923" lon="1.17377">
        <ele>265.79998779297</ele>
        <time>2016-01-16T08:41:52.000Z</time>
      </trkpt>
      <trkpt lat="43.60935" lon="1.17389">
        <ele>265.60000610352</ele>
        <time>2016-01-16T08:41:57.000Z</time>
      </trkpt>
      <trkpt lat="43.60938" lon="1.17391">
        <ele>265.79998779297</ele>
        <time>2016-01-16T08:41:58.000Z</time>
      </trkpt>
      <trkpt lat="43.60956" lon="1.174">
        <ele>265.79998779297</ele>
        <time>2016-01-16T08:42:03.000Z</time>
      </trkpt>
      <trkpt lat="43.60966" lon="1.17406">
        <ele>265.79998779297</ele>
        <time>2016-01-16T08:42:07.000Z</time>
      </trkpt>
      <trkpt lat="43.60978" lon="1.1741">
        <ele>265.79998779297</ele>
        <time>2016-01-16T08:42:11.000Z</time>
      </trkpt>
      <trkpt lat="43.6099" lon="1.17421">
        <ele>266</ele>
        <time>2016-01-16T08:42:17.000Z</time>
      </trkpt>
      <trkpt lat="43.61001" lon="1.17427">
        <ele>266</ele>
        <time>2016-01-16T08:42:21.000Z</time>
      </trkpt>
      <trkpt lat="43.61015" lon="1.17439">
        <ele>266.20001220703</ele>
        <time>2016-01-16T08:42:27.000Z</time>
      </trkpt>
      <trkpt lat="43.61032" lon="1.17445">
        <ele>265.39999389648</ele>
        <time>2016-01-16T08:42:33.000Z</time>
      </trkpt>
      <trkpt lat="43.61035" lon="1.17448">
        <ele>265.20001220703</ele>
        <time>2016-01-16T08:42:34.000Z</time>
      </trkpt>
      <trkpt lat="43.61046" lon="1.17464">
        <ele>265</ele>
        <time>2016-01-16T08:42:39.000Z</time>
      </trkpt>
      <trkpt lat="43.6106" lon="1.17478">
        <ele>264.60000610352</ele>
        <time>2016-01-16T08:42:44.000Z</time>
      </trkpt>
      <trkpt lat="43.61066" lon="1.1748">
        <ele>264.20001220703</ele>
        <time>2016-01-16T08:42:46.000Z</time>
      </trkpt>
      <trkpt lat="43.61071" lon="1.1748">
        <ele>263.79998779297</ele>
        <time>2016-01-16T08:42:48.000Z</time>
      </trkpt>
      <trkpt lat="43.61081" lon="1.17489">
        <ele>263.39999389648</ele>
        <time>2016-01-16T08:42:53.000Z</time>
      </trkpt>
      <trkpt lat="43.61083" lon="1.17492">
        <ele>263.20001220703</ele>
        <time>2016-01-16T08:42:54.000Z</time>
      </trkpt>
      <trkpt lat="43.61084" lon="1.17502">
        <ele>263.60000610352</ele>
        <time>2016-01-16T08:42:57.000Z</time>
      </trkpt>
      <trkpt lat="43.61086" lon="1.17505">
        <ele>263.60000610352</ele>
        <time>2016-01-16T08:42:58.000Z</time>
      </trkpt>
      <trkpt lat="43.61092" lon="1.17514">
        <ele>263.60000610352</ele>
        <time>2016-01-16T08:43:01.000Z</time>
      </trkpt>
      <trkpt lat="43.61097" lon="1.17531">
        <ele>264</ele>
        <time>2016-01-16T08:43:06.000Z</time>
      </trkpt>
      <trkpt lat="43.61102" lon="1.17543">
        <ele>264.20001220703</ele>
        <time>2016-01-16T08:43:10.000Z</time>
      </trkpt>
      <trkpt lat="43.61105" lon="1.17554">
        <ele>264.39999389648</ele>
        <time>2016-01-16T08:43:14.000Z</time>
      </trkpt>
      <trkpt lat="43.61106" lon="1.17557">
        <ele>264.39999389648</ele>
        <time>2016-01-16T08:43:15.000Z</time>
      </trkpt>
      <trkpt lat="43.61108" lon="1.17562">
        <ele>264.60000610352</ele>
        <time>2016-01-16T08:43:17.000Z</time>
      </trkpt>
      <trkpt lat="43.61116" lon="1.17564">
        <ele>264.20001220703</ele>
        <time>2016-01-16T08:43:21.000Z</time>
      </trkpt>
      <trkpt lat="43.6112" lon="1.17565">
        <ele>263.79998779297</ele>
        <time>2016-01-16T08:43:23.000Z</time>
      </trkpt>
      <trkpt lat="43.61123" lon="1.17567">
        <ele>263.79998779297</ele>
        <time>2016-01-16T08:43:24.000Z</time>
      </trkpt>
      <trkpt lat="43.61134" lon="1.1757">
        <ele>263.20001220703</ele>
        <time>2016-01-16T08:43:28.000Z</time>
      </trkpt>
      <trkpt lat="43.6114" lon="1.17574">
        <ele>262.79998779297</ele>
        <time>2016-01-16T08:43:31.000Z</time>
      </trkpt>
      <trkpt lat="43.61151" lon="1.17588">
        <ele>262.79998779297</ele>
        <time>2016-01-16T08:43:37.000Z</time>
      </trkpt>
      <trkpt lat="43.61156" lon="1.17592">
        <ele>262.60000610352</ele>
        <time>2016-01-16T08:43:39.000Z</time>
      </trkpt>
      <trkpt lat="43.61157" lon="1.17596">
        <ele>262.79998779297</ele>
        <time>2016-01-16T08:43:40.000Z</time>
      </trkpt>
      <trkpt lat="43.61158" lon="1.17599">
        <ele>262.79998779297</ele>
        <time>2016-01-16T08:43:41.000Z</time>
      </trkpt>
      <trkpt lat="43.61166" lon="1.17614">
        <ele>263</ele>
        <time>2016-01-16T08:43:46.000Z</time>
      </trkpt>
      <trkpt lat="43.61167" lon="1.17617">
        <ele>263</ele>
        <time>2016-01-16T08:43:47.000Z</time>
      </trkpt>
      <trkpt lat="43.61168" lon="1.1762">
        <ele>263</ele>
        <time>2016-01-16T08:43:48.000Z</time>
      </trkpt>
      <trkpt lat="43.61177" lon="1.1763">
        <ele>262.79998779297</ele>
        <time>2016-01-16T08:43:52.000Z</time>
      </trkpt>
      <trkpt lat="43.61183" lon="1.17639">
        <ele>263</ele>
        <time>2016-01-16T08:43:56.000Z</time>
      </trkpt>
      <trkpt lat="43.61189" lon="1.17651">
        <ele>263</ele>
        <time>2016-01-16T08:44:00.000Z</time>
      </trkpt>
      <trkpt lat="43.61195" lon="1.17657">
        <ele>263</ele>
        <time>2016-01-16T08:44:03.000Z</time>
      </trkpt>
      <trkpt lat="43.612" lon="1.17662">
        <ele>262.79998779297</ele>
        <time>2016-01-16T08:44:06.000Z</time>
      </trkpt>
      <trkpt lat="43.61202" lon="1.17665">
        <ele>262.79998779297</ele>
        <time>2016-01-16T08:44:07.000Z</time>
      </trkpt>
      <trkpt lat="43.61205" lon="1.17669">
        <ele>262.79998779297</ele>
        <time>2016-01-16T08:44:09.000Z</time>
      </trkpt>
      <trkpt lat="43.61214" lon="1.17678">
        <ele>262.60000610352</ele>
        <time>2016-01-16T08:44:13.000Z</time>
      </trkpt>
      <trkpt lat="43.6122" lon="1.17687">
        <ele>262.60000610352</ele>
        <time>2016-01-16T08:44:16.000Z</time>
      </trkpt>
      <trkpt lat="43.61228" lon="1.17702">
        <ele>262.79998779297</ele>
        <time>2016-01-16T08:44:21.000Z</time>
      </trkpt>
      <trkpt lat="43.61229" lon="1.17714">
        <ele>263.39999389648</ele>
        <time>2016-01-16T08:44:26.000Z</time>
      </trkpt>
      <trkpt lat="43.6123" lon="1.1772">
        <ele>263.79998779297</ele>
        <time>2016-01-16T08:44:28.000Z</time>
      </trkpt>
      <trkpt lat="43.61234" lon="1.17733">
        <ele>263.79998779297</ele>
        <time>2016-01-16T08:44:33.000Z</time>
      </trkpt>
      <trkpt lat="43.61235" lon="1.17736">
        <ele>263.79998779297</ele>
        <time>2016-01-16T08:44:34.000Z</time>
      </trkpt>
      <trkpt lat="43.61237" lon="1.17742">
        <ele>263.60000610352</ele>
        <time>2016-01-16T08:44:36.000Z</time>
      </trkpt>
      <trkpt lat="43.61244" lon="1.17748">
        <ele>262.79998779297</ele>
        <time>2016-01-16T08:44:40.000Z</time>
      </trkpt>
      <trkpt lat="43.6125" lon="1.17754">
        <ele>262.20001220703</ele>
        <time>2016-01-16T08:44:44.000Z</time>
      </trkpt>
      <trkpt lat="43.61257" lon="1.17766">
        <ele>261.60000610352</ele>
        <time>2016-01-16T08:44:48.000Z</time>
      </trkpt>
      <trkpt lat="43.61261" lon="1.17771">
        <ele>261.20001220703</ele>
        <time>2016-01-16T08:44:51.000Z</time>
      </trkpt>
      <trkpt lat="43.61266" lon="1.17778">
        <ele>260.60000610352</ele>
        <time>2016-01-16T08:44:55.000Z</time>
      </trkpt>
      <trkpt lat="43.61272" lon="1.17784">
        <ele>260.20001220703</ele>
        <time>2016-01-16T08:44:58.000Z</time>
      </trkpt>
      <trkpt lat="43.61275" lon="1.17788">
        <ele>260.20001220703</ele>
        <time>2016-01-16T08:45:00.000Z</time>
      </trkpt>
      <trkpt lat="43.61282" lon="1.17795">
        <ele>259.79998779297</ele>
        <time>2016-01-16T08:45:03.000Z</time>
      </trkpt>
      <trkpt lat="43.61289" lon="1.17807">
        <ele>259.60000610352</ele>
        <time>2016-01-16T08:45:07.000Z</time>
      </trkpt>
      <trkpt lat="43.61301" lon="1.17825">
        <ele>259.20001220703</ele>
        <time>2016-01-16T08:45:13.000Z</time>
      </trkpt>
      <trkpt lat="43.61308" lon="1.17835">
        <ele>259</ele>
        <time>2016-01-16T08:45:17.000Z</time>
      </trkpt>
      <trkpt lat="43.61309" lon="1.17839">
        <ele>259</ele>
        <time>2016-01-16T08:45:18.000Z</time>
      </trkpt>
      <trkpt lat="43.61311" lon="1.17851">
        <ele>259</ele>
        <time>2016-01-16T08:45:22.000Z</time>
      </trkpt>
      <trkpt lat="43.61313" lon="1.17855">
        <ele>259</ele>
        <time>2016-01-16T08:45:23.000Z</time>
      </trkpt>
      <trkpt lat="43.61315" lon="1.17861">
        <ele>259</ele>
        <time>2016-01-16T08:45:25.000Z</time>
      </trkpt>
      <trkpt lat="43.61321" lon="1.17872">
        <ele>259.20001220703</ele>
        <time>2016-01-16T08:45:30.000Z</time>
      </trkpt>
      <trkpt lat="43.61334" lon="1.1788">
        <ele>258.60000610352</ele>
        <time>2016-01-16T08:45:36.000Z</time>
      </trkpt>
      <trkpt lat="43.61341" lon="1.17884">
        <ele>258.20001220703</ele>
        <time>2016-01-16T08:45:39.000Z</time>
      </trkpt>
      <trkpt lat="43.61345" lon="1.17888">
        <ele>258.20001220703</ele>
        <time>2016-01-16T08:45:41.000Z</time>
      </trkpt>
      <trkpt lat="43.61355" lon="1.179">
        <ele>258.20001220703</ele>
        <time>2016-01-16T08:45:46.000Z</time>
      </trkpt>
      <trkpt lat="43.61361" lon="1.17913">
        <ele>258.60000610352</ele>
        <time>2016-01-16T08:45:50.000Z</time>
      </trkpt>
      <trkpt lat="43.61365" lon="1.17924">
        <ele>259</ele>
        <time>2016-01-16T08:45:54.000Z</time>
      </trkpt>
      <trkpt lat="43.61366" lon="1.17927">
        <ele>259</ele>
        <time>2016-01-16T08:45:55.000Z</time>
      </trkpt>
      <trkpt lat="43.61377" lon="1.1794">
        <ele>259.20001220703</ele>
        <time>2016-01-16T08:46:00.000Z</time>
      </trkpt>
      <trkpt lat="43.61378" lon="1.17942">
        <ele>259.39999389648</ele>
        <time>2016-01-16T08:46:01.000Z</time>
      </trkpt>
      <trkpt lat="43.61386" lon="1.17946">
        <ele>259.20001220703</ele>
        <time>2016-01-16T08:46:05.000Z</time>
      </trkpt>
      <trkpt lat="43.61391" lon="1.17942">
        <ele>258.79998779297</ele>
        <time>2016-01-16T08:46:08.000Z</time>
      </trkpt>
      <trkpt lat="43.61397" lon="1.17947">
        <ele>259</ele>
        <time>2016-01-16T08:46:11.000Z</time>
      </trkpt>
      <trkpt lat="43.61404" lon="1.17951">
        <ele>258.79998779297</ele>
        <time>2016-01-16T08:46:14.000Z</time>
      </trkpt>
      <trkpt lat="43.61408" lon="1.17951">
        <ele>258.60000610352</ele>
        <time>2016-01-16T08:46:15.000Z</time>
      </trkpt>
      <trkpt lat="43.61412" lon="1.17953">
        <ele>258.79998779297</ele>
        <time>2016-01-16T08:46:16.000Z</time>
      </trkpt>
      <trkpt lat="43.61416" lon="1.17958">
        <ele>258.79998779297</ele>
        <time>2016-01-16T08:46:18.000Z</time>
      </trkpt>
      <trkpt lat="43.61424" lon="1.17971">
        <ele>259</ele>
        <time>2016-01-16T08:46:23.000Z</time>
      </trkpt>
      <trkpt lat="43.61429" lon="1.1798">
        <ele>259.20001220703</ele>
        <time>2016-01-16T08:46:27.000Z</time>
      </trkpt>
      <trkpt lat="43.61431" lon="1.17981">
        <ele>259.20001220703</ele>
        <time>2016-01-16T08:46:28.000Z</time>
      </trkpt>
      <trkpt lat="43.61435" lon="1.17984">
        <ele>259.20001220703</ele>
        <time>2016-01-16T08:46:30.000Z</time>
      </trkpt>
      <trkpt lat="43.61449" lon="1.17993">
        <ele>258.79998779297</ele>
        <time>2016-01-16T08:46:35.000Z</time>
      </trkpt>
      <trkpt lat="43.61457" lon="1.18006">
        <ele>258.60000610352</ele>
        <time>2016-01-16T08:46:39.000Z</time>
      </trkpt>
      <trkpt lat="43.6146" lon="1.18018">
        <ele>258.79998779297</ele>
        <time>2016-01-16T08:46:43.000Z</time>
      </trkpt>
      <trkpt lat="43.61468" lon="1.18028">
        <ele>258.60000610352</ele>
        <time>2016-01-16T08:46:47.000Z</time>
      </trkpt>
      <trkpt lat="43.61467" lon="1.18037">
        <ele>259</ele>
        <time>2016-01-16T08:46:51.000Z</time>
      </trkpt>
      <trkpt lat="43.61471" lon="1.18045">
        <ele>258.79998779297</ele>
        <time>2016-01-16T08:46:54.000Z</time>
      </trkpt>
      <trkpt lat="43.61473" lon="1.18048">
        <ele>258.79998779297</ele>
        <time>2016-01-16T08:46:55.000Z</time>
      </trkpt>
      <trkpt lat="43.61475" lon="1.18051">
        <ele>258.79998779297</ele>
        <time>2016-01-16T08:46:56.000Z</time>
      </trkpt>
      <trkpt lat="43.61482" lon="1.1805">
        <ele>258.39999389648</ele>
        <time>2016-01-16T08:47:00.000Z</time>
      </trkpt>
      <trkpt lat="43.61491" lon="1.18043">
        <ele>258</ele>
        <time>2016-01-16T08:47:04.000Z</time>
      </trkpt>
      <trkpt lat="43.61498" lon="1.18045">
        <ele>257.60000610352</ele>
        <time>2016-01-16T08:47:08.000Z</time>
      </trkpt>
      <trkpt lat="43.61509" lon="1.18047">
        <ele>257.20001220703</ele>
        <time>2016-01-16T08:47:13.000Z</time>
      </trkpt>
      <trkpt lat="43.61521" lon="1.18051">
        <ele>257</ele>
        <time>2016-01-16T08:47:17.000Z</time>
      </trkpt>
      <trkpt lat="43.61528" lon="1.18056">
        <ele>256.60000610352</ele>
        <time>2016-01-16T08:47:20.000Z</time>
      </trkpt>
      <trkpt lat="43.61534" lon="1.18066">
        <ele>256.60000610352</ele>
        <time>2016-01-16T08:47:24.000Z</time>
      </trkpt>
      <trkpt lat="43.61536" lon="1.18069">
        <ele>256.60000610352</ele>
        <time>2016-01-16T08:47:25.000Z</time>
      </trkpt>
      <trkpt lat="43.61537" lon="1.18072">
        <ele>256.60000610352</ele>
        <time>2016-01-16T08:47:26.000Z</time>
      </trkpt>
      <trkpt lat="43.61551" lon="1.18083">
        <ele>256.39999389648</ele>
        <time>2016-01-16T08:47:32.000Z</time>
      </trkpt>
      <trkpt lat="43.61557" lon="1.18088">
        <ele>256.20001220703</ele>
        <time>2016-01-16T08:47:34.000Z</time>
      </trkpt>
      <trkpt lat="43.61565" lon="1.18104">
        <ele>256.39999389648</ele>
        <time>2016-01-16T08:47:39.000Z</time>
      </trkpt>
      <trkpt lat="43.61567" lon="1.18107">
        <ele>256.39999389648</ele>
        <time>2016-01-16T08:47:40.000Z</time>
      </trkpt>
      <trkpt lat="43.61574" lon="1.18117">
        <ele>256.39999389648</ele>
        <time>2016-01-16T08:47:43.000Z</time>
      </trkpt>
      <trkpt lat="43.61584" lon="1.18123">
        <ele>256.20001220703</ele>
        <time>2016-01-16T08:47:47.000Z</time>
      </trkpt>
      <trkpt lat="43.61598" lon="1.18127">
        <ele>255.80000305176</ele>
        <time>2016-01-16T08:47:52.000Z</time>
      </trkpt>
      <trkpt lat="43.61601" lon="1.18128">
        <ele>255.60000610352</ele>
        <time>2016-01-16T08:47:53.000Z</time>
      </trkpt>
      <trkpt lat="43.61615" lon="1.18133">
        <ele>255.39999389648</ele>
        <time>2016-01-16T08:47:58.000Z</time>
      </trkpt>
      <trkpt lat="43.61623" lon="1.18135">
        <ele>255.19999694824</ele>
        <time>2016-01-16T08:48:01.000Z</time>
      </trkpt>
      <trkpt lat="43.61634" lon="1.18149">
        <ele>255.19999694824</ele>
        <time>2016-01-16T08:48:05.000Z</time>
      </trkpt>
      <trkpt lat="43.61642" lon="1.18159">
        <ele>254.80000305176</ele>
        <time>2016-01-16T08:48:08.000Z</time>
      </trkpt>
      <trkpt lat="43.61651" lon="1.1817">
        <ele>254.60000610352</ele>
        <time>2016-01-16T08:48:12.000Z</time>
      </trkpt>
      <trkpt lat="43.61659" lon="1.18178">
        <ele>254.19999694824</ele>
        <time>2016-01-16T08:48:16.000Z</time>
      </trkpt>
      <trkpt lat="43.61662" lon="1.18188">
        <ele>254</ele>
        <time>2016-01-16T08:48:19.000Z</time>
      </trkpt>
      <trkpt lat="43.61665" lon="1.18198">
        <ele>253.80000305176</ele>
        <time>2016-01-16T08:48:23.000Z</time>
      </trkpt>
      <trkpt lat="43.61667" lon="1.18201">
        <ele>253.80000305176</ele>
        <time>2016-01-16T08:48:24.000Z</time>
      </trkpt>
      <trkpt lat="43.61672" lon="1.18207">
        <ele>253.60000610352</ele>
        <time>2016-01-16T08:48:27.000Z</time>
      </trkpt>
      <trkpt lat="43.61684" lon="1.18223">
        <ele>253</ele>
        <time>2016-01-16T08:48:33.000Z</time>
      </trkpt>
      <trkpt lat="43.61693" lon="1.18247">
        <ele>253</ele>
        <time>2016-01-16T08:48:39.000Z</time>
      </trkpt>
      <trkpt lat="43.61695" lon="1.18264">
        <ele>253.60000610352</ele>
        <time>2016-01-16T08:48:44.000Z</time>
      </trkpt>
      <trkpt lat="43.61695" lon="1.18277">
        <ele>254.39999389648</ele>
        <time>2016-01-16T08:48:48.000Z</time>
      </trkpt>
      <trkpt lat="43.61695" lon="1.18281">
        <ele>254.60000610352</ele>
        <time>2016-01-16T08:48:50.000Z</time>
      </trkpt>
      <trkpt lat="43.61702" lon="1.18292">
        <ele>254.19999694824</ele>
        <time>2016-01-16T08:48:54.000Z</time>
      </trkpt>
      <trkpt lat="43.61703" lon="1.18295">
        <ele>254.39999389648</ele>
        <time>2016-01-16T08:48:55.000Z</time>
      </trkpt>
      <trkpt lat="43.61703" lon="1.183">
        <ele>254.39999389648</ele>
        <time>2016-01-16T08:48:57.000Z</time>
      </trkpt>
      <trkpt lat="43.61708" lon="1.18312">
        <ele>254.60000610352</ele>
        <time>2016-01-16T08:49:01.000Z</time>
      </trkpt>
      <trkpt lat="43.61716" lon="1.18328">
        <ele>254.19999694824</ele>
        <time>2016-01-16T08:49:06.000Z</time>
      </trkpt>
      <trkpt lat="43.61724" lon="1.18343">
        <ele>254</ele>
        <time>2016-01-16T08:49:11.000Z</time>
      </trkpt>
      <trkpt lat="43.61725" lon="1.18346">
        <ele>254</ele>
        <time>2016-01-16T08:49:12.000Z</time>
      </trkpt>
      <trkpt lat="43.6173" lon="1.18356">
        <ele>253.80000305176</ele>
        <time>2016-01-16T08:49:16.000Z</time>
      </trkpt>
      <trkpt lat="43.61733" lon="1.18359">
        <ele>253.60000610352</ele>
        <time>2016-01-16T08:49:18.000Z</time>
      </trkpt>
      <trkpt lat="43.61749" lon="1.18377">
        <ele>252.39999389648</ele>
        <time>2016-01-16T08:49:25.000Z</time>
      </trkpt>
      <trkpt lat="43.61751" lon="1.18383">
        <ele>252.39999389648</ele>
        <time>2016-01-16T08:49:27.000Z</time>
      </trkpt>
      <trkpt lat="43.61754" lon="1.18392">
        <ele>252.39999389648</ele>
        <time>2016-01-16T08:49:30.000Z</time>
      </trkpt>
      <trkpt lat="43.6176" lon="1.18401">
        <ele>252</ele>
        <time>2016-01-16T08:49:34.000Z</time>
      </trkpt>
      <trkpt lat="43.6177" lon="1.18406">
        <ele>251.19999694824</ele>
        <time>2016-01-16T08:49:38.000Z</time>
      </trkpt>
      <trkpt lat="43.61775" lon="1.18409">
        <ele>251</ele>
        <time>2016-01-16T08:49:40.000Z</time>
      </trkpt>
      <trkpt lat="43.61784" lon="1.18413">
        <ele>250.80000305176</ele>
        <time>2016-01-16T08:49:43.000Z</time>
      </trkpt>
      <trkpt lat="43.6179" lon="1.18422">
        <ele>250.60000610352</ele>
        <time>2016-01-16T08:49:48.000Z</time>
      </trkpt>
      <trkpt lat="43.61798" lon="1.18428">
        <ele>250.39999389648</ele>
        <time>2016-01-16T08:49:51.000Z</time>
      </trkpt>
      <trkpt lat="43.61803" lon="1.18436">
        <ele>250.39999389648</ele>
        <time>2016-01-16T08:49:54.000Z</time>
      </trkpt>
      <trkpt lat="43.61805" lon="1.18439">
        <ele>250.39999389648</ele>
        <time>2016-01-16T08:49:55.000Z</time>
      </trkpt>
      <trkpt lat="43.61807" lon="1.18442">
        <ele>250.39999389648</ele>
        <time>2016-01-16T08:49:56.000Z</time>
      </trkpt>
      <trkpt lat="43.61814" lon="1.1845">
        <ele>250.19999694824</ele>
        <time>2016-01-16T08:49:59.000Z</time>
      </trkpt>
      <trkpt lat="43.6182" lon="1.18455">
        <ele>250</ele>
        <time>2016-01-16T08:50:01.000Z</time>
      </trkpt>
      <trkpt lat="43.61832" lon="1.1847">
        <ele>249.80000305176</ele>
        <time>2016-01-16T08:50:06.000Z</time>
      </trkpt>
      <trkpt lat="43.61833" lon="1.18474">
        <ele>249.80000305176</ele>
        <time>2016-01-16T08:50:07.000Z</time>
      </trkpt>
      <trkpt lat="43.61835" lon="1.1849">
        <ele>250.19999694824</ele>
        <time>2016-01-16T08:50:12.000Z</time>
      </trkpt>
      <trkpt lat="43.61835" lon="1.18493">
        <ele>250.19999694824</ele>
        <time>2016-01-16T08:50:13.000Z</time>
      </trkpt>
      <trkpt lat="43.61835" lon="1.18496">
        <ele>250.19999694824</ele>
        <time>2016-01-16T08:50:14.000Z</time>
      </trkpt>
      <trkpt lat="43.61844" lon="1.18508">
        <ele>250.19999694824</ele>
        <time>2016-01-16T08:50:18.000Z</time>
      </trkpt>
      <trkpt lat="43.6185" lon="1.18512">
        <ele>250</ele>
        <time>2016-01-16T08:50:20.000Z</time>
      </trkpt>
      <trkpt lat="43.61852" lon="1.18525">
        <ele>250.19999694824</ele>
        <time>2016-01-16T08:50:25.000Z</time>
      </trkpt>
      <trkpt lat="43.61854" lon="1.18527">
        <ele>250</ele>
        <time>2016-01-16T08:50:26.000Z</time>
      </trkpt>
      <trkpt lat="43.61857" lon="1.1853">
        <ele>250</ele>
        <time>2016-01-16T08:50:28.000Z</time>
      </trkpt>
      <trkpt lat="43.61866" lon="1.18542">
        <ele>249.60000610352</ele>
        <time>2016-01-16T08:50:32.000Z</time>
      </trkpt>
      <trkpt lat="43.61868" lon="1.18545">
        <ele>249.60000610352</ele>
        <time>2016-01-16T08:50:33.000Z</time>
      </trkpt>
      <trkpt lat="43.61875" lon="1.18558">
        <ele>249.60000610352</ele>
        <time>2016-01-16T08:50:37.000Z</time>
      </trkpt>
      <trkpt lat="43.61888" lon="1.18591">
        <ele>248.19999694824</ele>
        <time>2016-01-16T08:50:46.000Z</time>
      </trkpt>
      <trkpt lat="43.61891" lon="1.18602">
        <ele>247.80000305176</ele>
        <time>2016-01-16T08:50:49.000Z</time>
      </trkpt>
      <trkpt lat="43.61892" lon="1.18609">
        <ele>247.80000305176</ele>
        <time>2016-01-16T08:50:51.000Z</time>
      </trkpt>
      <trkpt lat="43.61896" lon="1.1862">
        <ele>247.39999389648</ele>
        <time>2016-01-16T08:50:54.000Z</time>
      </trkpt>
      <trkpt lat="43.61901" lon="1.18635">
        <ele>247.19999694824</ele>
        <time>2016-01-16T08:50:58.000Z</time>
      </trkpt>
      <trkpt lat="43.61901" lon="1.18639">
        <ele>247.19999694824</ele>
        <time>2016-01-16T08:50:59.000Z</time>
      </trkpt>
      <trkpt lat="43.61902" lon="1.18664">
        <ele>247.39999389648</ele>
        <time>2016-01-16T08:51:05.000Z</time>
      </trkpt>
      <trkpt lat="43.61904" lon="1.18672">
        <ele>247.39999389648</ele>
        <time>2016-01-16T08:51:07.000Z</time>
      </trkpt>
      <trkpt lat="43.61908" lon="1.18686">
        <ele>247</ele>
        <time>2016-01-16T08:51:12.000Z</time>
      </trkpt>
      <trkpt lat="43.61918" lon="1.18686">
        <ele>246.19999694824</ele>
        <time>2016-01-16T08:51:16.000Z</time>
      </trkpt>
      <trkpt lat="43.61925" lon="1.18693">
        <ele>245.60000610352</ele>
        <time>2016-01-16T08:51:19.000Z</time>
      </trkpt>
      <trkpt lat="43.61927" lon="1.18702">
        <ele>245.39999389648</ele>
        <time>2016-01-16T08:51:21.000Z</time>
      </trkpt>
      <trkpt lat="43.61928" lon="1.18711">
        <ele>245.60000610352</ele>
        <time>2016-01-16T08:51:23.000Z</time>
      </trkpt>
      <trkpt lat="43.6193" lon="1.18728">
        <ele>245.39999389648</ele>
        <time>2016-01-16T08:51:27.000Z</time>
      </trkpt>
      <trkpt lat="43.6193" lon="1.18733">
        <ele>245.19999694824</ele>
        <time>2016-01-16T08:51:28.000Z</time>
      </trkpt>
      <trkpt lat="43.61928" lon="1.18788">
        <ele>242.80000305176</ele>
        <time>2016-01-16T08:51:40.000Z</time>
      </trkpt>
      <trkpt lat="43.61927" lon="1.18816">
        <ele>241.60000610352</ele>
        <time>2016-01-16T08:51:46.000Z</time>
      </trkpt>
      <trkpt lat="43.61922" lon="1.18842">
        <ele>242</ele>
        <time>2016-01-16T08:51:52.000Z</time>
      </trkpt>
      <trkpt lat="43.61918" lon="1.1886">
        <ele>242.19999694824</ele>
        <time>2016-01-16T08:51:56.000Z</time>
      </trkpt>
      <trkpt lat="43.6191" lon="1.18886">
        <ele>242.60000610352</ele>
        <time>2016-01-16T08:52:02.000Z</time>
      </trkpt>
      <trkpt lat="43.61904" lon="1.18903">
        <ele>242.80000305176</ele>
        <time>2016-01-16T08:52:06.000Z</time>
      </trkpt>
      <trkpt lat="43.61896" lon="1.18931">
        <ele>243</ele>
        <time>2016-01-16T08:52:12.000Z</time>
      </trkpt>
      <trkpt lat="43.61889" lon="1.18951">
        <ele>242.39999389648</ele>
        <time>2016-01-16T08:52:17.000Z</time>
      </trkpt>
      <trkpt lat="43.61884" lon="1.1897">
        <ele>241.60000610352</ele>
        <time>2016-01-16T08:52:21.000Z</time>
      </trkpt>
      <trkpt lat="43.61879" lon="1.18989">
        <ele>241.39999389648</ele>
        <time>2016-01-16T08:52:26.000Z</time>
      </trkpt>
      <trkpt lat="43.61872" lon="1.19007">
        <ele>241.19999694824</ele>
        <time>2016-01-16T08:52:31.000Z</time>
      </trkpt>
      <trkpt lat="43.61861" lon="1.1902">
        <ele>240</ele>
        <time>2016-01-16T08:52:38.000Z</time>
      </trkpt>
      <trkpt lat="43.6186" lon="1.19027">
        <ele>239.39999389648</ele>
        <time>2016-01-16T08:52:44.000Z</time>
      </trkpt>
      <trkpt lat="43.6186" lon="1.19029">
        <ele>239.39999389648</ele>
        <time>2016-01-16T08:52:48.000Z</time>
      </trkpt>
      <trkpt lat="43.61864" lon="1.19029">
        <ele>239.60000610352</ele>
        <time>2016-01-16T08:52:54.000Z</time>
      </trkpt>
      <trkpt lat="43.61869" lon="1.19031">
        <ele>239.60000610352</ele>
        <time>2016-01-16T08:53:00.000Z</time>
      </trkpt>
      <trkpt lat="43.61874" lon="1.19032">
        <ele>239.80000305176</ele>
        <time>2016-01-16T08:53:08.000Z</time>
      </trkpt>
      <trkpt lat="43.61876" lon="1.19032">
        <ele>239.80000305176</ele>
        <time>2016-01-16T08:53:15.000Z</time>
      </trkpt>
      <trkpt lat="43.61877" lon="1.19028">
        <ele>240.19999694824</ele>
        <time>2016-01-16T08:53:30.000Z</time>
      </trkpt>
      <trkpt lat="43.61878" lon="1.19028">
        <ele>240.19999694824</ele>
        <time>2016-01-16T08:53:31.000Z</time>
      </trkpt>
      <trkpt lat="43.6188" lon="1.19031">
        <ele>240.19999694824</ele>
        <time>2016-01-16T08:53:36.000Z</time>
      </trkpt>
      <trkpt lat="43.61884" lon="1.19036">
        <ele>240</ele>
        <time>2016-01-16T08:53:43.000Z</time>
      </trkpt>
      <trkpt lat="43.61888" lon="1.19042">
        <ele>240</ele>
        <time>2016-01-16T08:53:50.000Z</time>
      </trkpt>
      <trkpt lat="43.61889" lon="1.19047">
        <ele>239.60000610352</ele>
        <time>2016-01-16T08:53:55.000Z</time>
      </trkpt>
      <trkpt lat="43.6189" lon="1.19055">
        <ele>239.19999694824</ele>
        <time>2016-01-16T08:54:02.000Z</time>
      </trkpt>
      <trkpt lat="43.61892" lon="1.19066">
        <ele>239</ele>
        <time>2016-01-16T08:54:11.000Z</time>
      </trkpt>
      <trkpt lat="43.61892" lon="1.19069">
        <ele>239.19999694824</ele>
        <time>2016-01-16T08:54:14.000Z</time>
      </trkpt>
      <trkpt lat="43.61893" lon="1.19074">
        <ele>239.39999389648</ele>
        <time>2016-01-16T08:54:18.000Z</time>
      </trkpt>
      <trkpt lat="43.61895" lon="1.1908">
        <ele>239.80000305176</ele>
        <time>2016-01-16T08:54:23.000Z</time>
      </trkpt>
      <trkpt lat="43.61898" lon="1.19091">
        <ele>240.19999694824</ele>
        <time>2016-01-16T08:54:33.000Z</time>
      </trkpt>
      <trkpt lat="43.61901" lon="1.19095">
        <ele>240.60000610352</ele>
        <time>2016-01-16T08:54:40.000Z</time>
      </trkpt>
      <trkpt lat="43.61907" lon="1.19096">
        <ele>240.80000305176</ele>
        <time>2016-01-16T08:54:47.000Z</time>
      </trkpt>
      <trkpt lat="43.61915" lon="1.19095">
        <ele>241.19999694824</ele>
        <time>2016-01-16T08:54:54.000Z</time>
      </trkpt>
      <trkpt lat="43.61917" lon="1.19096">
        <ele>241.39999389648</ele>
        <time>2016-01-16T08:54:56.000Z</time>
      </trkpt>
      <trkpt lat="43.61923" lon="1.19102">
        <ele>241.80000305176</ele>
        <time>2016-01-16T08:55:01.000Z</time>
      </trkpt>
      <trkpt lat="43.6193" lon="1.19107">
        <ele>242.39999389648</ele>
        <time>2016-01-16T08:55:06.000Z</time>
      </trkpt>
      <trkpt lat="43.61935" lon="1.19111">
        <ele>242.80000305176</ele>
        <time>2016-01-16T08:55:09.000Z</time>
      </trkpt>
      <trkpt lat="43.61941" lon="1.19117">
        <ele>243.19999694824</ele>
        <time>2016-01-16T08:55:13.000Z</time>
      </trkpt>
      <trkpt lat="43.61942" lon="1.19119">
        <ele>243.19999694824</ele>
        <time>2016-01-16T08:55:14.000Z</time>
      </trkpt>
      <trkpt lat="43.61945" lon="1.19122">
        <ele>243.39999389648</ele>
        <time>2016-01-16T08:55:16.000Z</time>
      </trkpt>
      <trkpt lat="43.61952" lon="1.19126">
        <ele>243.80000305176</ele>
        <time>2016-01-16T08:55:20.000Z</time>
      </trkpt>
      <trkpt lat="43.61957" lon="1.1913">
        <ele>244</ele>
        <time>2016-01-16T08:55:24.000Z</time>
      </trkpt>
      <trkpt lat="43.61958" lon="1.19131">
        <ele>244</ele>
        <time>2016-01-16T08:55:25.000Z</time>
      </trkpt>
      <trkpt lat="43.61969" lon="1.19138">
        <ele>244.60000610352</ele>
        <time>2016-01-16T08:55:30.000Z</time>
      </trkpt>
      <trkpt lat="43.61978" lon="1.19146">
        <ele>245</ele>
        <time>2016-01-16T08:55:36.000Z</time>
      </trkpt>
      <trkpt lat="43.61985" lon="1.19153">
        <ele>245.19999694824</ele>
        <time>2016-01-16T08:55:40.000Z</time>
      </trkpt>
      <trkpt lat="43.61999" lon="1.19162">
        <ele>245.80000305176</ele>
        <time>2016-01-16T08:55:46.000Z</time>
      </trkpt>
      <trkpt lat="43.62008" lon="1.19169">
        <ele>246</ele>
        <time>2016-01-16T08:55:51.000Z</time>
      </trkpt>
      <trkpt lat="43.62018" lon="1.19177">
        <ele>246.39999389648</ele>
        <time>2016-01-16T08:55:56.000Z</time>
      </trkpt>
      <trkpt lat="43.62028" lon="1.19186">
        <ele>246</ele>
        <time>2016-01-16T08:56:01.000Z</time>
      </trkpt>
      <trkpt lat="43.6204" lon="1.19196">
        <ele>245.60000610352</ele>
        <time>2016-01-16T08:56:07.000Z</time>
      </trkpt>
      <trkpt lat="43.62049" lon="1.19203">
        <ele>245.19999694824</ele>
        <time>2016-01-16T08:56:11.000Z</time>
      </trkpt>
      <trkpt lat="43.62051" lon="1.19204">
        <ele>245.19999694824</ele>
        <time>2016-01-16T08:56:12.000Z</time>
      </trkpt>
      <trkpt lat="43.62061" lon="1.19213">
        <ele>244.80000305176</ele>
        <time>2016-01-16T08:56:17.000Z</time>
      </trkpt>
      <trkpt lat="43.62072" lon="1.19222">
        <ele>244.39999389648</ele>
        <time>2016-01-16T08:56:23.000Z</time>
      </trkpt>
      <trkpt lat="43.62088" lon="1.19235">
        <ele>243.80000305176</ele>
        <time>2016-01-16T08:56:30.000Z</time>
      </trkpt>
      <trkpt lat="43.62097" lon="1.19258">
        <ele>243.60000610352</ele>
        <time>2016-01-16T08:56:40.000Z</time>
      </trkpt>
      <trkpt lat="43.62096" lon="1.19264">
        <ele>243.80000305176</ele>
        <time>2016-01-16T08:56:42.000Z</time>
      </trkpt>
      <trkpt lat="43.62088" lon="1.19282">
        <ele>244.39999389648</ele>
        <time>2016-01-16T08:56:49.000Z</time>
      </trkpt>
      <trkpt lat="43.62084" lon="1.19294">
        <ele>244.60000610352</ele>
        <time>2016-01-16T08:56:53.000Z</time>
      </trkpt>
      <trkpt lat="43.62076" lon="1.19314">
        <ele>245</ele>
        <time>2016-01-16T08:57:00.000Z</time>
      </trkpt>
      <trkpt lat="43.62068" lon="1.19333">
        <ele>245.39999389648</ele>
        <time>2016-01-16T08:57:06.000Z</time>
      </trkpt>
      <trkpt lat="43.62063" lon="1.1935">
        <ele>245.80000305176</ele>
        <time>2016-01-16T08:57:11.000Z</time>
      </trkpt>
      <trkpt lat="43.62055" lon="1.19369">
        <ele>245.60000610352</ele>
        <time>2016-01-16T08:57:17.000Z</time>
      </trkpt>
      <trkpt lat="43.62049" lon="1.19385">
        <ele>245.19999694824</ele>
        <time>2016-01-16T08:57:22.000Z</time>
      </trkpt>
      <trkpt lat="43.62042" lon="1.19401">
        <ele>245</ele>
        <time>2016-01-16T08:57:27.000Z</time>
      </trkpt>
      <trkpt lat="43.62035" lon="1.19418">
        <ele>245</ele>
        <time>2016-01-16T08:57:32.000Z</time>
      </trkpt>
      <trkpt lat="43.6203" lon="1.19431">
        <ele>244.60000610352</ele>
        <time>2016-01-16T08:57:36.000Z</time>
      </trkpt>
      <trkpt lat="43.62027" lon="1.19438">
        <ele>244.19999694824</ele>
        <time>2016-01-16T08:57:38.000Z</time>
      </trkpt>
      <trkpt lat="43.62019" lon="1.19457">
        <ele>243.60000610352</ele>
        <time>2016-01-16T08:57:44.000Z</time>
      </trkpt>
      <trkpt lat="43.62011" lon="1.19473">
        <ele>243.39999389648</ele>
        <time>2016-01-16T08:57:50.000Z</time>
      </trkpt>
      <trkpt lat="43.62003" lon="1.1949">
        <ele>243.39999389648</ele>
        <time>2016-01-16T08:57:55.000Z</time>
      </trkpt>
      <trkpt lat="43.61998" lon="1.19502">
        <ele>243.39999389648</ele>
        <time>2016-01-16T08:57:59.000Z</time>
      </trkpt>
      <trkpt lat="43.6199" lon="1.19522">
        <ele>243.60000610352</ele>
        <time>2016-01-16T08:58:05.000Z</time>
      </trkpt>
      <trkpt lat="43.61982" lon="1.19542">
        <ele>243.39999389648</ele>
        <time>2016-01-16T08:58:11.000Z</time>
      </trkpt>
      <trkpt lat="43.61975" lon="1.19559">
        <ele>243</ele>
        <time>2016-01-16T08:58:16.000Z</time>
      </trkpt>
      <trkpt lat="43.61966" lon="1.19579">
        <ele>242.60000610352</ele>
        <time>2016-01-16T08:58:22.000Z</time>
      </trkpt>
      <trkpt lat="43.61956" lon="1.19602">
        <ele>242.19999694824</ele>
        <time>2016-01-16T08:58:29.000Z</time>
      </trkpt>
      <trkpt lat="43.61946" lon="1.19627">
        <ele>242</ele>
        <time>2016-01-16T08:58:36.000Z</time>
      </trkpt>
      <trkpt lat="43.6194" lon="1.1964">
        <ele>242</ele>
        <time>2016-01-16T08:58:40.000Z</time>
      </trkpt>
      <trkpt lat="43.6193" lon="1.19661">
        <ele>242.39999389648</ele>
        <time>2016-01-16T08:58:46.000Z</time>
      </trkpt>
      <trkpt lat="43.61922" lon="1.19682">
        <ele>242.80000305176</ele>
        <time>2016-01-16T08:58:52.000Z</time>
      </trkpt>
      <trkpt lat="43.61914" lon="1.19704">
        <ele>243.19999694824</ele>
        <time>2016-01-16T08:58:58.000Z</time>
      </trkpt>
      <trkpt lat="43.61906" lon="1.19721">
        <ele>243</ele>
        <time>2016-01-16T08:59:03.000Z</time>
      </trkpt>
      <trkpt lat="43.61898" lon="1.19738">
        <ele>243</ele>
        <time>2016-01-16T08:59:08.000Z</time>
      </trkpt>
      <trkpt lat="43.6189" lon="1.19758">
        <ele>243</ele>
        <time>2016-01-16T08:59:14.000Z</time>
      </trkpt>
      <trkpt lat="43.61884" lon="1.19772">
        <ele>242.80000305176</ele>
        <time>2016-01-16T08:59:18.000Z</time>
      </trkpt>
      <trkpt lat="43.61878" lon="1.19785">
        <ele>242.60000610352</ele>
        <time>2016-01-16T08:59:22.000Z</time>
      </trkpt>
      <trkpt lat="43.61863" lon="1.19814">
        <ele>242.19999694824</ele>
        <time>2016-01-16T08:59:31.000Z</time>
      </trkpt>
      <trkpt lat="43.61857" lon="1.19828">
        <ele>242</ele>
        <time>2016-01-16T08:59:35.000Z</time>
      </trkpt>
      <trkpt lat="43.6185" lon="1.19844">
        <ele>241.60000610352</ele>
        <time>2016-01-16T08:59:40.000Z</time>
      </trkpt>
      <trkpt lat="43.6184" lon="1.19868">
        <ele>241.39999389648</ele>
        <time>2016-01-16T08:59:47.000Z</time>
      </trkpt>
      <trkpt lat="43.61832" lon="1.19885">
        <ele>241.19999694824</ele>
        <time>2016-01-16T08:59:52.000Z</time>
      </trkpt>
      <trkpt lat="43.61822" lon="1.19909">
        <ele>241.19999694824</ele>
        <time>2016-01-16T08:59:59.000Z</time>
      </trkpt>
      <trkpt lat="43.61814" lon="1.1993">
        <ele>241.39999389648</ele>
        <time>2016-01-16T09:00:05.000Z</time>
      </trkpt>
      <trkpt lat="43.61806" lon="1.19947">
        <ele>241.80000305176</ele>
        <time>2016-01-16T09:00:10.000Z</time>
      </trkpt>
      <trkpt lat="43.61797" lon="1.19968">
        <ele>242.39999389648</ele>
        <time>2016-01-16T09:00:16.000Z</time>
      </trkpt>
      <trkpt lat="43.61789" lon="1.19989">
        <ele>243</ele>
        <time>2016-01-16T09:00:22.000Z</time>
      </trkpt>
      <trkpt lat="43.61779" lon="1.2001">
        <ele>243.39999389648</ele>
        <time>2016-01-16T09:00:28.000Z</time>
      </trkpt>
      <trkpt lat="43.61771" lon="1.20027">
        <ele>243.60000610352</ele>
        <time>2016-01-16T09:00:33.000Z</time>
      </trkpt>
      <trkpt lat="43.61761" lon="1.20049">
        <ele>243.39999389648</ele>
        <time>2016-01-16T09:00:39.000Z</time>
      </trkpt>
      <trkpt lat="43.61755" lon="1.20064">
        <ele>243.39999389648</ele>
        <time>2016-01-16T09:00:43.000Z</time>
      </trkpt>
      <trkpt lat="43.61745" lon="1.20085">
        <ele>242.80000305176</ele>
        <time>2016-01-16T09:00:49.000Z</time>
      </trkpt>
      <trkpt lat="43.61744" lon="1.201">
        <ele>242.80000305176</ele>
        <time>2016-01-16T09:00:53.000Z</time>
      </trkpt>
      <trkpt lat="43.61746" lon="1.20121">
        <ele>243</ele>
        <time>2016-01-16T09:00:58.000Z</time>
      </trkpt>
      <trkpt lat="43.61744" lon="1.20148">
        <ele>243.80000305176</ele>
        <time>2016-01-16T09:01:05.000Z</time>
      </trkpt>
      <trkpt lat="43.61745" lon="1.20152">
        <ele>243.80000305176</ele>
        <time>2016-01-16T09:01:06.000Z</time>
      </trkpt>
      <trkpt lat="43.61753" lon="1.20162">
        <ele>243.80000305176</ele>
        <time>2016-01-16T09:01:11.000Z</time>
      </trkpt>
      <trkpt lat="43.61755" lon="1.20164">
        <ele>243.80000305176</ele>
        <time>2016-01-16T09:01:12.000Z</time>
      </trkpt>
      <trkpt lat="43.61766" lon="1.20175">
        <ele>244</ele>
        <time>2016-01-16T09:01:17.000Z</time>
      </trkpt>
      <trkpt lat="43.61778" lon="1.20184">
        <ele>244</ele>
        <time>2016-01-16T09:01:22.000Z</time>
      </trkpt>
      <trkpt lat="43.61789" lon="1.20195">
        <ele>244</ele>
        <time>2016-01-16T09:01:27.000Z</time>
      </trkpt>
      <trkpt lat="43.61795" lon="1.20201">
        <ele>244</ele>
        <time>2016-01-16T09:01:30.000Z</time>
      </trkpt>
      <trkpt lat="43.61807" lon="1.20213">
        <ele>244</ele>
        <time>2016-01-16T09:01:36.000Z</time>
      </trkpt>
      <trkpt lat="43.61818" lon="1.20223">
        <ele>244</ele>
        <time>2016-01-16T09:01:41.000Z</time>
      </trkpt>
      <trkpt lat="43.61831" lon="1.20234">
        <ele>244</ele>
        <time>2016-01-16T09:01:46.000Z</time>
      </trkpt>
      <trkpt lat="43.61843" lon="1.20243">
        <ele>244</ele>
        <time>2016-01-16T09:01:51.000Z</time>
      </trkpt>
      <trkpt lat="43.61857" lon="1.20254">
        <ele>244</ele>
        <time>2016-01-16T09:01:56.000Z</time>
      </trkpt>
      <trkpt lat="43.61871" lon="1.20264">
        <ele>243.80000305176</ele>
        <time>2016-01-16T09:02:01.000Z</time>
      </trkpt>
      <trkpt lat="43.61885" lon="1.20275">
        <ele>243.60000610352</ele>
        <time>2016-01-16T09:02:06.000Z</time>
      </trkpt>
      <trkpt lat="43.61899" lon="1.20286">
        <ele>243.39999389648</ele>
        <time>2016-01-16T09:02:11.000Z</time>
      </trkpt>
      <trkpt lat="43.61913" lon="1.20297">
        <ele>243.19999694824</ele>
        <time>2016-01-16T09:02:16.000Z</time>
      </trkpt>
      <trkpt lat="43.61929" lon="1.2031">
        <ele>243</ele>
        <time>2016-01-16T09:02:22.000Z</time>
      </trkpt>
      <trkpt lat="43.61941" lon="1.2032">
        <ele>242.60000610352</ele>
        <time>2016-01-16T09:02:27.000Z</time>
      </trkpt>
      <trkpt lat="43.61954" lon="1.20331">
        <ele>241.80000305176</ele>
        <time>2016-01-16T09:02:32.000Z</time>
      </trkpt>
      <trkpt lat="43.61966" lon="1.20342">
        <ele>241.19999694824</ele>
        <time>2016-01-16T09:02:37.000Z</time>
      </trkpt>
      <trkpt lat="43.61972" lon="1.20357">
        <ele>240.60000610352</ele>
        <time>2016-01-16T09:02:41.000Z</time>
      </trkpt>
      <trkpt lat="43.61972" lon="1.20361">
        <ele>240.60000610352</ele>
        <time>2016-01-16T09:02:42.000Z</time>
      </trkpt>
      <trkpt lat="43.61969" lon="1.2038">
        <ele>240.19999694824</ele>
        <time>2016-01-16T09:02:47.000Z</time>
      </trkpt>
      <trkpt lat="43.61969" lon="1.20388">
        <ele>240</ele>
        <time>2016-01-16T09:02:49.000Z</time>
      </trkpt>
      <trkpt lat="43.6197" lon="1.20392">
        <ele>239.80000305176</ele>
        <time>2016-01-16T09:02:50.000Z</time>
      </trkpt>
      <trkpt lat="43.61973" lon="1.204">
        <ele>239.39999389648</ele>
        <time>2016-01-16T09:02:52.000Z</time>
      </trkpt>
      <trkpt lat="43.61976" lon="1.20422">
        <ele>238</ele>
        <time>2016-01-16T09:02:57.000Z</time>
      </trkpt>
      <trkpt lat="43.61979" lon="1.20448">
        <ele>235.80000305176</ele>
        <time>2016-01-16T09:03:03.000Z</time>
      </trkpt>
      <trkpt lat="43.61978" lon="1.20471">
        <ele>233.39999389648</ele>
        <time>2016-01-16T09:03:08.000Z</time>
      </trkpt>
      <trkpt lat="43.61969" lon="1.20496">
        <ele>231.39999389648</ele>
        <time>2016-01-16T09:03:14.000Z</time>
      </trkpt>
      <trkpt lat="43.61962" lon="1.20513">
        <ele>229.80000305176</ele>
        <time>2016-01-16T09:03:18.000Z</time>
      </trkpt>
      <trkpt lat="43.61953" lon="1.20535">
        <ele>226.80000305176</ele>
        <time>2016-01-16T09:03:24.000Z</time>
      </trkpt>
      <trkpt lat="43.61945" lon="1.20552">
        <ele>224.60000610352</ele>
        <time>2016-01-16T09:03:28.000Z</time>
      </trkpt>
      <trkpt lat="43.61928" lon="1.2059">
        <ele>222.80000305176</ele>
        <time>2016-01-16T09:03:38.000Z</time>
      </trkpt>
      <trkpt lat="43.6192" lon="1.20614">
        <ele>222.60000610352</ele>
        <time>2016-01-16T09:03:44.000Z</time>
      </trkpt>
      <trkpt lat="43.61912" lon="1.20634">
        <ele>222</ele>
        <time>2016-01-16T09:03:49.000Z</time>
      </trkpt>
      <trkpt lat="43.61904" lon="1.20656">
        <ele>221.19999694824</ele>
        <time>2016-01-16T09:03:55.000Z</time>
      </trkpt>
      <trkpt lat="43.61896" lon="1.20679">
        <ele>221.39999389648</ele>
        <time>2016-01-16T09:04:01.000Z</time>
      </trkpt>
      <trkpt lat="43.61887" lon="1.20697">
        <ele>221.19999694824</ele>
        <time>2016-01-16T09:04:06.000Z</time>
      </trkpt>
      <trkpt lat="43.61879" lon="1.20716">
        <ele>220.80000305176</ele>
        <time>2016-01-16T09:04:11.000Z</time>
      </trkpt>
      <trkpt lat="43.61872" lon="1.20734">
        <ele>220.60000610352</ele>
        <time>2016-01-16T09:04:16.000Z</time>
      </trkpt>
      <trkpt lat="43.61866" lon="1.20747">
        <ele>220.80000305176</ele>
        <time>2016-01-16T09:04:20.000Z</time>
      </trkpt>
      <trkpt lat="43.61865" lon="1.20751">
        <ele>220.60000610352</ele>
        <time>2016-01-16T09:04:21.000Z</time>
      </trkpt>
      <trkpt lat="43.61854" lon="1.20773">
        <ele>219.60000610352</ele>
        <time>2016-01-16T09:04:27.000Z</time>
      </trkpt>
      <trkpt lat="43.61843" lon="1.20794">
        <ele>220</ele>
        <time>2016-01-16T09:04:33.000Z</time>
      </trkpt>
      <trkpt lat="43.61833" lon="1.20818">
        <ele>220.60000610352</ele>
        <time>2016-01-16T09:04:39.000Z</time>
      </trkpt>
      <trkpt lat="43.61827" lon="1.20834">
        <ele>221.39999389648</ele>
        <time>2016-01-16T09:04:43.000Z</time>
      </trkpt>
      <trkpt lat="43.61817" lon="1.20857">
        <ele>222.60000610352</ele>
        <time>2016-01-16T09:04:49.000Z</time>
      </trkpt>
      <trkpt lat="43.61809" lon="1.20876">
        <ele>222</ele>
        <time>2016-01-16T09:04:54.000Z</time>
      </trkpt>
      <trkpt lat="43.61801" lon="1.20894">
        <ele>221</ele>
        <time>2016-01-16T09:04:58.000Z</time>
      </trkpt>
      <trkpt lat="43.61796" lon="1.20909">
        <ele>220.60000610352</ele>
        <time>2016-01-16T09:05:02.000Z</time>
      </trkpt>
      <trkpt lat="43.61786" lon="1.20933">
        <ele>220</ele>
        <time>2016-01-16T09:05:08.000Z</time>
      </trkpt>
      <trkpt lat="43.61775" lon="1.20956">
        <ele>219.60000610352</ele>
        <time>2016-01-16T09:05:14.000Z</time>
      </trkpt>
      <trkpt lat="43.61766" lon="1.20975">
        <ele>219.19999694824</ele>
        <time>2016-01-16T09:05:19.000Z</time>
      </trkpt>
      <trkpt lat="43.61758" lon="1.20996">
        <ele>217.60000610352</ele>
        <time>2016-01-16T09:05:24.000Z</time>
      </trkpt>
      <trkpt lat="43.61749" lon="1.21017">
        <ele>216</ele>
        <time>2016-01-16T09:05:29.000Z</time>
      </trkpt>
      <trkpt lat="43.6174" lon="1.21039">
        <ele>214.60000610352</ele>
        <time>2016-01-16T09:05:34.000Z</time>
      </trkpt>
      <trkpt lat="43.61729" lon="1.21063">
        <ele>214</ele>
        <time>2016-01-16T09:05:39.000Z</time>
      </trkpt>
      <trkpt lat="43.61719" lon="1.21086">
        <ele>214.39999389648</ele>
        <time>2016-01-16T09:05:44.000Z</time>
      </trkpt>
      <trkpt lat="43.61709" lon="1.21109">
        <ele>214.19999694824</ele>
        <time>2016-01-16T09:05:49.000Z</time>
      </trkpt>
      <trkpt lat="43.61699" lon="1.21133">
        <ele>213.39999389648</ele>
        <time>2016-01-16T09:05:55.000Z</time>
      </trkpt>
      <trkpt lat="43.61691" lon="1.21148">
        <ele>213.19999694824</ele>
        <time>2016-01-16T09:06:01.000Z</time>
      </trkpt>
      <trkpt lat="43.61689" lon="1.21151">
        <ele>213.19999694824</ele>
        <time>2016-01-16T09:06:03.000Z</time>
      </trkpt>
      <trkpt lat="43.61686" lon="1.21158">
        <ele>213</ele>
        <time>2016-01-16T09:06:08.000Z</time>
      </trkpt>
      <trkpt lat="43.61677" lon="1.21177">
        <ele>212.80000305176</ele>
        <time>2016-01-16T09:06:22.000Z</time>
      </trkpt>
      <trkpt lat="43.61673" lon="1.21188">
        <ele>212.60000610352</ele>
        <time>2016-01-16T09:06:30.000Z</time>
      </trkpt>
      <trkpt lat="43.61669" lon="1.21196">
        <ele>212.39999389648</ele>
        <time>2016-01-16T09:06:37.000Z</time>
      </trkpt>
      <trkpt lat="43.61668" lon="1.21199">
        <ele>212.39999389648</ele>
        <time>2016-01-16T09:06:40.000Z</time>
      </trkpt>
      <trkpt lat="43.6166" lon="1.21217">
        <ele>211.80000305176</ele>
        <time>2016-01-16T09:06:47.000Z</time>
      </trkpt>
      <trkpt lat="43.61651" lon="1.2124">
        <ele>211</ele>
        <time>2016-01-16T09:06:53.000Z</time>
      </trkpt>
      <trkpt lat="43.61648" lon="1.2126">
        <ele>210.80000305176</ele>
        <time>2016-01-16T09:06:59.000Z</time>
      </trkpt>
      <trkpt lat="43.61646" lon="1.21263">
        <ele>210.60000610352</ele>
        <time>2016-01-16T09:07:00.000Z</time>
      </trkpt>
      <trkpt lat="43.61639" lon="1.21268">
        <ele>210.19999694824</ele>
        <time>2016-01-16T09:07:03.000Z</time>
      </trkpt>
      <trkpt lat="43.61629" lon="1.21282">
        <ele>208.60000610352</ele>
        <time>2016-01-16T09:07:08.000Z</time>
      </trkpt>
      <trkpt lat="43.61617" lon="1.21304">
        <ele>206.80000305176</ele>
        <time>2016-01-16T09:07:14.000Z</time>
      </trkpt>
      <trkpt lat="43.61605" lon="1.21324">
        <ele>205</ele>
        <time>2016-01-16T09:07:20.000Z</time>
      </trkpt>
      <trkpt lat="43.61592" lon="1.21346">
        <ele>203.80000305176</ele>
        <time>2016-01-16T09:07:27.000Z</time>
      </trkpt>
      <trkpt lat="43.6158" lon="1.21366">
        <ele>203</ele>
        <time>2016-01-16T09:07:33.000Z</time>
      </trkpt>
      <trkpt lat="43.61571" lon="1.2138">
        <ele>202.80000305176</ele>
        <time>2016-01-16T09:07:38.000Z</time>
      </trkpt>
      <trkpt lat="43.61565" lon="1.21388">
        <ele>203</ele>
        <time>2016-01-16T09:07:42.000Z</time>
      </trkpt>
      <trkpt lat="43.61564" lon="1.21389">
        <ele>203</ele>
        <time>2016-01-16T09:07:48.000Z</time>
      </trkpt>
      <trkpt lat="43.61561" lon="1.21396">
        <ele>203</ele>
        <time>2016-01-16T09:07:52.000Z</time>
      </trkpt>
      <trkpt lat="43.6155" lon="1.21415">
        <ele>202</ele>
        <time>2016-01-16T09:07:58.000Z</time>
      </trkpt>
      <trkpt lat="43.61539" lon="1.21432">
        <ele>201.60000610352</ele>
        <time>2016-01-16T09:08:04.000Z</time>
      </trkpt>
      <trkpt lat="43.61535" lon="1.2144">
        <ele>201.60000610352</ele>
        <time>2016-01-16T09:08:07.000Z</time>
      </trkpt>
      <trkpt lat="43.6153" lon="1.21449">
        <ele>201.39999389648</ele>
        <time>2016-01-16T09:08:09.000Z</time>
      </trkpt>
      <trkpt lat="43.61518" lon="1.21467">
        <ele>201.19999694824</ele>
        <time>2016-01-16T09:08:15.000Z</time>
      </trkpt>
      <trkpt lat="43.61509" lon="1.21482">
        <ele>200.80000305176</ele>
        <time>2016-01-16T09:08:20.000Z</time>
      </trkpt>
      <trkpt lat="43.61496" lon="1.21503">
        <ele>200.19999694824</ele>
        <time>2016-01-16T09:08:27.000Z</time>
      </trkpt>
      <trkpt lat="43.61486" lon="1.21518">
        <ele>199.80000305176</ele>
        <time>2016-01-16T09:08:32.000Z</time>
      </trkpt>
      <trkpt lat="43.61474" lon="1.21539">
        <ele>199.19999694824</ele>
        <time>2016-01-16T09:08:39.000Z</time>
      </trkpt>
      <trkpt lat="43.61464" lon="1.21557">
        <ele>198.80000305176</ele>
        <time>2016-01-16T09:08:45.000Z</time>
      </trkpt>
      <trkpt lat="43.61451" lon="1.21578">
        <ele>198.19999694824</ele>
        <time>2016-01-16T09:08:52.000Z</time>
      </trkpt>
      <trkpt lat="43.61439" lon="1.21599">
        <ele>198</ele>
        <time>2016-01-16T09:08:59.000Z</time>
      </trkpt>
      <trkpt lat="43.61429" lon="1.21616">
        <ele>198</ele>
        <time>2016-01-16T09:09:05.000Z</time>
      </trkpt>
      <trkpt lat="43.6142" lon="1.21631">
        <ele>197.80000305176</ele>
        <time>2016-01-16T09:09:10.000Z</time>
      </trkpt>
      <trkpt lat="43.61413" lon="1.21643">
        <ele>198.19999694824</ele>
        <time>2016-01-16T09:09:14.000Z</time>
      </trkpt>
      <trkpt lat="43.61404" lon="1.21658">
        <ele>198.60000610352</ele>
        <time>2016-01-16T09:09:19.000Z</time>
      </trkpt>
      <trkpt lat="43.61398" lon="1.21669">
        <ele>198.80000305176</ele>
        <time>2016-01-16T09:09:23.000Z</time>
      </trkpt>
      <trkpt lat="43.61398" lon="1.21707">
        <ele>198.60000610352</ele>
        <time>2016-01-16T09:09:35.000Z</time>
      </trkpt>
      <trkpt lat="43.61402" lon="1.21724">
        <ele>198.39999389648</ele>
        <time>2016-01-16T09:09:40.000Z</time>
      </trkpt>
      <trkpt lat="43.61406" lon="1.2174">
        <ele>198.39999389648</ele>
        <time>2016-01-16T09:09:45.000Z</time>
      </trkpt>
      <trkpt lat="43.61405" lon="1.21762">
        <ele>198.60000610352</ele>
        <time>2016-01-16T09:09:51.000Z</time>
      </trkpt>
      <trkpt lat="43.61403" lon="1.21779">
        <ele>198.80000305176</ele>
        <time>2016-01-16T09:09:56.000Z</time>
      </trkpt>
      <trkpt lat="43.61401" lon="1.21795">
        <ele>198.80000305176</ele>
        <time>2016-01-16T09:10:01.000Z</time>
      </trkpt>
      <trkpt lat="43.61397" lon="1.21812">
        <ele>198.60000610352</ele>
        <time>2016-01-16T09:10:06.000Z</time>
      </trkpt>
      <trkpt lat="43.61394" lon="1.21833">
        <ele>197.80000305176</ele>
        <time>2016-01-16T09:10:12.000Z</time>
      </trkpt>
      <trkpt lat="43.61391" lon="1.21854">
        <ele>197</ele>
        <time>2016-01-16T09:10:18.000Z</time>
      </trkpt>
      <trkpt lat="43.61386" lon="1.21879">
        <ele>196.60000610352</ele>
        <time>2016-01-16T09:10:25.000Z</time>
      </trkpt>
      <trkpt lat="43.61382" lon="1.21898">
        <ele>196.19999694824</ele>
        <time>2016-01-16T09:10:30.000Z</time>
      </trkpt>
      <trkpt lat="43.61382" lon="1.21913">
        <ele>196</ele>
        <time>2016-01-16T09:10:34.000Z</time>
      </trkpt>
      <trkpt lat="43.61378" lon="1.21933">
        <ele>195.60000610352</ele>
        <time>2016-01-16T09:10:39.000Z</time>
      </trkpt>
      <trkpt lat="43.61375" lon="1.21957">
        <ele>195.19999694824</ele>
        <time>2016-01-16T09:10:45.000Z</time>
      </trkpt>
      <trkpt lat="43.61372" lon="1.21979">
        <ele>195</ele>
        <time>2016-01-16T09:10:51.000Z</time>
      </trkpt>
      <trkpt lat="43.61369" lon="1.21999">
        <ele>195</ele>
        <time>2016-01-16T09:10:57.000Z</time>
      </trkpt>
      <trkpt lat="43.61367" lon="1.22014">
        <ele>195.19999694824</ele>
        <time>2016-01-16T09:11:01.000Z</time>
      </trkpt>
      <trkpt lat="43.61364" lon="1.22032">
        <ele>195.39999389648</ele>
        <time>2016-01-16T09:11:06.000Z</time>
      </trkpt>
      <trkpt lat="43.6136" lon="1.22048">
        <ele>195.80000305176</ele>
        <time>2016-01-16T09:11:11.000Z</time>
      </trkpt>
      <trkpt lat="43.61357" lon="1.22068">
        <ele>196</ele>
        <time>2016-01-16T09:11:17.000Z</time>
      </trkpt>
      <trkpt lat="43.61354" lon="1.22085">
        <ele>195.80000305176</ele>
        <time>2016-01-16T09:11:22.000Z</time>
      </trkpt>
      <trkpt lat="43.61349" lon="1.22105">
        <ele>195.39999389648</ele>
        <time>2016-01-16T09:11:28.000Z</time>
      </trkpt>
      <trkpt lat="43.61343" lon="1.22131">
        <ele>195.19999694824</ele>
        <time>2016-01-16T09:11:35.000Z</time>
      </trkpt>
      <trkpt lat="43.61336" lon="1.22171">
        <ele>194.80000305176</ele>
        <time>2016-01-16T09:11:47.000Z</time>
      </trkpt>
      <trkpt lat="43.61332" lon="1.22191">
        <ele>194.60000610352</ele>
        <time>2016-01-16T09:11:52.000Z</time>
      </trkpt>
      <trkpt lat="43.61327" lon="1.22212">
        <ele>194.60000610352</ele>
        <time>2016-01-16T09:11:58.000Z</time>
      </trkpt>
      <trkpt lat="43.61321" lon="1.22225">
        <ele>194.80000305176</ele>
        <time>2016-01-16T09:12:03.000Z</time>
      </trkpt>
      <trkpt lat="43.61311" lon="1.22238">
        <ele>195</ele>
        <time>2016-01-16T09:12:08.000Z</time>
      </trkpt>
      <trkpt lat="43.61298" lon="1.22255">
        <ele>195.39999389648</ele>
        <time>2016-01-16T09:12:14.000Z</time>
      </trkpt>
      <trkpt lat="43.61286" lon="1.22269">
        <ele>195.19999694824</ele>
        <time>2016-01-16T09:12:19.000Z</time>
      </trkpt>
      <trkpt lat="43.61276" lon="1.2228">
        <ele>195.19999694824</ele>
        <time>2016-01-16T09:12:24.000Z</time>
      </trkpt>
      <trkpt lat="43.61263" lon="1.22296">
        <ele>195</ele>
        <time>2016-01-16T09:12:30.000Z</time>
      </trkpt>
      <trkpt lat="43.6125" lon="1.22309">
        <ele>195</ele>
        <time>2016-01-16T09:12:36.000Z</time>
      </trkpt>
      <trkpt lat="43.61238" lon="1.22318">
        <ele>195</ele>
        <time>2016-01-16T09:12:41.000Z</time>
      </trkpt>
      <trkpt lat="43.61226" lon="1.22326">
        <ele>195</ele>
        <time>2016-01-16T09:12:47.000Z</time>
      </trkpt>
      <trkpt lat="43.61217" lon="1.22333">
        <ele>195</ele>
        <time>2016-01-16T09:12:50.000Z</time>
      </trkpt>
      <trkpt lat="43.61205" lon="1.22342">
        <ele>195</ele>
        <time>2016-01-16T09:12:55.000Z</time>
      </trkpt>
      <trkpt lat="43.61188" lon="1.22357">
        <ele>195</ele>
        <time>2016-01-16T09:13:02.000Z</time>
      </trkpt>
      <trkpt lat="43.61174" lon="1.22369">
        <ele>194.80000305176</ele>
        <time>2016-01-16T09:13:08.000Z</time>
      </trkpt>
      <trkpt lat="43.61163" lon="1.22378">
        <ele>194.60000610352</ele>
        <time>2016-01-16T09:13:13.000Z</time>
      </trkpt>
      <trkpt lat="43.61151" lon="1.22389">
        <ele>194.60000610352</ele>
        <time>2016-01-16T09:13:18.000Z</time>
      </trkpt>
      <trkpt lat="43.6114" lon="1.22407">
        <ele>194.39999389648</ele>
        <time>2016-01-16T09:13:24.000Z</time>
      </trkpt>
      <trkpt lat="43.61132" lon="1.22433">
        <ele>194</ele>
        <time>2016-01-16T09:13:31.000Z</time>
      </trkpt>
      <trkpt lat="43.61124" lon="1.22454">
        <ele>193.60000610352</ele>
        <time>2016-01-16T09:13:37.000Z</time>
      </trkpt>
      <trkpt lat="43.61123" lon="1.22458">
        <ele>193.60000610352</ele>
        <time>2016-01-16T09:13:38.000Z</time>
      </trkpt>
      <trkpt lat="43.61117" lon="1.22475">
        <ele>193.19999694824</ele>
        <time>2016-01-16T09:13:43.000Z</time>
      </trkpt>
      <trkpt lat="43.61111" lon="1.22491">
        <ele>193.19999694824</ele>
        <time>2016-01-16T09:13:48.000Z</time>
      </trkpt>
      <trkpt lat="43.61105" lon="1.22507">
        <ele>193</ele>
        <time>2016-01-16T09:13:53.000Z</time>
      </trkpt>
      <trkpt lat="43.611" lon="1.22524">
        <ele>193</ele>
        <time>2016-01-16T09:13:58.000Z</time>
      </trkpt>
      <trkpt lat="43.61094" lon="1.22541">
        <ele>193</ele>
        <time>2016-01-16T09:14:03.000Z</time>
      </trkpt>
      <trkpt lat="43.61088" lon="1.22557">
        <ele>193</ele>
        <time>2016-01-16T09:14:08.000Z</time>
      </trkpt>
      <trkpt lat="43.6108" lon="1.22582">
        <ele>193.19999694824</ele>
        <time>2016-01-16T09:14:15.000Z</time>
      </trkpt>
      <trkpt lat="43.61073" lon="1.22606">
        <ele>193.60000610352</ele>
        <time>2016-01-16T09:14:22.000Z</time>
      </trkpt>
      <trkpt lat="43.61065" lon="1.22629">
        <ele>194</ele>
        <time>2016-01-16T09:14:29.000Z</time>
      </trkpt>
      <trkpt lat="43.61058" lon="1.22644">
        <ele>194.39999389648</ele>
        <time>2016-01-16T09:14:34.000Z</time>
      </trkpt>
      <trkpt lat="43.61049" lon="1.22661">
        <ele>194.60000610352</ele>
        <time>2016-01-16T09:14:39.000Z</time>
      </trkpt>
      <trkpt lat="43.61039" lon="1.22679">
        <ele>195</ele>
        <time>2016-01-16T09:14:45.000Z</time>
      </trkpt>
      <trkpt lat="43.61031" lon="1.22693">
        <ele>195.19999694824</ele>
        <time>2016-01-16T09:14:50.000Z</time>
      </trkpt>
      <trkpt lat="43.61022" lon="1.22708">
        <ele>195.60000610352</ele>
        <time>2016-01-16T09:14:55.000Z</time>
      </trkpt>
      <trkpt lat="43.61014" lon="1.22723">
        <ele>195.80000305176</ele>
        <time>2016-01-16T09:15:00.000Z</time>
      </trkpt>
      <trkpt lat="43.61004" lon="1.22743">
        <ele>195</ele>
        <time>2016-01-16T09:15:07.000Z</time>
      </trkpt>
      <trkpt lat="43.60999" lon="1.22749">
        <ele>194.60000610352</ele>
        <time>2016-01-16T09:15:10.000Z</time>
      </trkpt>
      <trkpt lat="43.60995" lon="1.22746">
        <ele>194.60000610352</ele>
        <time>2016-01-16T09:15:12.000Z</time>
      </trkpt>
      <trkpt lat="43.60989" lon="1.22755">
        <ele>194</ele>
        <time>2016-01-16T09:15:17.000Z</time>
      </trkpt>
      <trkpt lat="43.60987" lon="1.22758">
        <ele>193.80000305176</ele>
        <time>2016-01-16T09:15:18.000Z</time>
      </trkpt>
      <trkpt lat="43.60979" lon="1.22773">
        <ele>193</ele>
        <time>2016-01-16T09:15:23.000Z</time>
      </trkpt>
      <trkpt lat="43.6097" lon="1.22789">
        <ele>192.60000610352</ele>
        <time>2016-01-16T09:15:29.000Z</time>
      </trkpt>
      <trkpt lat="43.60963" lon="1.22802">
        <ele>192.39999389648</ele>
        <time>2016-01-16T09:15:34.000Z</time>
      </trkpt>
      <trkpt lat="43.60953" lon="1.2282">
        <ele>192.39999389648</ele>
        <time>2016-01-16T09:15:40.000Z</time>
      </trkpt>
      <trkpt lat="43.60946" lon="1.22836">
        <ele>192.39999389648</ele>
        <time>2016-01-16T09:15:45.000Z</time>
      </trkpt>
      <trkpt lat="43.60938" lon="1.2285">
        <ele>192.39999389648</ele>
        <time>2016-01-16T09:15:50.000Z</time>
      </trkpt>
      <trkpt lat="43.6093" lon="1.22863">
        <ele>192.60000610352</ele>
        <time>2016-01-16T09:15:55.000Z</time>
      </trkpt>
      <trkpt lat="43.60921" lon="1.22877">
        <ele>193</ele>
        <time>2016-01-16T09:16:00.000Z</time>
      </trkpt>
      <trkpt lat="43.60914" lon="1.22886">
        <ele>193</ele>
        <time>2016-01-16T09:16:04.000Z</time>
      </trkpt>
      <trkpt lat="43.60903" lon="1.22904">
        <ele>193</ele>
        <time>2016-01-16T09:16:11.000Z</time>
      </trkpt>
      <trkpt lat="43.60895" lon="1.22917">
        <ele>193</ele>
        <time>2016-01-16T09:16:16.000Z</time>
      </trkpt>
      <trkpt lat="43.60885" lon="1.22929">
        <ele>193</ele>
        <time>2016-01-16T09:16:21.000Z</time>
      </trkpt>
      <trkpt lat="43.60878" lon="1.22943">
        <ele>192.80000305176</ele>
        <time>2016-01-16T09:16:26.000Z</time>
      </trkpt>
      <trkpt lat="43.6087" lon="1.22959">
        <ele>192.39999389648</ele>
        <time>2016-01-16T09:16:32.000Z</time>
      </trkpt>
      <trkpt lat="43.60865" lon="1.22971">
        <ele>192.19999694824</ele>
        <time>2016-01-16T09:16:36.000Z</time>
      </trkpt>
      <trkpt lat="43.60857" lon="1.22989">
        <ele>192.39999389648</ele>
        <time>2016-01-16T09:16:42.000Z</time>
      </trkpt>
      <trkpt lat="43.60852" lon="1.23004">
        <ele>192.60000610352</ele>
        <time>2016-01-16T09:16:47.000Z</time>
      </trkpt>
      <trkpt lat="43.60847" lon="1.23018">
        <ele>193</ele>
        <time>2016-01-16T09:16:52.000Z</time>
      </trkpt>
      <trkpt lat="43.60839" lon="1.23028">
        <ele>193.39999389648</ele>
        <time>2016-01-16T09:16:57.000Z</time>
      </trkpt>
      <trkpt lat="43.60831" lon="1.23038">
        <ele>193.60000610352</ele>
        <time>2016-01-16T09:17:03.000Z</time>
      </trkpt>
      <trkpt lat="43.60825" lon="1.23047">
        <ele>194</ele>
        <time>2016-01-16T09:17:07.000Z</time>
      </trkpt>
      <trkpt lat="43.60818" lon="1.23059">
        <ele>194.39999389648</ele>
        <time>2016-01-16T09:17:12.000Z</time>
      </trkpt>
      <trkpt lat="43.6081" lon="1.23067">
        <ele>194.39999389648</ele>
        <time>2016-01-16T09:17:18.000Z</time>
      </trkpt>
      <trkpt lat="43.60806" lon="1.23072">
        <ele>194.39999389648</ele>
        <time>2016-01-16T09:17:22.000Z</time>
      </trkpt>
      <trkpt lat="43.60803" lon="1.23074">
        <ele>194.19999694824</ele>
        <time>2016-01-16T09:17:24.000Z</time>
      </trkpt>
      <trkpt lat="43.60793" lon="1.23086">
        <ele>194.19999694824</ele>
        <time>2016-01-16T09:17:29.000Z</time>
      </trkpt>
      <trkpt lat="43.60786" lon="1.23113">
        <ele>193.60000610352</ele>
        <time>2016-01-16T09:17:38.000Z</time>
      </trkpt>
      <trkpt lat="43.60783" lon="1.23129">
        <ele>193.19999694824</ele>
        <time>2016-01-16T09:17:43.000Z</time>
      </trkpt>
      <trkpt lat="43.60779" lon="1.23147">
        <ele>192.80000305176</ele>
        <time>2016-01-16T09:17:49.000Z</time>
      </trkpt>
      <trkpt lat="43.60776" lon="1.23162">
        <ele>192.80000305176</ele>
        <time>2016-01-16T09:17:54.000Z</time>
      </trkpt>
      <trkpt lat="43.60774" lon="1.23177">
        <ele>192.39999389648</ele>
        <time>2016-01-16T09:17:59.000Z</time>
      </trkpt>
      <trkpt lat="43.60772" lon="1.23194">
        <ele>192</ele>
        <time>2016-01-16T09:18:04.000Z</time>
      </trkpt>
      <trkpt lat="43.60771" lon="1.23214">
        <ele>191.39999389648</ele>
        <time>2016-01-16T09:18:10.000Z</time>
      </trkpt>
      <trkpt lat="43.60771" lon="1.23217">
        <ele>191.39999389648</ele>
        <time>2016-01-16T09:18:11.000Z</time>
      </trkpt>
      <trkpt lat="43.60764" lon="1.23234">
        <ele>191.19999694824</ele>
        <time>2016-01-16T09:18:17.000Z</time>
      </trkpt>
      <trkpt lat="43.60764" lon="1.23247">
        <ele>191.39999389648</ele>
        <time>2016-01-16T09:18:21.000Z</time>
      </trkpt>
      <trkpt lat="43.60763" lon="1.23251">
        <ele>191.60000610352</ele>
        <time>2016-01-16T09:18:22.000Z</time>
      </trkpt>
      <trkpt lat="43.60762" lon="1.23266">
        <ele>191.80000305176</ele>
        <time>2016-01-16T09:18:27.000Z</time>
      </trkpt>
      <trkpt lat="43.60757" lon="1.2329">
        <ele>192.19999694824</ele>
        <time>2016-01-16T09:18:34.000Z</time>
      </trkpt>
      <trkpt lat="43.60753" lon="1.23309">
        <ele>192.60000610352</ele>
        <time>2016-01-16T09:18:40.000Z</time>
      </trkpt>
      <trkpt lat="43.60751" lon="1.23325">
        <ele>193</ele>
        <time>2016-01-16T09:18:45.000Z</time>
      </trkpt>
      <trkpt lat="43.60747" lon="1.2335">
        <ele>193.60000610352</ele>
        <time>2016-01-16T09:18:53.000Z</time>
      </trkpt>
      <trkpt lat="43.60744" lon="1.23366">
        <ele>194.19999694824</ele>
        <time>2016-01-16T09:18:58.000Z</time>
      </trkpt>
      <trkpt lat="43.60741" lon="1.23383">
        <ele>194.39999389648</ele>
        <time>2016-01-16T09:19:03.000Z</time>
      </trkpt>
      <trkpt lat="43.60738" lon="1.23402">
        <ele>195</ele>
        <time>2016-01-16T09:19:09.000Z</time>
      </trkpt>
      <trkpt lat="43.60736" lon="1.23405">
        <ele>195</ele>
        <time>2016-01-16T09:19:10.000Z</time>
      </trkpt>
      <trkpt lat="43.60731" lon="1.23412">
        <ele>195.19999694824</ele>
        <time>2016-01-16T09:19:13.000Z</time>
      </trkpt>
      <trkpt lat="43.6072" lon="1.23424">
        <ele>195.80000305176</ele>
        <time>2016-01-16T09:19:19.000Z</time>
      </trkpt>
      <trkpt lat="43.60718" lon="1.23427">
        <ele>196</ele>
        <time>2016-01-16T09:19:20.000Z</time>
      </trkpt>
      <trkpt lat="43.60711" lon="1.23451">
        <ele>195.60000610352</ele>
        <time>2016-01-16T09:19:27.000Z</time>
      </trkpt>
      <trkpt lat="43.60706" lon="1.23464">
        <ele>195.39999389648</ele>
        <time>2016-01-16T09:19:31.000Z</time>
      </trkpt>
      <trkpt lat="43.60701" lon="1.23482">
        <ele>195.19999694824</ele>
        <time>2016-01-16T09:19:37.000Z</time>
      </trkpt>
      <trkpt lat="43.60696" lon="1.23498">
        <ele>194.80000305176</ele>
        <time>2016-01-16T09:19:42.000Z</time>
      </trkpt>
      <trkpt lat="43.60695" lon="1.23501">
        <ele>194.80000305176</ele>
        <time>2016-01-16T09:19:43.000Z</time>
      </trkpt>
      <trkpt lat="43.6069" lon="1.23516">
        <ele>194.60000610352</ele>
        <time>2016-01-16T09:19:48.000Z</time>
      </trkpt>
      <trkpt lat="43.60687" lon="1.23522">
        <ele>194.60000610352</ele>
        <time>2016-01-16T09:19:50.000Z</time>
      </trkpt>
      <trkpt lat="43.60682" lon="1.23534">
        <ele>194.39999389648</ele>
        <time>2016-01-16T09:19:54.000Z</time>
      </trkpt>
      <trkpt lat="43.60677" lon="1.23554">
        <ele>194.19999694824</ele>
        <time>2016-01-16T09:20:00.000Z</time>
      </trkpt>
      <trkpt lat="43.60671" lon="1.23573">
        <ele>194.19999694824</ele>
        <time>2016-01-16T09:20:07.000Z</time>
      </trkpt>
      <trkpt lat="43.60665" lon="1.23593">
        <ele>194.19999694824</ele>
        <time>2016-01-16T09:20:12.000Z</time>
      </trkpt>
      <trkpt lat="43.60661" lon="1.23608">
        <ele>194.19999694824</ele>
        <time>2016-01-16T09:20:17.000Z</time>
      </trkpt>
      <trkpt lat="43.60655" lon="1.2363">
        <ele>194</ele>
        <time>2016-01-16T09:20:23.000Z</time>
      </trkpt>
      <trkpt lat="43.6065" lon="1.23652">
        <ele>193.39999389648</ele>
        <time>2016-01-16T09:20:29.000Z</time>
      </trkpt>
      <trkpt lat="43.60644" lon="1.23672">
        <ele>192.80000305176</ele>
        <time>2016-01-16T09:20:36.000Z</time>
      </trkpt>
      <trkpt lat="43.60638" lon="1.23691">
        <ele>192.39999389648</ele>
        <time>2016-01-16T09:20:41.000Z</time>
      </trkpt>
      <trkpt lat="43.60637" lon="1.23695">
        <ele>192.39999389648</ele>
        <time>2016-01-16T09:20:42.000Z</time>
      </trkpt>
      <trkpt lat="43.60632" lon="1.23717">
        <ele>192.19999694824</ele>
        <time>2016-01-16T09:20:48.000Z</time>
      </trkpt>
      <trkpt lat="43.60631" lon="1.23721">
        <ele>192.19999694824</ele>
        <time>2016-01-16T09:20:49.000Z</time>
      </trkpt>
      <trkpt lat="43.60627" lon="1.2374">
        <ele>191.80000305176</ele>
        <time>2016-01-16T09:20:54.000Z</time>
      </trkpt>
      <trkpt lat="43.60622" lon="1.23755">
        <ele>191.80000305176</ele>
        <time>2016-01-16T09:20:58.000Z</time>
      </trkpt>
      <trkpt lat="43.60617" lon="1.2377">
        <ele>191.80000305176</ele>
        <time>2016-01-16T09:21:02.000Z</time>
      </trkpt>
      <trkpt lat="43.60611" lon="1.23791">
        <ele>191.80000305176</ele>
        <time>2016-01-16T09:21:08.000Z</time>
      </trkpt>
      <trkpt lat="43.60606" lon="1.23809">
        <ele>192</ele>
        <time>2016-01-16T09:21:13.000Z</time>
      </trkpt>
      <trkpt lat="43.60604" lon="1.23822">
        <ele>192</ele>
        <time>2016-01-16T09:21:17.000Z</time>
      </trkpt>
      <trkpt lat="43.60596" lon="1.23844">
        <ele>192</ele>
        <time>2016-01-16T09:21:23.000Z</time>
      </trkpt>
      <trkpt lat="43.60594" lon="1.2385">
        <ele>192</ele>
        <time>2016-01-16T09:21:25.000Z</time>
      </trkpt>
      <trkpt lat="43.60587" lon="1.23875">
        <ele>192.19999694824</ele>
        <time>2016-01-16T09:21:32.000Z</time>
      </trkpt>
      <trkpt lat="43.60582" lon="1.23891">
        <ele>192.60000610352</ele>
        <time>2016-01-16T09:21:37.000Z</time>
      </trkpt>
      <trkpt lat="43.60576" lon="1.23912">
        <ele>193.39999389648</ele>
        <time>2016-01-16T09:21:43.000Z</time>
      </trkpt>
      <trkpt lat="43.60572" lon="1.23924">
        <ele>193.80000305176</ele>
        <time>2016-01-16T09:21:47.000Z</time>
      </trkpt>
      <trkpt lat="43.6057" lon="1.23934">
        <ele>194</ele>
        <time>2016-01-16T09:21:50.000Z</time>
      </trkpt>
      <trkpt lat="43.60564" lon="1.23939">
        <ele>194.39999389648</ele>
        <time>2016-01-16T09:21:54.000Z</time>
      </trkpt>
      <trkpt lat="43.60549" lon="1.23935">
        <ele>194.80000305176</ele>
        <time>2016-01-16T09:22:00.000Z</time>
      </trkpt>
      <trkpt lat="43.60535" lon="1.23927">
        <ele>195.19999694824</ele>
        <time>2016-01-16T09:22:06.000Z</time>
      </trkpt>
      <trkpt lat="43.60522" lon="1.23928">
        <ele>195.60000610352</ele>
        <time>2016-01-16T09:22:12.000Z</time>
      </trkpt>
      <trkpt lat="43.60516" lon="1.23934">
        <ele>195.80000305176</ele>
        <time>2016-01-16T09:22:15.000Z</time>
      </trkpt>
      <trkpt lat="43.60497" lon="1.23984">
        <ele>195</ele>
        <time>2016-01-16T09:22:32.000Z</time>
      </trkpt>
      <trkpt lat="43.6049" lon="1.23998">
        <ele>193.19999694824</ele>
        <time>2016-01-16T09:22:38.000Z</time>
      </trkpt>
      <trkpt lat="43.60484" lon="1.24009">
        <ele>191.60000610352</ele>
        <time>2016-01-16T09:22:43.000Z</time>
      </trkpt>
      <trkpt lat="43.60478" lon="1.2402">
        <ele>190.19999694824</ele>
        <time>2016-01-16T09:22:48.000Z</time>
      </trkpt>
      <trkpt lat="43.60473" lon="1.24039">
        <ele>188.19999694824</ele>
        <time>2016-01-16T09:22:55.000Z</time>
      </trkpt>
      <trkpt lat="43.60468" lon="1.24049">
        <ele>187.19999694824</ele>
        <time>2016-01-16T09:22:59.000Z</time>
      </trkpt>
      <trkpt lat="43.60465" lon="1.24054">
        <ele>186.39999389648</ele>
        <time>2016-01-16T09:23:01.000Z</time>
      </trkpt>
      <trkpt lat="43.6045" lon="1.24056">
        <ele>185.39999389648</ele>
        <time>2016-01-16T09:23:07.000Z</time>
      </trkpt>
      <trkpt lat="43.60438" lon="1.2405">
        <ele>185.19999694824</ele>
        <time>2016-01-16T09:23:13.000Z</time>
      </trkpt>
      <trkpt lat="43.60425" lon="1.24044">
        <ele>184.39999389648</ele>
        <time>2016-01-16T09:23:19.000Z</time>
      </trkpt>
      <trkpt lat="43.60406" lon="1.24037">
        <ele>183</ele>
        <time>2016-01-16T09:23:27.000Z</time>
      </trkpt>
      <trkpt lat="43.60388" lon="1.24029">
        <ele>182.39999389648</ele>
        <time>2016-01-16T09:23:34.000Z</time>
      </trkpt>
      <trkpt lat="43.60371" lon="1.24019">
        <ele>182</ele>
        <time>2016-01-16T09:23:41.000Z</time>
      </trkpt>
      <trkpt lat="43.60359" lon="1.24014">
        <ele>181.60000610352</ele>
        <time>2016-01-16T09:23:47.000Z</time>
      </trkpt>
      <trkpt lat="43.60353" lon="1.24013">
        <ele>181.39999389648</ele>
        <time>2016-01-16T09:23:49.000Z</time>
      </trkpt>
      <trkpt lat="43.60341" lon="1.24011">
        <ele>181.80000305176</ele>
        <time>2016-01-16T09:23:55.000Z</time>
      </trkpt>
      <trkpt lat="43.60339" lon="1.2401">
        <ele>181.80000305176</ele>
        <time>2016-01-16T09:23:56.000Z</time>
      </trkpt>
      <trkpt lat="43.60327" lon="1.23999">
        <ele>182.19999694824</ele>
        <time>2016-01-16T09:24:02.000Z</time>
      </trkpt>
      <trkpt lat="43.60317" lon="1.2399">
        <ele>182.39999389648</ele>
        <time>2016-01-16T09:24:07.000Z</time>
      </trkpt>
      <trkpt lat="43.60314" lon="1.23989">
        <ele>182.39999389648</ele>
        <time>2016-01-16T09:24:08.000Z</time>
      </trkpt>
      <trkpt lat="43.60307" lon="1.23996">
        <ele>182.80000305176</ele>
        <time>2016-01-16T09:24:12.000Z</time>
      </trkpt>
      <trkpt lat="43.60297" lon="1.24006">
        <ele>183.39999389648</ele>
        <time>2016-01-16T09:24:18.000Z</time>
      </trkpt>
      <trkpt lat="43.60285" lon="1.24019">
        <ele>184.60000610352</ele>
        <time>2016-01-16T09:24:24.000Z</time>
      </trkpt>
      <trkpt lat="43.60275" lon="1.24027">
        <ele>185.80000305176</ele>
        <time>2016-01-16T09:24:29.000Z</time>
      </trkpt>
      <trkpt lat="43.60267" lon="1.24035">
        <ele>186.60000610352</ele>
        <time>2016-01-16T09:24:34.000Z</time>
      </trkpt>
      <trkpt lat="43.60259" lon="1.24043">
        <ele>187</ele>
        <time>2016-01-16T09:24:39.000Z</time>
      </trkpt>
      <trkpt lat="43.60253" lon="1.24046">
        <ele>187</ele>
        <time>2016-01-16T09:24:43.000Z</time>
      </trkpt>
      <trkpt lat="43.60249" lon="1.24049">
        <ele>187.39999389648</ele>
        <time>2016-01-16T09:24:47.000Z</time>
      </trkpt>
      <trkpt lat="43.60245" lon="1.24051">
        <ele>187.60000610352</ele>
        <time>2016-01-16T09:24:50.000Z</time>
      </trkpt>
      <trkpt lat="43.60239" lon="1.24059">
        <ele>188.39999389648</ele>
        <time>2016-01-16T09:24:57.000Z</time>
      </trkpt>
      <trkpt lat="43.60236" lon="1.24067">
        <ele>189</ele>
        <time>2016-01-16T09:25:02.000Z</time>
      </trkpt>
      <trkpt lat="43.60227" lon="1.24079">
        <ele>190</ele>
        <time>2016-01-16T09:25:08.000Z</time>
      </trkpt>
      <trkpt lat="43.60219" lon="1.24095">
        <ele>191.19999694824</ele>
        <time>2016-01-16T09:25:14.000Z</time>
      </trkpt>
      <trkpt lat="43.60212" lon="1.24105">
        <ele>191.80000305176</ele>
        <time>2016-01-16T09:25:19.000Z</time>
      </trkpt>
      <trkpt lat="43.6021" lon="1.24108">
        <ele>191.80000305176</ele>
        <time>2016-01-16T09:25:20.000Z</time>
      </trkpt>
      <trkpt lat="43.60203" lon="1.24124">
        <ele>192.80000305176</ele>
        <time>2016-01-16T09:25:27.000Z</time>
      </trkpt>
      <trkpt lat="43.60191" lon="1.24141">
        <ele>193.80000305176</ele>
        <time>2016-01-16T09:25:34.000Z</time>
      </trkpt>
      <trkpt lat="43.60183" lon="1.24151">
        <ele>194</ele>
        <time>2016-01-16T09:25:38.000Z</time>
      </trkpt>
      <trkpt lat="43.60174" lon="1.24163">
        <ele>194.19999694824</ele>
        <time>2016-01-16T09:25:43.000Z</time>
      </trkpt>
      <trkpt lat="43.60162" lon="1.24179">
        <ele>194.19999694824</ele>
        <time>2016-01-16T09:25:50.000Z</time>
      </trkpt>
      <trkpt lat="43.60152" lon="1.24191">
        <ele>194.39999389648</ele>
        <time>2016-01-16T09:25:55.000Z</time>
      </trkpt>
      <trkpt lat="43.60142" lon="1.24204">
        <ele>194.60000610352</ele>
        <time>2016-01-16T09:26:01.000Z</time>
      </trkpt>
      <trkpt lat="43.60145" lon="1.24214">
        <ele>194.39999389648</ele>
        <time>2016-01-16T09:26:04.000Z</time>
      </trkpt>
      <trkpt lat="43.60148" lon="1.24216">
        <ele>194.39999389648</ele>
        <time>2016-01-16T09:26:06.000Z</time>
      </trkpt>
      <trkpt lat="43.60165" lon="1.24231">
        <ele>194.19999694824</ele>
        <time>2016-01-16T09:26:12.000Z</time>
      </trkpt>
      <trkpt lat="43.60176" lon="1.24243">
        <ele>194.19999694824</ele>
        <time>2016-01-16T09:26:17.000Z</time>
      </trkpt>
      <trkpt lat="43.60188" lon="1.24255">
        <ele>194.19999694824</ele>
        <time>2016-01-16T09:26:22.000Z</time>
      </trkpt>
      <trkpt lat="43.60202" lon="1.24271">
        <ele>194</ele>
        <time>2016-01-16T09:26:28.000Z</time>
      </trkpt>
      <trkpt lat="43.60216" lon="1.24285">
        <ele>194</ele>
        <time>2016-01-16T09:26:34.000Z</time>
      </trkpt>
      <trkpt lat="43.60233" lon="1.24301">
        <ele>193.80000305176</ele>
        <time>2016-01-16T09:26:41.000Z</time>
      </trkpt>
      <trkpt lat="43.60248" lon="1.24316">
        <ele>193.39999389648</ele>
        <time>2016-01-16T09:26:47.000Z</time>
      </trkpt>
      <trkpt lat="43.60261" lon="1.24332">
        <ele>193</ele>
        <time>2016-01-16T09:26:52.000Z</time>
      </trkpt>
      <trkpt lat="43.60268" lon="1.24349">
        <ele>192.60000610352</ele>
        <time>2016-01-16T09:26:57.000Z</time>
      </trkpt>
      <trkpt lat="43.6027" lon="1.24363">
        <ele>192.39999389648</ele>
        <time>2016-01-16T09:27:02.000Z</time>
      </trkpt>
      <trkpt lat="43.6027" lon="1.24376">
        <ele>192.19999694824</ele>
        <time>2016-01-16T09:27:07.000Z</time>
      </trkpt>
      <trkpt lat="43.6027" lon="1.24392">
        <ele>192</ele>
        <time>2016-01-16T09:27:14.000Z</time>
      </trkpt>
      <trkpt lat="43.6027" lon="1.24394">
        <ele>192</ele>
        <time>2016-01-16T09:27:16.000Z</time>
      </trkpt>
      <trkpt lat="43.60271" lon="1.24407">
        <ele>192</ele>
        <time>2016-01-16T09:27:22.000Z</time>
      </trkpt>
      <trkpt lat="43.60271" lon="1.24419">
        <ele>192</ele>
        <time>2016-01-16T09:27:27.000Z</time>
      </trkpt>
      <trkpt lat="43.60271" lon="1.24434">
        <ele>192</ele>
        <time>2016-01-16T09:27:34.000Z</time>
      </trkpt>
    </trkseg>
  </trk>
</gpx>